<?xml version='1.0' encoding='UTF-8'?>
<gpx version="1.1" creator="https://www.komoot.de" xmlns="http://www.topografix.com/GPX/1/1" xmlns:xsi="http://www.w3.org/2001/XMLSchema-instance" xsi:schemaLocation="http://www.topografix.com/GPX/1/1 http://www.topografix.com/GPX/1/1/gpx.xsd">
  <metadata>
    <name>Sortie VCN Profiterolles</name>
    <author>
      <link href="https://www.komoot.de">
        <text>komoot</text>
        <type>text/html</type>
      </link>
    </author>
  </metadata>
  <trk>
    <name>Sortie VCN Profiterolles</name>
    <trkseg>
      <trkpt lat="48.884363" lon="2.269366">
        <ele>37.395517</ele>
        <time>2025-02-12T11:37:20.146Z</time>
      </trkpt>
      <trkpt lat="48.884439" lon="2.269026">
        <ele>37.395517</ele>
        <time>2025-02-12T11:37:24.762Z</time>
      </trkpt>
      <trkpt lat="48.882962" lon="2.267885">
        <ele>36.804440</ele>
        <time>2025-02-12T11:37:56.335Z</time>
      </trkpt>
      <trkpt lat="48.882730" lon="2.267707">
        <ele>36.649836</ele>
        <time>2025-02-12T11:38:01.673Z</time>
      </trkpt>
      <trkpt lat="48.882675" lon="2.267899">
        <ele>36.567898</ele>
        <time>2025-02-12T11:38:04.607Z</time>
      </trkpt>
      <trkpt lat="48.882415" lon="2.268745">
        <ele>36.626226</ele>
        <time>2025-02-12T11:38:21.278Z</time>
      </trkpt>
      <trkpt lat="48.882245" lon="2.269273">
        <ele>37.189446</ele>
        <time>2025-02-12T11:38:33.549Z</time>
      </trkpt>
      <trkpt lat="48.882078" lon="2.269144">
        <ele>37.462331</ele>
        <time>2025-02-12T11:38:40.058Z</time>
      </trkpt>
      <trkpt lat="48.881968" lon="2.269066">
        <ele>37.639152</ele>
        <time>2025-02-12T11:38:44.333Z</time>
      </trkpt>
      <trkpt lat="48.881880" lon="2.269001">
        <ele>37.781679</ele>
        <time>2025-02-12T11:38:47.801Z</time>
      </trkpt>
      <trkpt lat="48.881853" lon="2.269087">
        <ele>37.872979</ele>
        <time>2025-02-12T11:38:49.773Z</time>
      </trkpt>
      <trkpt lat="48.881394" lon="2.270538">
        <ele>39.100733</ele>
        <time>2025-02-12T11:39:20.441Z</time>
      </trkpt>
      <trkpt lat="48.881270" lon="2.270704">
        <ele>39.180123</ele>
        <time>2025-02-12T11:39:23.998Z</time>
      </trkpt>
      <trkpt lat="48.881198" lon="2.270908">
        <ele>39.253290</ele>
        <time>2025-02-12T11:39:27.343Z</time>
      </trkpt>
      <trkpt lat="48.880837" lon="2.272027">
        <ele>39.647183</ele>
        <time>2025-02-12T11:39:45.289Z</time>
      </trkpt>
      <trkpt lat="48.880813" lon="2.272011">
        <ele>39.659776</ele>
        <time>2025-02-12T11:39:45.914Z</time>
      </trkpt>
      <trkpt lat="48.880275" lon="2.271697">
        <ele>39.881817</ele>
        <time>2025-02-12T11:40:01.814Z</time>
      </trkpt>
      <trkpt lat="48.880294" lon="2.271499">
        <ele>39.917637</ele>
        <time>2025-02-12T11:40:05.389Z</time>
      </trkpt>
      <trkpt lat="48.879621" lon="2.271143">
        <ele>40.111602</ele>
        <time>2025-02-12T11:40:24.101Z</time>
      </trkpt>
      <trkpt lat="48.878895" lon="2.270766">
        <ele>40.203547</ele>
        <time>2025-02-12T11:40:40.777Z</time>
      </trkpt>
      <trkpt lat="48.878539" lon="2.270574">
        <ele>39.726345</ele>
        <time>2025-02-12T11:40:47.916Z</time>
      </trkpt>
      <trkpt lat="48.878270" lon="2.270428">
        <ele>39.365506</ele>
        <time>2025-02-12T11:40:53.161Z</time>
      </trkpt>
      <trkpt lat="48.878214" lon="2.270374">
        <ele>39.281732</ele>
        <time>2025-02-12T11:40:54.397Z</time>
      </trkpt>
      <trkpt lat="48.878094" lon="2.270259">
        <ele>39.102533</ele>
        <time>2025-02-12T11:40:57.045Z</time>
      </trkpt>
      <trkpt lat="48.877769" lon="2.270090">
        <ele>38.668601</ele>
        <time>2025-02-12T11:41:03.567Z</time>
      </trkpt>
      <trkpt lat="48.877612" lon="2.270005">
        <ele>38.458059</ele>
        <time>2025-02-12T11:41:06.791Z</time>
      </trkpt>
      <trkpt lat="48.877551" lon="2.269940">
        <ele>38.363955</ele>
        <time>2025-02-12T11:41:08.253Z</time>
      </trkpt>
      <trkpt lat="48.877528" lon="2.269928">
        <ele>38.333236</ele>
        <time>2025-02-12T11:41:08.732Z</time>
      </trkpt>
      <trkpt lat="48.877361" lon="2.269702">
        <ele>38.050798</ele>
        <time>2025-02-12T11:41:13.163Z</time>
      </trkpt>
      <trkpt lat="48.877343" lon="2.269760">
        <ele>38.021173</ele>
        <time>2025-02-12T11:41:13.994Z</time>
      </trkpt>
      <trkpt lat="48.877306" lon="2.269789">
        <ele>38.010198</ele>
        <time>2025-02-12T11:41:14.828Z</time>
      </trkpt>
      <trkpt lat="48.877256" lon="2.269822">
        <ele>37.995827</ele>
        <time>2025-02-12T11:41:15.891Z</time>
      </trkpt>
      <trkpt lat="48.877279" lon="2.269935">
        <ele>37.975316</ele>
        <time>2025-02-12T11:41:17.968Z</time>
      </trkpt>
      <trkpt lat="48.877266" lon="2.269996">
        <ele>37.964197</ele>
        <time>2025-02-12T11:41:19.086Z</time>
      </trkpt>
      <trkpt lat="48.876566" lon="2.270327">
        <ele>37.770917</ele>
        <time>2025-02-12T11:41:34.141Z</time>
      </trkpt>
      <trkpt lat="48.876011" lon="2.270474">
        <ele>37.622383</ele>
        <time>2025-02-12T11:41:47.251Z</time>
      </trkpt>
      <trkpt lat="48.875634" lon="2.270568">
        <ele>37.638457</ele>
        <time>2025-02-12T11:41:56.846Z</time>
      </trkpt>
      <trkpt lat="48.875233" lon="2.270724">
        <ele>37.933597</ele>
        <time>2025-02-12T11:42:07.796Z</time>
      </trkpt>
      <trkpt lat="48.874935" lon="2.270828">
        <ele>38.151608</ele>
        <time>2025-02-12T11:42:16.240Z</time>
      </trkpt>
      <trkpt lat="48.874980" lon="2.270953">
        <ele>38.218436</ele>
        <time>2025-02-12T11:42:19.523Z</time>
      </trkpt>
      <trkpt lat="48.874949" lon="2.270960">
        <ele>38.240783</ele>
        <time>2025-02-12T11:42:20.911Z</time>
      </trkpt>
      <trkpt lat="48.874888" lon="2.270977">
        <ele>38.285003</ele>
        <time>2025-02-12T11:42:23.531Z</time>
      </trkpt>
      <trkpt lat="48.874824" lon="2.270993">
        <ele>38.331250</ele>
        <time>2025-02-12T11:42:26.282Z</time>
      </trkpt>
      <trkpt lat="48.874758" lon="2.271007">
        <ele>38.378766</ele>
        <time>2025-02-12T11:42:29.128Z</time>
      </trkpt>
      <trkpt lat="48.874721" lon="2.271012">
        <ele>38.405253</ele>
        <time>2025-02-12T11:42:30.095Z</time>
      </trkpt>
      <trkpt lat="48.874592" lon="2.271009">
        <ele>38.497245</ele>
        <time>2025-02-12T11:42:33.580Z</time>
      </trkpt>
      <trkpt lat="48.874390" lon="2.271046">
        <ele>38.642321</ele>
        <time>2025-02-12T11:42:41.835Z</time>
      </trkpt>
      <trkpt lat="48.873535" lon="2.271075">
        <ele>38.850269</ele>
        <time>2025-02-12T11:43:14.376Z</time>
      </trkpt>
      <trkpt lat="48.873217" lon="2.271097">
        <ele>38.858216</ele>
        <time>2025-02-12T11:43:25.997Z</time>
      </trkpt>
      <trkpt lat="48.872903" lon="2.271047">
        <ele>38.866098</ele>
        <time>2025-02-12T11:43:37.305Z</time>
      </trkpt>
      <trkpt lat="48.872206" lon="2.270844">
        <ele>38.962494</ele>
        <time>2025-02-12T11:44:03.459Z</time>
      </trkpt>
      <trkpt lat="48.872129" lon="2.270810">
        <ele>39.013362</ele>
        <time>2025-02-12T11:44:06.534Z</time>
      </trkpt>
      <trkpt lat="48.871938" lon="2.270723">
        <ele>39.139854</ele>
        <time>2025-02-12T11:44:14.290Z</time>
      </trkpt>
      <trkpt lat="48.871709" lon="2.270564">
        <ele>39.299565</ele>
        <time>2025-02-12T11:44:24.314Z</time>
      </trkpt>
      <trkpt lat="48.871540" lon="2.270497">
        <ele>39.410364</ele>
        <time>2025-02-12T11:44:31.485Z</time>
      </trkpt>
      <trkpt lat="48.870785" lon="2.270179">
        <ele>39.907379</ele>
        <time>2025-02-12T11:45:04.060Z</time>
      </trkpt>
      <trkpt lat="48.870718" lon="2.270181">
        <ele>39.949892</ele>
        <time>2025-02-12T11:45:06.927Z</time>
      </trkpt>
      <trkpt lat="48.870648" lon="2.270240">
        <ele>40.000669</ele>
        <time>2025-02-12T11:45:10.392Z</time>
      </trkpt>
      <trkpt lat="48.870440" lon="2.269821">
        <ele>40.312931</ele>
        <time>2025-02-12T11:45:19.675Z</time>
      </trkpt>
      <trkpt lat="48.870221" lon="2.269452">
        <ele>40.617931</ele>
        <time>2025-02-12T11:45:28.107Z</time>
      </trkpt>
      <trkpt lat="48.869213" lon="2.267667">
        <ele>42.186605</ele>
        <time>2025-02-12T11:46:09.831Z</time>
      </trkpt>
      <trkpt lat="48.868851" lon="2.266894">
        <ele>42.969950</ele>
        <time>2025-02-12T11:46:28.523Z</time>
      </trkpt>
      <trkpt lat="48.868711" lon="2.266517">
        <ele>43.327351</ele>
        <time>2025-02-12T11:46:36.756Z</time>
      </trkpt>
      <trkpt lat="48.868615" lon="2.266153">
        <ele>43.651102</ele>
        <time>2025-02-12T11:46:44.097Z</time>
      </trkpt>
      <trkpt lat="48.868574" lon="2.265877">
        <ele>43.884690</ele>
        <time>2025-02-12T11:46:49.433Z</time>
      </trkpt>
      <trkpt lat="48.868543" lon="2.265435">
        <ele>44.062763</ele>
        <time>2025-02-12T11:46:57.742Z</time>
      </trkpt>
      <trkpt lat="48.868539" lon="2.265303">
        <ele>44.101898</ele>
        <time>2025-02-12T11:47:00.144Z</time>
      </trkpt>
      <trkpt lat="48.868534" lon="2.265214">
        <ele>44.128353</ele>
        <time>2025-02-12T11:47:01.816Z</time>
      </trkpt>
      <trkpt lat="48.868461" lon="2.265225">
        <ele>44.161382</ele>
        <time>2025-02-12T11:47:03.788Z</time>
      </trkpt>
      <trkpt lat="48.868334" lon="2.265312">
        <ele>44.224100</ele>
        <time>2025-02-12T11:47:07.483Z</time>
      </trkpt>
      <trkpt lat="48.868411" lon="2.265087">
        <ele>44.299217</ele>
        <time>2025-02-12T11:47:11.642Z</time>
      </trkpt>
      <trkpt lat="48.868457" lon="2.264857">
        <ele>44.370414</ele>
        <time>2025-02-12T11:47:15.399Z</time>
      </trkpt>
      <trkpt lat="48.868482" lon="2.264459">
        <ele>44.488825</ele>
        <time>2025-02-12T11:47:21.379Z</time>
      </trkpt>
      <trkpt lat="48.868451" lon="2.264009">
        <ele>44.622829</ele>
        <time>2025-02-12T11:47:27.999Z</time>
      </trkpt>
      <trkpt lat="48.868370" lon="2.263484">
        <ele>44.766414</ele>
        <time>2025-02-12T11:47:35.741Z</time>
      </trkpt>
      <trkpt lat="48.868310" lon="2.263264">
        <ele>44.764133</ele>
        <time>2025-02-12T11:47:39.172Z</time>
      </trkpt>
      <trkpt lat="48.868188" lon="2.262971">
        <ele>44.760813</ele>
        <time>2025-02-12T11:47:44.150Z</time>
      </trkpt>
      <trkpt lat="48.868080" lon="2.262793">
        <ele>44.758494</ele>
        <time>2025-02-12T11:47:47.609Z</time>
      </trkpt>
      <trkpt lat="48.867942" lon="2.262562">
        <ele>44.755506</ele>
        <time>2025-02-12T11:47:52.097Z</time>
      </trkpt>
      <trkpt lat="48.867608" lon="2.262249">
        <ele>44.749795</ele>
        <time>2025-02-12T11:48:00.791Z</time>
      </trkpt>
      <trkpt lat="48.867142" lon="2.261974">
        <ele>44.742518</ele>
        <time>2025-02-12T11:48:12.132Z</time>
      </trkpt>
      <trkpt lat="48.866642" lon="2.261533">
        <ele>44.761931</ele>
        <time>2025-02-12T11:48:25.247Z</time>
      </trkpt>
      <trkpt lat="48.865892" lon="2.260525">
        <ele>44.808497</ele>
        <time>2025-02-12T11:48:47.702Z</time>
      </trkpt>
      <trkpt lat="48.865829" lon="2.260438">
        <ele>44.812456</ele>
        <time>2025-02-12T11:48:49.565Z</time>
      </trkpt>
      <trkpt lat="48.865701" lon="2.260304">
        <ele>44.819685</ele>
        <time>2025-02-12T11:48:52.915Z</time>
      </trkpt>
      <trkpt lat="48.864964" lon="2.259299">
        <ele>45.220575</ele>
        <time>2025-02-12T11:49:16.235Z</time>
      </trkpt>
      <trkpt lat="48.864657" lon="2.258959">
        <ele>45.389901</ele>
        <time>2025-02-12T11:49:25.811Z</time>
      </trkpt>
      <trkpt lat="48.864196" lon="2.258546">
        <ele>45.629414</ele>
        <time>2025-02-12T11:49:39.694Z</time>
      </trkpt>
      <trkpt lat="48.863970" lon="2.258385">
        <ele>45.789037</ele>
        <time>2025-02-12T11:49:46.296Z</time>
      </trkpt>
      <trkpt lat="48.863672" lon="2.258227">
        <ele>45.990884</ele>
        <time>2025-02-12T11:49:54.649Z</time>
      </trkpt>
      <trkpt lat="48.863391" lon="2.258138">
        <ele>46.174458</ele>
        <time>2025-02-12T11:50:02.115Z</time>
      </trkpt>
      <trkpt lat="48.862841" lon="2.258084">
        <ele>46.526944</ele>
        <time>2025-02-12T11:50:16.029Z</time>
      </trkpt>
      <trkpt lat="48.862842" lon="2.258001">
        <ele>46.561871</ele>
        <time>2025-02-12T11:50:19.848Z</time>
      </trkpt>
      <trkpt lat="48.862707" lon="2.258001">
        <ele>46.648211</ele>
        <time>2025-02-12T11:50:23.169Z</time>
      </trkpt>
      <trkpt lat="48.862645" lon="2.257969">
        <ele>46.690087</ele>
        <time>2025-02-12T11:50:24.741Z</time>
      </trkpt>
      <trkpt lat="48.862633" lon="2.257910">
        <ele>46.716070</ele>
        <time>2025-02-12T11:50:25.727Z</time>
      </trkpt>
      <trkpt lat="48.863062" lon="2.256230">
        <ele>47.169206</ele>
        <time>2025-02-12T11:50:53.602Z</time>
      </trkpt>
      <trkpt lat="48.863161" lon="2.255118">
        <ele>47.426881</ele>
        <time>2025-02-12T11:51:11.791Z</time>
      </trkpt>
      <trkpt lat="48.863215" lon="2.254094">
        <ele>47.492889</ele>
        <time>2025-02-12T11:51:28.738Z</time>
      </trkpt>
      <trkpt lat="48.863226" lon="2.253291">
        <ele>47.544497</ele>
        <time>2025-02-12T11:51:40.777Z</time>
      </trkpt>
      <trkpt lat="48.863225" lon="2.253201">
        <ele>47.550281</ele>
        <time>2025-02-12T11:51:42.064Z</time>
      </trkpt>
      <trkpt lat="48.863222" lon="2.253073">
        <ele>47.558511</ele>
        <time>2025-02-12T11:51:43.900Z</time>
      </trkpt>
      <trkpt lat="48.863119" lon="2.252944">
        <ele>47.571546</ele>
        <time>2025-02-12T11:51:47.075Z</time>
      </trkpt>
      <trkpt lat="48.863013" lon="2.252744">
        <ele>47.588049</ele>
        <time>2025-02-12T11:51:51.078Z</time>
      </trkpt>
      <trkpt lat="48.862832" lon="2.252486">
        <ele>47.499110</ele>
        <time>2025-02-12T11:51:56.869Z</time>
      </trkpt>
      <trkpt lat="48.862120" lon="2.251607">
        <ele>46.790982</ele>
        <time>2025-02-12T11:52:17.760Z</time>
      </trkpt>
      <trkpt lat="48.861779" lon="2.251096">
        <ele>46.421304</ele>
        <time>2025-02-12T11:52:28.642Z</time>
      </trkpt>
      <trkpt lat="48.860948" lon="2.249982">
        <ele>45.099050</ele>
        <time>2025-02-12T11:52:53.250Z</time>
      </trkpt>
      <trkpt lat="48.860265" lon="2.249124">
        <ele>43.919929</ele>
        <time>2025-02-12T11:53:11.877Z</time>
      </trkpt>
      <trkpt lat="48.860053" lon="2.248832">
        <ele>43.756428</ele>
        <time>2025-02-12T11:53:17.961Z</time>
      </trkpt>
      <trkpt lat="48.859535" lon="2.248167">
        <ele>43.558472</ele>
        <time>2025-02-12T11:53:33.121Z</time>
      </trkpt>
      <trkpt lat="48.859008" lon="2.247556">
        <ele>43.364962</ele>
        <time>2025-02-12T11:53:50.715Z</time>
      </trkpt>
      <trkpt lat="48.858158" lon="2.246910">
        <ele>43.595779</ele>
        <time>2025-02-12T11:54:18.890Z</time>
      </trkpt>
      <trkpt lat="48.858088" lon="2.246870">
        <ele>43.628118</ele>
        <time>2025-02-12T11:54:21.062Z</time>
      </trkpt>
      <trkpt lat="48.858017" lon="2.246802">
        <ele>43.664409</ele>
        <time>2025-02-12T11:54:23.490Z</time>
      </trkpt>
      <trkpt lat="48.855720" lon="2.244720">
        <ele>44.069149</ele>
        <time>2025-02-12T11:55:30.200Z</time>
      </trkpt>
      <trkpt lat="48.855107" lon="2.244201">
        <ele>43.666012</ele>
        <time>2025-02-12T11:55:46.793Z</time>
      </trkpt>
      <trkpt lat="48.854656" lon="2.243803">
        <ele>43.337132</ele>
        <time>2025-02-12T11:55:58.732Z</time>
      </trkpt>
      <trkpt lat="48.854371" lon="2.243642">
        <ele>43.145389</ele>
        <time>2025-02-12T11:56:05.639Z</time>
      </trkpt>
      <trkpt lat="48.853909" lon="2.243509">
        <ele>42.805920</ele>
        <time>2025-02-12T11:56:16.140Z</time>
      </trkpt>
      <trkpt lat="48.853828" lon="2.243477">
        <ele>42.726785</ele>
        <time>2025-02-12T11:56:17.988Z</time>
      </trkpt>
      <trkpt lat="48.853571" lon="2.243424">
        <ele>42.481550</ele>
        <time>2025-02-12T11:56:23.766Z</time>
      </trkpt>
      <trkpt lat="48.850173" lon="2.242618">
        <ele>39.123509</ele>
        <time>2025-02-12T11:57:40.800Z</time>
      </trkpt>
      <trkpt lat="48.849807" lon="2.242532">
        <ele>38.745856</ele>
        <time>2025-02-12T11:57:48.683Z</time>
      </trkpt>
      <trkpt lat="48.848954" lon="2.242302">
        <ele>37.862449</ele>
        <time>2025-02-12T11:58:07.505Z</time>
      </trkpt>
      <trkpt lat="48.848948" lon="2.242068">
        <ele>37.705311</ele>
        <time>2025-02-12T11:58:10.628Z</time>
      </trkpt>
      <trkpt lat="48.848683" lon="2.242100">
        <ele>37.805639</ele>
        <time>2025-02-12T11:58:16.164Z</time>
      </trkpt>
      <trkpt lat="48.848486" lon="2.242075">
        <ele>38.013758</ele>
        <time>2025-02-12T11:58:20.983Z</time>
      </trkpt>
      <trkpt lat="48.848381" lon="2.242060">
        <ele>38.124786</ele>
        <time>2025-02-12T11:58:23.788Z</time>
      </trkpt>
      <trkpt lat="48.848297" lon="2.241907">
        <ele>38.262828</ele>
        <time>2025-02-12T11:58:27.394Z</time>
      </trkpt>
      <trkpt lat="48.848159" lon="2.241747">
        <ele>38.445567</ele>
        <time>2025-02-12T11:58:32.443Z</time>
      </trkpt>
      <trkpt lat="48.848001" lon="2.241751">
        <ele>38.611928</ele>
        <time>2025-02-12T11:58:37.250Z</time>
      </trkpt>
      <trkpt lat="48.847847" lon="2.241384">
        <ele>38.913474</ele>
        <time>2025-02-12T11:58:46.356Z</time>
      </trkpt>
      <trkpt lat="48.847808" lon="2.241318">
        <ele>38.974927</ele>
        <time>2025-02-12T11:58:48.264Z</time>
      </trkpt>
      <trkpt lat="48.847671" lon="2.241189">
        <ele>39.144601</ele>
        <time>2025-02-12T11:58:53.571Z</time>
      </trkpt>
      <trkpt lat="48.847065" lon="2.239825">
        <ele>40.033993</ele>
        <time>2025-02-12T11:59:26.116Z</time>
      </trkpt>
      <trkpt lat="48.847005" lon="2.239691">
        <ele>40.109909</ele>
        <time>2025-02-12T11:59:28.672Z</time>
      </trkpt>
      <trkpt lat="48.846615" lon="2.238702">
        <ele>40.649960</ele>
        <time>2025-02-12T11:59:46.026Z</time>
      </trkpt>
      <trkpt lat="48.846584" lon="2.238626">
        <ele>40.691842</ele>
        <time>2025-02-12T11:59:47.250Z</time>
      </trkpt>
      <trkpt lat="48.846544" lon="2.238530">
        <ele>40.745064</ele>
        <time>2025-02-12T11:59:48.847Z</time>
      </trkpt>
      <trkpt lat="48.846482" lon="2.238397">
        <ele>40.776684</ele>
        <time>2025-02-12T11:59:51.119Z</time>
      </trkpt>
      <trkpt lat="48.846159" lon="2.237689">
        <ele>40.591312</ele>
        <time>2025-02-12T12:00:03.607Z</time>
      </trkpt>
      <trkpt lat="48.846107" lon="2.237576">
        <ele>40.561642</ele>
        <time>2025-02-12T12:00:05.587Z</time>
      </trkpt>
      <trkpt lat="48.845931" lon="2.237162">
        <ele>40.455588</ele>
        <time>2025-02-12T12:00:12.678Z</time>
      </trkpt>
      <trkpt lat="48.845873" lon="2.237023">
        <ele>40.420173</ele>
        <time>2025-02-12T12:00:15.015Z</time>
      </trkpt>
      <trkpt lat="48.845812" lon="2.236873">
        <ele>40.382231</ele>
        <time>2025-02-12T12:00:17.511Z</time>
      </trkpt>
      <trkpt lat="48.845640" lon="2.236468">
        <ele>40.278513</ele>
        <time>2025-02-12T12:00:24.157Z</time>
      </trkpt>
      <trkpt lat="48.845500" lon="2.236141">
        <ele>40.170186</ele>
        <time>2025-02-12T12:00:29.396Z</time>
      </trkpt>
      <trkpt lat="48.845432" lon="2.235984">
        <ele>40.007752</ele>
        <time>2025-02-12T12:00:31.937Z</time>
      </trkpt>
      <trkpt lat="48.845075" lon="2.235192">
        <ele>39.178111</ele>
        <time>2025-02-12T12:00:44.320Z</time>
      </trkpt>
      <trkpt lat="48.845029" lon="2.235095">
        <ele>39.074782</ele>
        <time>2025-02-12T12:00:45.826Z</time>
      </trkpt>
      <trkpt lat="48.844788" lon="2.234552">
        <ele>38.508749</ele>
        <time>2025-02-12T12:00:53.923Z</time>
      </trkpt>
      <trkpt lat="48.844735" lon="2.234433">
        <ele>38.384566</ele>
        <time>2025-02-12T12:00:55.681Z</time>
      </trkpt>
      <trkpt lat="48.844694" lon="2.234347">
        <ele>38.292788</ele>
        <time>2025-02-12T12:00:57.002Z</time>
      </trkpt>
      <trkpt lat="48.844672" lon="2.234302">
        <ele>38.244339</ele>
        <time>2025-02-12T12:00:57.691Z</time>
      </trkpt>
      <trkpt lat="48.844639" lon="2.234231">
        <ele>38.169217</ele>
        <time>2025-02-12T12:00:58.757Z</time>
      </trkpt>
      <trkpt lat="48.844613" lon="2.234176">
        <ele>38.110692</ele>
        <time>2025-02-12T12:00:59.615Z</time>
      </trkpt>
      <trkpt lat="48.844450" lon="2.233830">
        <ele>37.752922</ele>
        <time>2025-02-12T12:01:04.913Z</time>
      </trkpt>
      <trkpt lat="48.844413" lon="2.233758">
        <ele>37.682041</ele>
        <time>2025-02-12T12:01:06.068Z</time>
      </trkpt>
      <trkpt lat="48.844357" lon="2.233643">
        <ele>37.571037</ele>
        <time>2025-02-12T12:01:07.854Z</time>
      </trkpt>
      <trkpt lat="48.844338" lon="2.233603">
        <ele>37.532760</ele>
        <time>2025-02-12T12:01:08.492Z</time>
      </trkpt>
      <trkpt lat="48.844372" lon="2.233486">
        <ele>37.433519</ele>
        <time>2025-02-12T12:01:10.092Z</time>
      </trkpt>
      <trkpt lat="48.844364" lon="2.233420">
        <ele>37.381446</ele>
        <time>2025-02-12T12:01:10.958Z</time>
      </trkpt>
      <trkpt lat="48.844217" lon="2.233107">
        <ele>37.083078</ele>
        <time>2025-02-12T12:01:15.862Z</time>
      </trkpt>
      <trkpt lat="48.844095" lon="2.232839">
        <ele>36.830225</ele>
        <time>2025-02-12T12:01:20.151Z</time>
      </trkpt>
      <trkpt lat="48.843808" lon="2.232356">
        <ele>36.325288</ele>
        <time>2025-02-12T12:01:28.946Z</time>
      </trkpt>
      <trkpt lat="48.843518" lon="2.231973">
        <ele>35.872265</ele>
        <time>2025-02-12T12:01:36.294Z</time>
      </trkpt>
      <trkpt lat="48.843211" lon="2.231541">
        <ele>35.386094</ele>
        <time>2025-02-12T12:01:44.331Z</time>
      </trkpt>
      <trkpt lat="48.842945" lon="2.231203">
        <ele>34.985852</ele>
        <time>2025-02-12T12:01:51.293Z</time>
      </trkpt>
      <trkpt lat="48.842708" lon="2.230861">
        <ele>34.608587</ele>
        <time>2025-02-12T12:01:57.731Z</time>
      </trkpt>
      <trkpt lat="48.842629" lon="2.230743">
        <ele>34.480720</ele>
        <time>2025-02-12T12:01:59.861Z</time>
      </trkpt>
      <trkpt lat="48.842512" lon="2.230634">
        <ele>34.322309</ele>
        <time>2025-02-12T12:02:02.521Z</time>
      </trkpt>
      <trkpt lat="48.842468" lon="2.230540">
        <ele>34.234683</ele>
        <time>2025-02-12T12:02:04.047Z</time>
      </trkpt>
      <trkpt lat="48.841867" lon="2.229711">
        <ele>33.503568</ele>
        <time>2025-02-12T12:02:19.794Z</time>
      </trkpt>
      <trkpt lat="48.841672" lon="2.229498">
        <ele>33.391207</ele>
        <time>2025-02-12T12:02:24.960Z</time>
      </trkpt>
      <trkpt lat="48.841565" lon="2.229345">
        <ele>33.322464</ele>
        <time>2025-02-12T12:02:27.938Z</time>
      </trkpt>
      <trkpt lat="48.841457" lon="2.229322">
        <ele>33.271441</ele>
        <time>2025-02-12T12:02:30.170Z</time>
      </trkpt>
      <trkpt lat="48.841429" lon="2.229351">
        <ele>33.255587</ele>
        <time>2025-02-12T12:02:30.864Z</time>
      </trkpt>
      <trkpt lat="48.841399" lon="2.229312">
        <ele>33.237115</ele>
        <time>2025-02-12T12:02:31.664Z</time>
      </trkpt>
      <trkpt lat="48.841340" lon="2.229227">
        <ele>33.199076</ele>
        <time>2025-02-12T12:02:33.386Z</time>
      </trkpt>
      <trkpt lat="48.841291" lon="2.229103">
        <ele>33.154540</ele>
        <time>2025-02-12T12:02:35.368Z</time>
      </trkpt>
      <trkpt lat="48.841208" lon="2.228975">
        <ele>33.099210</ele>
        <time>2025-02-12T12:02:37.865Z</time>
      </trkpt>
      <trkpt lat="48.841123" lon="2.228862">
        <ele>33.046369</ele>
        <time>2025-02-12T12:02:40.329Z</time>
      </trkpt>
      <trkpt lat="48.841033" lon="2.228743">
        <ele>32.990551</ele>
        <time>2025-02-12T12:02:42.917Z</time>
      </trkpt>
      <trkpt lat="48.840966" lon="2.228654">
        <ele>32.948914</ele>
        <time>2025-02-12T12:02:44.848Z</time>
      </trkpt>
      <trkpt lat="48.840975" lon="2.228569">
        <ele>32.922404</ele>
        <time>2025-02-12T12:02:46.188Z</time>
      </trkpt>
      <trkpt lat="48.840983" lon="2.228494">
        <ele>32.899008</ele>
        <time>2025-02-12T12:02:47.312Z</time>
      </trkpt>
      <trkpt lat="48.840956" lon="2.228353">
        <ele>32.853791</ele>
        <time>2025-02-12T12:02:49.552Z</time>
      </trkpt>
      <trkpt lat="48.840896" lon="2.228239">
        <ele>32.808844</ele>
        <time>2025-02-12T12:02:51.777Z</time>
      </trkpt>
      <trkpt lat="48.840908" lon="2.227924">
        <ele>32.686613</ele>
        <time>2025-02-12T12:02:57.136Z</time>
      </trkpt>
      <trkpt lat="48.841176" lon="2.226046">
        <ele>31.931239</ele>
        <time>2025-02-12T12:03:25.221Z</time>
      </trkpt>
      <trkpt lat="48.841172" lon="2.225929">
        <ele>31.885186</ele>
        <time>2025-02-12T12:03:26.607Z</time>
      </trkpt>
      <trkpt lat="48.841198" lon="2.225715">
        <ele>31.799644</ele>
        <time>2025-02-12T12:03:29.148Z</time>
      </trkpt>
      <trkpt lat="48.841140" lon="2.225665">
        <ele>31.759815</ele>
        <time>2025-02-12T12:03:30.328Z</time>
      </trkpt>
      <trkpt lat="48.841080" lon="2.225645">
        <ele>31.712411</ele>
        <time>2025-02-12T12:03:31.427Z</time>
      </trkpt>
      <trkpt lat="48.841043" lon="2.225628">
        <ele>31.639314</ele>
        <time>2025-02-12T12:03:32.093Z</time>
      </trkpt>
      <trkpt lat="48.841002" lon="2.225474">
        <ele>31.432559</ele>
        <time>2025-02-12T12:03:34.100Z</time>
      </trkpt>
      <trkpt lat="48.841022" lon="2.225431">
        <ele>31.367026</ele>
        <time>2025-02-12T12:03:34.736Z</time>
      </trkpt>
      <trkpt lat="48.841031" lon="2.225408">
        <ele>31.333724</ele>
        <time>2025-02-12T12:03:35.041Z</time>
      </trkpt>
      <trkpt lat="48.841044" lon="2.225373">
        <ele>31.283705</ele>
        <time>2025-02-12T12:03:35.505Z</time>
      </trkpt>
      <trkpt lat="48.841054" lon="2.225343">
        <ele>31.241851</ele>
        <time>2025-02-12T12:03:35.878Z</time>
      </trkpt>
      <trkpt lat="48.841060" lon="2.225281">
        <ele>31.163857</ele>
        <time>2025-02-12T12:03:36.606Z</time>
      </trkpt>
      <trkpt lat="48.841063" lon="2.225239">
        <ele>31.111278</ele>
        <time>2025-02-12T12:03:37.086Z</time>
      </trkpt>
      <trkpt lat="48.841076" lon="2.225185">
        <ele>31.039715</ele>
        <time>2025-02-12T12:03:37.731Z</time>
      </trkpt>
      <trkpt lat="48.841074" lon="2.225136">
        <ele>30.978613</ele>
        <time>2025-02-12T12:03:38.283Z</time>
      </trkpt>
      <trkpt lat="48.841073" lon="2.225097">
        <ele>30.930037</ele>
        <time>2025-02-12T12:03:38.723Z</time>
      </trkpt>
      <trkpt lat="48.841066" lon="2.224977">
        <ele>30.780101</ele>
        <time>2025-02-12T12:03:40.091Z</time>
      </trkpt>
      <trkpt lat="48.841049" lon="2.224932">
        <ele>30.715524</ele>
        <time>2025-02-12T12:03:40.673Z</time>
      </trkpt>
      <trkpt lat="48.841033" lon="2.224889">
        <ele>30.654046</ele>
        <time>2025-02-12T12:03:41.223Z</time>
      </trkpt>
      <trkpt lat="48.841101" lon="2.224810">
        <ele>30.492173</ele>
        <time>2025-02-12T12:03:42.685Z</time>
      </trkpt>
      <trkpt lat="48.841131" lon="2.224680">
        <ele>30.320719</ele>
        <time>2025-02-12T12:03:44.210Z</time>
      </trkpt>
      <trkpt lat="48.841296" lon="2.222562">
        <ele>29.147752</ele>
        <time>2025-02-12T12:04:10.598Z</time>
      </trkpt>
      <trkpt lat="48.841275" lon="2.222326">
        <ele>29.516172</ele>
        <time>2025-02-12T12:04:15.262Z</time>
      </trkpt>
      <trkpt lat="48.841259" lon="2.222255">
        <ele>29.632272</ele>
        <time>2025-02-12T12:04:17.349Z</time>
      </trkpt>
      <trkpt lat="48.841200" lon="2.222200">
        <ele>29.794977</ele>
        <time>2025-02-12T12:04:19.750Z</time>
      </trkpt>
      <trkpt lat="48.841220" lon="2.222171">
        <ele>29.859961</ele>
        <time>2025-02-12T12:04:20.565Z</time>
      </trkpt>
      <trkpt lat="48.841246" lon="2.222133">
        <ele>29.944761</ele>
        <time>2025-02-12T12:04:22.061Z</time>
      </trkpt>
      <trkpt lat="48.841290" lon="2.222068">
        <ele>30.089012</ele>
        <time>2025-02-12T12:04:24.296Z</time>
      </trkpt>
      <trkpt lat="48.841308" lon="2.222041">
        <ele>30.148467</ele>
        <time>2025-02-12T12:04:25.338Z</time>
      </trkpt>
      <trkpt lat="48.841161" lon="2.221941">
        <ele>30.527054</ele>
        <time>2025-02-12T12:04:31.147Z</time>
      </trkpt>
      <trkpt lat="48.840537" lon="2.221793">
        <ele>32.011580</ele>
        <time>2025-02-12T12:04:57.757Z</time>
      </trkpt>
      <trkpt lat="48.840546" lon="2.221708">
        <ele>32.144770</ele>
        <time>2025-02-12T12:05:01.188Z</time>
      </trkpt>
      <trkpt lat="48.840559" lon="2.221594">
        <ele>32.323761</ele>
        <time>2025-02-12T12:05:05.256Z</time>
      </trkpt>
      <trkpt lat="48.840874" lon="2.221737">
        <ele>33.623245</ele>
        <time>2025-02-12T12:05:20.900Z</time>
      </trkpt>
      <trkpt lat="48.841053" lon="2.221720">
        <ele>34.454567</ele>
        <time>2025-02-12T12:05:29.533Z</time>
      </trkpt>
      <trkpt lat="48.841118" lon="2.221703">
        <ele>34.760286</ele>
        <time>2025-02-12T12:05:32.784Z</time>
      </trkpt>
      <trkpt lat="48.841191" lon="2.221612">
        <ele>35.197964</ele>
        <time>2025-02-12T12:05:37.149Z</time>
      </trkpt>
      <trkpt lat="48.841206" lon="2.221526">
        <ele>35.469377</ele>
        <time>2025-02-12T12:05:40.031Z</time>
      </trkpt>
      <trkpt lat="48.841189" lon="2.221437">
        <ele>35.752089</ele>
        <time>2025-02-12T12:05:42.687Z</time>
      </trkpt>
      <trkpt lat="48.841148" lon="2.221367">
        <ele>36.037953</ele>
        <time>2025-02-12T12:05:45.905Z</time>
      </trkpt>
      <trkpt lat="48.840470" lon="2.220672">
        <ele>39.828960</ele>
        <time>2025-02-12T12:06:22.941Z</time>
      </trkpt>
      <trkpt lat="48.839453" lon="2.219564">
        <ele>46.467008</ele>
        <time>2025-02-12T12:07:21.078Z</time>
      </trkpt>
      <trkpt lat="48.839315" lon="2.219370">
        <ele>47.492495</ele>
        <time>2025-02-12T12:07:31.287Z</time>
      </trkpt>
      <trkpt lat="48.839192" lon="2.219113">
        <ele>48.633255</ele>
        <time>2025-02-12T12:07:43.097Z</time>
      </trkpt>
      <trkpt lat="48.839106" lon="2.219104">
        <ele>49.103449</ele>
        <time>2025-02-12T12:07:48.371Z</time>
      </trkpt>
      <trkpt lat="48.838899" lon="2.218869">
        <ele>50.512896</ele>
        <time>2025-02-12T12:08:04.485Z</time>
      </trkpt>
      <trkpt lat="48.838825" lon="2.218737">
        <ele>51.245867</ele>
        <time>2025-02-12T12:08:11.577Z</time>
      </trkpt>
      <trkpt lat="48.838889" lon="2.218531">
        <ele>52.272311</ele>
        <time>2025-02-12T12:08:20.754Z</time>
      </trkpt>
      <trkpt lat="48.838461" lon="2.218066">
        <ele>55.874522</ele>
        <time>2025-02-12T12:08:51.334Z</time>
      </trkpt>
      <trkpt lat="48.838021" lon="2.217553">
        <ele>59.671541</ele>
        <time>2025-02-12T12:09:24.187Z</time>
      </trkpt>
      <trkpt lat="48.838022" lon="2.217479">
        <ele>60.005058</ele>
        <time>2025-02-12T12:09:26.915Z</time>
      </trkpt>
      <trkpt lat="48.838071" lon="2.217414">
        <ele>60.450389</ele>
        <time>2025-02-12T12:09:30.657Z</time>
      </trkpt>
      <trkpt lat="48.838200" lon="2.217262">
        <ele>61.568005</ele>
        <time>2025-02-12T12:09:39.872Z</time>
      </trkpt>
      <trkpt lat="48.838232" lon="2.217153">
        <ele>62.105805</ele>
        <time>2025-02-12T12:09:44.262Z</time>
      </trkpt>
      <trkpt lat="48.838223" lon="2.217027">
        <ele>62.676898</ele>
        <time>2025-02-12T12:09:48.949Z</time>
      </trkpt>
      <trkpt lat="48.838132" lon="2.216830">
        <ele>63.690736</ele>
        <time>2025-02-12T12:09:57.707Z</time>
      </trkpt>
      <trkpt lat="48.838111" lon="2.216643">
        <ele>64.464517</ele>
        <time>2025-02-12T12:10:04.644Z</time>
      </trkpt>
      <trkpt lat="48.838093" lon="2.216491">
        <ele>65.094468</ele>
        <time>2025-02-12T12:10:10.235Z</time>
      </trkpt>
      <trkpt lat="48.838046" lon="2.215651">
        <ele>68.533123</ele>
        <time>2025-02-12T12:10:41.945Z</time>
      </trkpt>
      <trkpt lat="48.838011" lon="2.214132">
        <ele>74.472758</ele>
        <time>2025-02-12T12:11:34.691Z</time>
      </trkpt>
      <trkpt lat="48.838002" lon="2.212336">
        <ele>78.457824</ele>
        <time>2025-02-12T12:12:21.842Z</time>
      </trkpt>
      <trkpt lat="48.838001" lon="2.212283">
        <ele>78.575469</ele>
        <time>2025-02-12T12:12:22.865Z</time>
      </trkpt>
      <trkpt lat="48.837992" lon="2.212130">
        <ele>78.916297</ele>
        <time>2025-02-12T12:12:25.850Z</time>
      </trkpt>
      <trkpt lat="48.837969" lon="2.211832">
        <ele>79.582028</ele>
        <time>2025-02-12T12:12:31.596Z</time>
      </trkpt>
      <trkpt lat="48.837950" lon="2.211539">
        <ele>80.236240</ele>
        <time>2025-02-12T12:12:37.978Z</time>
      </trkpt>
      <trkpt lat="48.837939" lon="2.211381">
        <ele>80.624698</ele>
        <time>2025-02-12T12:12:41.906Z</time>
      </trkpt>
      <trkpt lat="48.837789" lon="2.211031">
        <ele>81.645852</ele>
        <time>2025-02-12T12:12:51.497Z</time>
      </trkpt>
      <trkpt lat="48.837638" lon="2.210699">
        <ele>82.632527</ele>
        <time>2025-02-12T12:13:00.107Z</time>
      </trkpt>
      <trkpt lat="48.837462" lon="2.210723">
        <ele>83.288935</ele>
        <time>2025-02-12T12:13:06.546Z</time>
      </trkpt>
      <trkpt lat="48.837386" lon="2.210734">
        <ele>83.572527</ele>
        <time>2025-02-12T12:13:09.383Z</time>
      </trkpt>
      <trkpt lat="48.837212" lon="2.210760">
        <ele>84.221997</ele>
        <time>2025-02-12T12:13:16.676Z</time>
      </trkpt>
      <trkpt lat="48.837138" lon="2.210771">
        <ele>84.498194</ele>
        <time>2025-02-12T12:13:20.069Z</time>
      </trkpt>
      <trkpt lat="48.836968" lon="2.210801">
        <ele>85.133932</ele>
        <time>2025-02-12T12:13:27.849Z</time>
      </trkpt>
      <trkpt lat="48.836905" lon="2.211007">
        <ele>85.689316</ele>
        <time>2025-02-12T12:13:35.124Z</time>
      </trkpt>
      <trkpt lat="48.835898" lon="2.209879">
        <ele>92.139430</ele>
        <time>2025-02-12T12:14:59.595Z</time>
      </trkpt>
      <trkpt lat="48.835740" lon="2.209687">
        <ele>93.286034</ele>
        <time>2025-02-12T12:15:13.073Z</time>
      </trkpt>
      <trkpt lat="48.834752" lon="2.208464">
        <ele>99.444440</ele>
        <time>2025-02-12T12:16:33.991Z</time>
      </trkpt>
      <trkpt lat="48.834562" lon="2.208235">
        <ele>100.389788</ele>
        <time>2025-02-12T12:16:47.955Z</time>
      </trkpt>
      <trkpt lat="48.834242" lon="2.207891">
        <ele>101.917785</ele>
        <time>2025-02-12T12:17:09.377Z</time>
      </trkpt>
      <trkpt lat="48.834140" lon="2.207902">
        <ele>102.316366</ele>
        <time>2025-02-12T12:17:13.522Z</time>
      </trkpt>
      <trkpt lat="48.833976" lon="2.207917">
        <ele>102.956770</ele>
        <time>2025-02-12T12:17:20.072Z</time>
      </trkpt>
      <trkpt lat="48.833453" lon="2.207975">
        <ele>104.687537</ele>
        <time>2025-02-12T12:17:39.758Z</time>
      </trkpt>
      <trkpt lat="48.833290" lon="2.207991">
        <ele>105.100021</ele>
        <time>2025-02-12T12:17:45.496Z</time>
      </trkpt>
      <trkpt lat="48.833136" lon="2.208005">
        <ele>105.489614</ele>
        <time>2025-02-12T12:17:50.803Z</time>
      </trkpt>
      <trkpt lat="48.833006" lon="2.208015">
        <ele>105.818325</ele>
        <time>2025-02-12T12:17:55.186Z</time>
      </trkpt>
      <trkpt lat="48.832714" lon="2.207978">
        <ele>106.558275</ele>
        <time>2025-02-12T12:18:05.125Z</time>
      </trkpt>
      <trkpt lat="48.831193" lon="2.208140">
        <ele>110.733644</ele>
        <time>2025-02-12T12:19:05.089Z</time>
      </trkpt>
      <trkpt lat="48.830914" lon="2.208158">
        <ele>111.569384</ele>
        <time>2025-02-12T12:19:16.572Z</time>
      </trkpt>
      <trkpt lat="48.830667" lon="2.203136">
        <ele>121.835305</ele>
        <time>2025-02-12T12:22:08.228Z</time>
      </trkpt>
      <trkpt lat="48.830546" lon="2.200670">
        <ele>126.176238</ele>
        <time>2025-02-12T12:23:41.912Z</time>
      </trkpt>
      <trkpt lat="48.830515" lon="2.199917">
        <ele>126.552687</ele>
        <time>2025-02-12T12:24:03.633Z</time>
      </trkpt>
      <trkpt lat="48.830514" lon="2.199890">
        <ele>126.566180</ele>
        <time>2025-02-12T12:24:04.308Z</time>
      </trkpt>
      <trkpt lat="48.830516" lon="2.199647">
        <ele>126.687436</ele>
        <time>2025-02-12T12:24:08.241Z</time>
      </trkpt>
      <trkpt lat="48.830517" lon="2.199482">
        <ele>126.769768</ele>
        <time>2025-02-12T12:24:10.777Z</time>
      </trkpt>
      <trkpt lat="48.830340" lon="2.195921">
        <ele>121.959470</ele>
        <time>2025-02-12T12:24:57.303Z</time>
      </trkpt>
      <trkpt lat="48.830450" lon="2.195914">
        <ele>121.531661</ele>
        <time>2025-02-12T12:25:00.704Z</time>
      </trkpt>
      <trkpt lat="48.830448" lon="2.195812">
        <ele>121.270633</ele>
        <time>2025-02-12T12:25:01.812Z</time>
      </trkpt>
      <trkpt lat="48.830439" lon="2.195350">
        <ele>120.088340</ele>
        <time>2025-02-12T12:25:06.892Z</time>
      </trkpt>
      <trkpt lat="48.830526" lon="2.195273">
        <ele>119.697086</ele>
        <time>2025-02-12T12:25:08.580Z</time>
      </trkpt>
      <trkpt lat="48.830328" lon="2.195020">
        <ele>118.691716</ele>
        <time>2025-02-12T12:25:12.800Z</time>
      </trkpt>
      <trkpt lat="48.829573" lon="2.194042">
        <ele>115.021692</ele>
        <time>2025-02-12T12:25:28.845Z</time>
      </trkpt>
      <trkpt lat="48.829453" lon="2.193886">
        <ele>114.724635</ele>
        <time>2025-02-12T12:25:31.460Z</time>
      </trkpt>
      <trkpt lat="48.829420" lon="2.193843">
        <ele>114.642864</ele>
        <time>2025-02-12T12:25:32.178Z</time>
      </trkpt>
      <trkpt lat="48.829259" lon="2.193664">
        <ele>114.267621</ele>
        <time>2025-02-12T12:25:35.596Z</time>
      </trkpt>
      <trkpt lat="48.829051" lon="2.193431">
        <ele>113.781555</ele>
        <time>2025-02-12T12:25:40.157Z</time>
      </trkpt>
      <trkpt lat="48.828831" lon="2.193106">
        <ele>113.204385</ele>
        <time>2025-02-12T12:25:45.930Z</time>
      </trkpt>
      <trkpt lat="48.828743" lon="2.192935">
        <ele>112.935649</ele>
        <time>2025-02-12T12:25:48.788Z</time>
      </trkpt>
      <trkpt lat="48.828648" lon="2.192658">
        <ele>112.548935</ele>
        <time>2025-02-12T12:25:53.113Z</time>
      </trkpt>
      <trkpt lat="48.828465" lon="2.191373">
        <ele>111.835851</ele>
        <time>2025-02-12T12:26:12.521Z</time>
      </trkpt>
      <trkpt lat="48.828279" lon="2.190010">
        <ele>111.880198</ele>
        <time>2025-02-12T12:26:33.533Z</time>
      </trkpt>
      <trkpt lat="48.828065" lon="2.189501">
        <ele>111.899439</ele>
        <time>2025-02-12T12:26:42.066Z</time>
      </trkpt>
      <trkpt lat="48.827950" lon="2.189313">
        <ele>112.506402</ele>
        <time>2025-02-12T12:26:45.589Z</time>
      </trkpt>
      <trkpt lat="48.827810" lon="2.189109">
        <ele>113.249103</ele>
        <time>2025-02-12T12:26:49.857Z</time>
      </trkpt>
      <trkpt lat="48.827737" lon="2.189004">
        <ele>113.633984</ele>
        <time>2025-02-12T12:26:52.380Z</time>
      </trkpt>
      <trkpt lat="48.827661" lon="2.188919">
        <ele>113.995298</ele>
        <time>2025-02-12T12:26:55.060Z</time>
      </trkpt>
      <trkpt lat="48.827520" lon="2.188849">
        <ele>114.563195</ele>
        <time>2025-02-12T12:26:59.814Z</time>
      </trkpt>
      <trkpt lat="48.827401" lon="2.188820">
        <ele>115.024596</ele>
        <time>2025-02-12T12:27:04.210Z</time>
      </trkpt>
      <trkpt lat="48.827077" lon="2.188746">
        <ele>116.278927</ele>
        <time>2025-02-12T12:27:17.867Z</time>
      </trkpt>
      <trkpt lat="48.826971" lon="2.188479">
        <ele>117.064748</ele>
        <time>2025-02-12T12:27:27.842Z</time>
      </trkpt>
      <trkpt lat="48.827053" lon="2.187386">
        <ele>121.504661</ele>
        <time>2025-02-12T12:28:11.804Z</time>
      </trkpt>
      <trkpt lat="48.827129" lon="2.186183">
        <ele>129.380342</ele>
        <time>2025-02-12T12:29:12.641Z</time>
      </trkpt>
      <trkpt lat="48.827174" lon="2.185522">
        <ele>133.710889</ele>
        <time>2025-02-12T12:29:44.319Z</time>
      </trkpt>
      <trkpt lat="48.827058" lon="2.185195">
        <ele>136.131550</ele>
        <time>2025-02-12T12:30:02.751Z</time>
      </trkpt>
      <trkpt lat="48.826914" lon="2.184900">
        <ele>138.515348</ele>
        <time>2025-02-12T12:30:21.315Z</time>
      </trkpt>
      <trkpt lat="48.826783" lon="2.184686">
        <ele>140.410362</ele>
        <time>2025-02-12T12:30:36.480Z</time>
      </trkpt>
      <trkpt lat="48.826717" lon="2.184580">
        <ele>141.356508</ele>
        <time>2025-02-12T12:30:43.771Z</time>
      </trkpt>
      <trkpt lat="48.826071" lon="2.183540">
        <ele>150.629025</ele>
        <time>2025-02-12T12:31:53.054Z</time>
      </trkpt>
      <trkpt lat="48.825520" lon="2.182632">
        <ele>156.054693</ele>
        <time>2025-02-12T12:32:45.689Z</time>
      </trkpt>
      <trkpt lat="48.825442" lon="2.182503">
        <ele>156.512997</ele>
        <time>2025-02-12T12:32:51.569Z</time>
      </trkpt>
      <trkpt lat="48.825520" lon="2.182632">
        <ele>156.971301</ele>
        <time>2025-02-12T12:32:56.769Z</time>
      </trkpt>
      <trkpt lat="48.825383" lon="2.181854">
        <ele>159.078598</ele>
        <time>2025-02-12T12:33:17.624Z</time>
      </trkpt>
      <trkpt lat="48.825327" lon="2.181222">
        <ele>160.747219</ele>
        <time>2025-02-12T12:33:30.476Z</time>
      </trkpt>
      <trkpt lat="48.825082" lon="2.179591">
        <ele>160.609726</ele>
        <time>2025-02-12T12:33:52.845Z</time>
      </trkpt>
      <trkpt lat="48.824944" lon="2.178656">
        <ele>160.030920</ele>
        <time>2025-02-12T12:34:04.603Z</time>
      </trkpt>
      <trkpt lat="48.824891" lon="2.178288">
        <ele>159.806502</ele>
        <time>2025-02-12T12:34:09.322Z</time>
      </trkpt>
      <trkpt lat="48.824764" lon="2.177398">
        <ele>159.856334</ele>
        <time>2025-02-12T12:34:21.253Z</time>
      </trkpt>
      <trkpt lat="48.824579" lon="2.176069">
        <ele>159.930667</ele>
        <time>2025-02-12T12:34:45.507Z</time>
      </trkpt>
      <trkpt lat="48.824267" lon="2.173770">
        <ele>157.808419</ele>
        <time>2025-02-12T12:35:22.758Z</time>
      </trkpt>
      <trkpt lat="48.823180" lon="2.172860">
        <ele>151.746163</ele>
        <time>2025-02-12T12:35:57.419Z</time>
      </trkpt>
      <trkpt lat="48.822962" lon="2.172632">
        <ele>149.777584</ele>
        <time>2025-02-12T12:36:04.340Z</time>
      </trkpt>
      <trkpt lat="48.822532" lon="2.172292">
        <ele>146.172060</ele>
        <time>2025-02-12T12:36:17.005Z</time>
      </trkpt>
      <trkpt lat="48.821708" lon="2.171598">
        <ele>140.554138</ele>
        <time>2025-02-12T12:36:42.295Z</time>
      </trkpt>
      <trkpt lat="48.821498" lon="2.171367">
        <ele>139.247686</ele>
        <time>2025-02-12T12:36:49.704Z</time>
      </trkpt>
      <trkpt lat="48.821110" lon="2.171104">
        <ele>137.106871</ele>
        <time>2025-02-12T12:37:02.233Z</time>
      </trkpt>
      <trkpt lat="48.820322" lon="2.170422">
        <ele>133.990070</ele>
        <time>2025-02-12T12:37:30.891Z</time>
      </trkpt>
      <trkpt lat="48.820152" lon="2.170223">
        <ele>133.747369</ele>
        <time>2025-02-12T12:37:35.561Z</time>
      </trkpt>
      <trkpt lat="48.819919" lon="2.170012">
        <ele>133.440622</ele>
        <time>2025-02-12T12:37:41.581Z</time>
      </trkpt>
      <trkpt lat="48.819768" lon="2.169895">
        <ele>133.248939</ele>
        <time>2025-02-12T12:37:45.393Z</time>
      </trkpt>
      <trkpt lat="48.819695" lon="2.169875">
        <ele>133.165061</ele>
        <time>2025-02-12T12:37:47.070Z</time>
      </trkpt>
      <trkpt lat="48.819589" lon="2.169469">
        <ele>132.839885</ele>
        <time>2025-02-12T12:37:52.877Z</time>
      </trkpt>
      <trkpt lat="48.819603" lon="2.169375">
        <ele>132.768131</ele>
        <time>2025-02-12T12:37:54.174Z</time>
      </trkpt>
      <trkpt lat="48.819553" lon="2.169128">
        <ele>132.575736</ele>
        <time>2025-02-12T12:37:57.687Z</time>
      </trkpt>
      <trkpt lat="48.819380" lon="2.168621">
        <ele>132.640559</ele>
        <time>2025-02-12T12:38:06.334Z</time>
      </trkpt>
      <trkpt lat="48.819094" lon="2.167800">
        <ele>133.447751</ele>
        <time>2025-02-12T12:38:22.305Z</time>
      </trkpt>
      <trkpt lat="48.818870" lon="2.167155">
        <ele>134.081480</ele>
        <time>2025-02-12T12:38:36.505Z</time>
      </trkpt>
      <trkpt lat="48.818780" lon="2.166882">
        <ele>134.346809</ele>
        <time>2025-02-12T12:38:43.088Z</time>
      </trkpt>
      <trkpt lat="48.818558" lon="2.166244">
        <ele>135.155662</ele>
        <time>2025-02-12T12:39:00.047Z</time>
      </trkpt>
      <trkpt lat="48.818529" lon="2.166159">
        <ele>135.306571</ele>
        <time>2025-02-12T12:39:02.412Z</time>
      </trkpt>
      <trkpt lat="48.818437" lon="2.165874">
        <ele>135.806919</ele>
        <time>2025-02-12T12:39:10.317Z</time>
      </trkpt>
      <trkpt lat="48.818405" lon="2.165784">
        <ele>135.968155</ele>
        <time>2025-02-12T12:39:12.888Z</time>
      </trkpt>
      <trkpt lat="48.817935" lon="2.164382">
        <ele>138.448175</ele>
        <time>2025-02-12T12:39:49.231Z</time>
      </trkpt>
      <trkpt lat="48.817758" lon="2.163862">
        <ele>139.387305</ele>
        <time>2025-02-12T12:40:00.527Z</time>
      </trkpt>
      <trkpt lat="48.817193" lon="2.162284">
        <ele>142.366265</ele>
        <time>2025-02-12T12:40:37.196Z</time>
      </trkpt>
      <trkpt lat="48.817084" lon="2.162029">
        <ele>142.870475</ele>
        <time>2025-02-12T12:40:44.629Z</time>
      </trkpt>
      <trkpt lat="48.816672" lon="2.161058">
        <ele>146.580166</ele>
        <time>2025-02-12T12:41:18.370Z</time>
      </trkpt>
      <trkpt lat="48.816345" lon="2.160412">
        <ele>149.952947</ele>
        <time>2025-02-12T12:41:47.847Z</time>
      </trkpt>
      <trkpt lat="48.814699" lon="2.157463">
        <ele>167.113783</ele>
        <time>2025-02-12T12:44:21.597Z</time>
      </trkpt>
      <trkpt lat="48.814653" lon="2.157372">
        <ele>167.455606</ele>
        <time>2025-02-12T12:44:25.103Z</time>
      </trkpt>
      <trkpt lat="48.814633" lon="2.157339">
        <ele>167.513079</ele>
        <time>2025-02-12T12:44:26.433Z</time>
      </trkpt>
      <trkpt lat="48.814586" lon="2.157256">
        <ele>167.653361</ele>
        <time>2025-02-12T12:44:29.677Z</time>
      </trkpt>
      <trkpt lat="48.814556" lon="2.157202">
        <ele>167.743899</ele>
        <time>2025-02-12T12:44:31.693Z</time>
      </trkpt>
      <trkpt lat="48.814509" lon="2.157246">
        <ele>167.851347</ele>
        <time>2025-02-12T12:44:34.059Z</time>
      </trkpt>
      <trkpt lat="48.813180" lon="2.154832">
        <ele>169.864956</ele>
        <time>2025-02-12T12:45:31.985Z</time>
      </trkpt>
      <trkpt lat="48.813114" lon="2.154716">
        <ele>169.664391</ele>
        <time>2025-02-12T12:45:33.914Z</time>
      </trkpt>
      <trkpt lat="48.812569" lon="2.153727">
        <ele>167.977188</ele>
        <time>2025-02-12T12:45:48.892Z</time>
      </trkpt>
      <trkpt lat="48.812316" lon="2.153271">
        <ele>166.996226</ele>
        <time>2025-02-12T12:45:55.270Z</time>
      </trkpt>
      <trkpt lat="48.811567" lon="2.151913">
        <ele>160.602455</ele>
        <time>2025-02-12T12:46:13.596Z</time>
      </trkpt>
      <trkpt lat="48.811547" lon="2.151826">
        <ele>160.269843</ele>
        <time>2025-02-12T12:46:14.535Z</time>
      </trkpt>
      <trkpt lat="48.811380" lon="2.151522">
        <ele>158.840890</ele>
        <time>2025-02-12T12:46:18.538Z</time>
      </trkpt>
      <trkpt lat="48.811286" lon="2.151358">
        <ele>158.056113</ele>
        <time>2025-02-12T12:46:20.724Z</time>
      </trkpt>
      <trkpt lat="48.811187" lon="2.151182">
        <ele>157.180239</ele>
        <time>2025-02-12T12:46:23.029Z</time>
      </trkpt>
      <trkpt lat="48.810937" lon="2.150733">
        <ele>154.688510</ele>
        <time>2025-02-12T12:46:28.817Z</time>
      </trkpt>
      <trkpt lat="48.810918" lon="2.150663">
        <ele>154.367653</ele>
        <time>2025-02-12T12:46:29.554Z</time>
      </trkpt>
      <trkpt lat="48.810911" lon="2.150489">
        <ele>153.628899</ele>
        <time>2025-02-12T12:46:31.286Z</time>
      </trkpt>
      <trkpt lat="48.810873" lon="2.150328">
        <ele>152.904112</ele>
        <time>2025-02-12T12:46:32.985Z</time>
      </trkpt>
      <trkpt lat="48.810538" lon="2.149950">
        <ele>150.218335</ele>
        <time>2025-02-12T12:46:39.281Z</time>
      </trkpt>
      <trkpt lat="48.810371" lon="2.149668">
        <ele>148.611130</ele>
        <time>2025-02-12T12:46:43.058Z</time>
      </trkpt>
      <trkpt lat="48.810270" lon="2.149480">
        <ele>147.582932</ele>
        <time>2025-02-12T12:46:45.483Z</time>
      </trkpt>
      <trkpt lat="48.810216" lon="2.149551">
        <ele>147.123272</ele>
        <time>2025-02-12T12:46:47.009Z</time>
      </trkpt>
      <trkpt lat="48.810156" lon="2.149628">
        <ele>146.617741</ele>
        <time>2025-02-12T12:46:48.656Z</time>
      </trkpt>
      <trkpt lat="48.810132" lon="2.149585">
        <ele>146.378869</ele>
        <time>2025-02-12T12:46:49.235Z</time>
      </trkpt>
      <trkpt lat="48.809415" lon="2.148230">
        <ele>140.882668</ele>
        <time>2025-02-12T12:47:07.395Z</time>
      </trkpt>
      <trkpt lat="48.809152" lon="2.147800">
        <ele>139.073106</ele>
        <time>2025-02-12T12:47:13.647Z</time>
      </trkpt>
      <trkpt lat="48.809128" lon="2.147769">
        <ele>138.925575</ele>
        <time>2025-02-12T12:47:14.157Z</time>
      </trkpt>
      <trkpt lat="48.809101" lon="2.147712">
        <ele>138.709069</ele>
        <time>2025-02-12T12:47:14.916Z</time>
      </trkpt>
      <trkpt lat="48.809075" lon="2.147659">
        <ele>138.505281</ele>
        <time>2025-02-12T12:47:15.625Z</time>
      </trkpt>
      <trkpt lat="48.808586" lon="2.146761">
        <ele>136.385097</ele>
        <time>2025-02-12T12:47:28.653Z</time>
      </trkpt>
      <trkpt lat="48.808505" lon="2.146562">
        <ele>136.081308</ele>
        <time>2025-02-12T12:47:31.375Z</time>
      </trkpt>
      <trkpt lat="48.808328" lon="2.146258">
        <ele>135.554386</ele>
        <time>2025-02-12T12:47:36.220Z</time>
      </trkpt>
      <trkpt lat="48.808286" lon="2.146187">
        <ele>135.430454</ele>
        <time>2025-02-12T12:47:37.386Z</time>
      </trkpt>
      <trkpt lat="48.808222" lon="2.146082">
        <ele>135.244668</ele>
        <time>2025-02-12T12:47:39.161Z</time>
      </trkpt>
      <trkpt lat="48.808058" lon="2.145842">
        <ele>134.795555</ele>
        <time>2025-02-12T12:47:43.571Z</time>
      </trkpt>
      <trkpt lat="48.808035" lon="2.145808">
        <ele>134.732261</ele>
        <time>2025-02-12T12:47:44.215Z</time>
      </trkpt>
      <trkpt lat="48.807967" lon="2.145688">
        <ele>134.526686</ele>
        <time>2025-02-12T12:47:46.330Z</time>
      </trkpt>
      <trkpt lat="48.807938" lon="2.145643">
        <ele>134.444926</ele>
        <time>2025-02-12T12:47:47.187Z</time>
      </trkpt>
      <trkpt lat="48.807889" lon="2.145560">
        <ele>134.300178</ele>
        <time>2025-02-12T12:47:48.717Z</time>
      </trkpt>
      <trkpt lat="48.807846" lon="2.145488">
        <ele>134.173960</ele>
        <time>2025-02-12T12:47:50.102Z</time>
      </trkpt>
      <trkpt lat="48.807729" lon="2.145285">
        <ele>133.946415</ele>
        <time>2025-02-12T12:47:54.019Z</time>
      </trkpt>
      <trkpt lat="48.807259" lon="2.144432">
        <ele>134.554638</ele>
        <time>2025-02-12T12:48:11.447Z</time>
      </trkpt>
      <trkpt lat="48.806750" lon="2.143509">
        <ele>135.213006</ele>
        <time>2025-02-12T12:48:33.945Z</time>
      </trkpt>
      <trkpt lat="48.806655" lon="2.143337">
        <ele>135.335772</ele>
        <time>2025-02-12T12:48:38.406Z</time>
      </trkpt>
      <trkpt lat="48.806553" lon="2.143157">
        <ele>135.590017</ele>
        <time>2025-02-12T12:48:43.208Z</time>
      </trkpt>
      <trkpt lat="48.806184" lon="2.142504">
        <ele>137.004101</ele>
        <time>2025-02-12T12:49:01.009Z</time>
      </trkpt>
      <trkpt lat="48.805763" lon="2.141739">
        <ele>138.642526</ele>
        <time>2025-02-12T12:49:25.148Z</time>
      </trkpt>
      <trkpt lat="48.805675" lon="2.141763">
        <ele>138.865636</ele>
        <time>2025-02-12T12:49:28.487Z</time>
      </trkpt>
      <trkpt lat="48.805596" lon="2.141764">
        <ele>139.062780</ele>
        <time>2025-02-12T12:49:31.623Z</time>
      </trkpt>
      <trkpt lat="48.805571" lon="2.141741">
        <ele>139.135723</ele>
        <time>2025-02-12T12:49:32.688Z</time>
      </trkpt>
      <trkpt lat="48.805525" lon="2.141692">
        <ele>139.275944</ele>
        <time>2025-02-12T12:49:34.823Z</time>
      </trkpt>
      <trkpt lat="48.805427" lon="2.141561">
        <ele>139.601765</ele>
        <time>2025-02-12T12:49:39.734Z</time>
      </trkpt>
      <trkpt lat="48.805400" lon="2.141516">
        <ele>139.701811</ele>
        <time>2025-02-12T12:49:41.311Z</time>
      </trkpt>
      <trkpt lat="48.805387" lon="2.141475">
        <ele>139.776598</ele>
        <time>2025-02-12T12:49:42.491Z</time>
      </trkpt>
      <trkpt lat="48.805372" lon="2.141411">
        <ele>139.888245</ele>
        <time>2025-02-12T12:49:44.113Z</time>
      </trkpt>
      <trkpt lat="48.805369" lon="2.141142">
        <ele>140.219262</ele>
        <time>2025-02-12T12:49:50.762Z</time>
      </trkpt>
      <trkpt lat="48.805455" lon="2.140928">
        <ele>140.526832</ele>
        <time>2025-02-12T12:49:56.977Z</time>
      </trkpt>
      <trkpt lat="48.805436" lon="2.140796">
        <ele>140.692603</ele>
        <time>2025-02-12T12:50:00.448Z</time>
      </trkpt>
      <trkpt lat="48.805300" lon="2.138848">
        <ele>143.095964</ele>
        <time>2025-02-12T12:50:42.179Z</time>
      </trkpt>
      <trkpt lat="48.805312" lon="2.138807">
        <ele>143.151010</ele>
        <time>2025-02-12T12:50:42.791Z</time>
      </trkpt>
      <trkpt lat="48.805307" lon="2.138665">
        <ele>143.172302</ele>
        <time>2025-02-12T12:50:44.827Z</time>
      </trkpt>
      <trkpt lat="48.805304" lon="2.138621">
        <ele>143.126407</ele>
        <time>2025-02-12T12:50:45.450Z</time>
      </trkpt>
      <trkpt lat="48.805290" lon="2.138376">
        <ele>142.871258</ele>
        <time>2025-02-12T12:50:48.756Z</time>
      </trkpt>
      <trkpt lat="48.805225" lon="2.137436">
        <ele>141.890623</ele>
        <time>2025-02-12T12:51:00.415Z</time>
      </trkpt>
      <trkpt lat="48.805220" lon="2.137389">
        <ele>141.841227</ele>
        <time>2025-02-12T12:51:00.962Z</time>
      </trkpt>
      <trkpt lat="48.805160" lon="2.136448">
        <ele>140.860348</ele>
        <time>2025-02-12T12:51:12.017Z</time>
      </trkpt>
      <trkpt lat="48.805160" lon="2.136283">
        <ele>140.689156</ele>
        <time>2025-02-12T12:51:13.945Z</time>
      </trkpt>
      <trkpt lat="48.805188" lon="2.136144">
        <ele>140.538345</ele>
        <time>2025-02-12T12:51:15.628Z</time>
      </trkpt>
      <trkpt lat="48.805182" lon="2.136056">
        <ele>140.446555</ele>
        <time>2025-02-12T12:51:16.668Z</time>
      </trkpt>
      <trkpt lat="48.805175" lon="2.135952">
        <ele>140.330681</ele>
        <time>2025-02-12T12:51:17.885Z</time>
      </trkpt>
      <trkpt lat="48.805101" lon="2.135777">
        <ele>140.092392</ele>
        <time>2025-02-12T12:51:20.314Z</time>
      </trkpt>
      <trkpt lat="48.804876" lon="2.132769">
        <ele>137.000568</ele>
        <time>2025-02-12T12:51:57.924Z</time>
      </trkpt>
      <trkpt lat="48.804864" lon="2.132579">
        <ele>136.907475</ele>
        <time>2025-02-12T12:52:00.505Z</time>
      </trkpt>
      <trkpt lat="48.804859" lon="2.132530">
        <ele>136.883291</ele>
        <time>2025-02-12T12:52:01.177Z</time>
      </trkpt>
      <trkpt lat="48.804761" lon="2.132551">
        <ele>136.810001</ele>
        <time>2025-02-12T12:52:03.243Z</time>
      </trkpt>
      <trkpt lat="48.804707" lon="2.132543">
        <ele>136.769824</ele>
        <time>2025-02-12T12:52:04.359Z</time>
      </trkpt>
      <trkpt lat="48.804157" lon="2.132196">
        <ele>136.328775</ele>
        <time>2025-02-12T12:52:16.974Z</time>
      </trkpt>
      <trkpt lat="48.803973" lon="2.132079">
        <ele>136.181053</ele>
        <time>2025-02-12T12:52:21.263Z</time>
      </trkpt>
      <trkpt lat="48.803516" lon="2.131800">
        <ele>135.801830</ele>
        <time>2025-02-12T12:52:31.948Z</time>
      </trkpt>
      <trkpt lat="48.803420" lon="2.131740">
        <ele>135.716504</ele>
        <time>2025-02-12T12:52:34.116Z</time>
      </trkpt>
      <trkpt lat="48.802715" lon="2.131297">
        <ele>135.089406</ele>
        <time>2025-02-12T12:52:48.938Z</time>
      </trkpt>
      <trkpt lat="48.802339" lon="2.131060">
        <ele>134.754801</ele>
        <time>2025-02-12T12:52:56.711Z</time>
      </trkpt>
      <trkpt lat="48.802249" lon="2.131004">
        <ele>134.674860</ele>
        <time>2025-02-12T12:52:58.586Z</time>
      </trkpt>
      <trkpt lat="48.802225" lon="2.130990">
        <ele>134.653729</ele>
        <time>2025-02-12T12:52:59.116Z</time>
      </trkpt>
      <trkpt lat="48.802056" lon="2.130882">
        <ele>134.503026</ele>
        <time>2025-02-12T12:53:02.924Z</time>
      </trkpt>
      <trkpt lat="48.801927" lon="2.130813">
        <ele>134.532412</ele>
        <time>2025-02-12T12:53:05.979Z</time>
      </trkpt>
      <trkpt lat="48.801842" lon="2.130758">
        <ele>134.592587</ele>
        <time>2025-02-12T12:53:08.090Z</time>
      </trkpt>
      <trkpt lat="48.801750" lon="2.130705">
        <ele>134.656672</ele>
        <time>2025-02-12T12:53:10.467Z</time>
      </trkpt>
      <trkpt lat="48.801666" lon="2.131057">
        <ele>134.817274</ele>
        <time>2025-02-12T12:53:16.578Z</time>
      </trkpt>
      <trkpt lat="48.801572" lon="2.131447">
        <ele>134.995421</ele>
        <time>2025-02-12T12:53:24.013Z</time>
      </trkpt>
      <trkpt lat="48.801535" lon="2.131608">
        <ele>135.068568</ele>
        <time>2025-02-12T12:53:28.075Z</time>
      </trkpt>
      <trkpt lat="48.801400" lon="2.131636">
        <ele>135.157306</ele>
        <time>2025-02-12T12:53:32.248Z</time>
      </trkpt>
      <trkpt lat="48.801337" lon="2.131714">
        <ele>135.210249</ele>
        <time>2025-02-12T12:53:34.783Z</time>
      </trkpt>
      <trkpt lat="48.800745" lon="2.132103">
        <ele>135.630362</ele>
        <time>2025-02-12T12:53:53.298Z</time>
      </trkpt>
      <trkpt lat="48.800320" lon="2.132431">
        <ele>135.497551</ele>
        <time>2025-02-12T12:54:05.016Z</time>
      </trkpt>
      <trkpt lat="48.800267" lon="2.132331">
        <ele>135.471178</ele>
        <time>2025-02-12T12:54:06.816Z</time>
      </trkpt>
      <trkpt lat="48.799888" lon="2.132149">
        <ele>135.347176</ele>
        <time>2025-02-12T12:54:15.004Z</time>
      </trkpt>
      <trkpt lat="48.799612" lon="2.132033">
        <ele>135.257840</ele>
        <time>2025-02-12T12:54:20.679Z</time>
      </trkpt>
      <trkpt lat="48.799377" lon="2.131934">
        <ele>135.181762</ele>
        <time>2025-02-12T12:54:25.446Z</time>
      </trkpt>
      <trkpt lat="48.799211" lon="2.131863">
        <ele>135.127963</ele>
        <time>2025-02-12T12:54:28.816Z</time>
      </trkpt>
      <trkpt lat="48.797566" lon="2.131143">
        <ele>135.288762</ele>
        <time>2025-02-12T12:55:06.732Z</time>
      </trkpt>
      <trkpt lat="48.797523" lon="2.131107">
        <ele>135.295339</ele>
        <time>2025-02-12T12:55:08.033Z</time>
      </trkpt>
      <trkpt lat="48.797197" lon="2.131500">
        <ele>135.709311</ele>
        <time>2025-02-12T12:55:19.243Z</time>
      </trkpt>
      <trkpt lat="48.797110" lon="2.131447">
        <ele>135.871031</ele>
        <time>2025-02-12T12:55:22.051Z</time>
      </trkpt>
      <trkpt lat="48.797088" lon="2.131426">
        <ele>135.915863</ele>
        <time>2025-02-12T12:55:22.795Z</time>
      </trkpt>
      <trkpt lat="48.797012" lon="2.131390">
        <ele>136.053207</ele>
        <time>2025-02-12T12:55:25.287Z</time>
      </trkpt>
      <trkpt lat="48.796829" lon="2.131241">
        <ele>136.411447</ele>
        <time>2025-02-12T12:55:31.904Z</time>
      </trkpt>
      <trkpt lat="48.796620" lon="2.131162">
        <ele>136.783007</ele>
        <time>2025-02-12T12:55:39.213Z</time>
      </trkpt>
      <trkpt lat="48.796605" lon="2.131183">
        <ele>136.818208</ele>
        <time>2025-02-12T12:55:39.969Z</time>
      </trkpt>
      <trkpt lat="48.796593" lon="2.131262">
        <ele>136.910340</ele>
        <time>2025-02-12T12:55:41.867Z</time>
      </trkpt>
      <trkpt lat="48.796589" lon="2.131284">
        <ele>136.936275</ele>
        <time>2025-02-12T12:55:42.370Z</time>
      </trkpt>
      <trkpt lat="48.796593" lon="2.131262">
        <ele>136.962211</ele>
        <time>2025-02-12T12:55:43.401Z</time>
      </trkpt>
      <trkpt lat="48.796605" lon="2.131183">
        <ele>137.054342</ele>
        <time>2025-02-12T12:55:47.128Z</time>
      </trkpt>
      <trkpt lat="48.795701" lon="2.130609">
        <ele>138.644599</ele>
        <time>2025-02-12T12:56:18.721Z</time>
      </trkpt>
      <trkpt lat="48.795092" lon="2.130224">
        <ele>139.427426</ele>
        <time>2025-02-12T12:56:37.812Z</time>
      </trkpt>
      <trkpt lat="48.794864" lon="2.130073">
        <ele>139.722608</ele>
        <time>2025-02-12T12:56:44.314Z</time>
      </trkpt>
      <trkpt lat="48.794534" lon="2.129868">
        <ele>140.145720</ele>
        <time>2025-02-12T12:56:53.100Z</time>
      </trkpt>
      <trkpt lat="48.793911" lon="2.129467">
        <ele>141.773773</ele>
        <time>2025-02-12T12:57:11.495Z</time>
      </trkpt>
      <trkpt lat="48.793299" lon="2.129087">
        <ele>144.216047</ele>
        <time>2025-02-12T12:57:31.729Z</time>
      </trkpt>
      <trkpt lat="48.793047" lon="2.128926">
        <ele>145.225915</ele>
        <time>2025-02-12T12:57:44.485Z</time>
      </trkpt>
      <trkpt lat="48.793038" lon="2.128873">
        <ele>145.359093</ele>
        <time>2025-02-12T12:57:46.460Z</time>
      </trkpt>
      <trkpt lat="48.792960" lon="2.128804">
        <ele>145.692546</ele>
        <time>2025-02-12T12:57:52.064Z</time>
      </trkpt>
      <trkpt lat="48.792850" lon="2.128338">
        <ele>146.897045</ele>
        <time>2025-02-12T12:58:10.705Z</time>
      </trkpt>
      <trkpt lat="48.792811" lon="2.128350">
        <ele>147.044024</ele>
        <time>2025-02-12T12:58:12.862Z</time>
      </trkpt>
      <trkpt lat="48.792819" lon="2.128388">
        <ele>147.141096</ele>
        <time>2025-02-12T12:58:14.337Z</time>
      </trkpt>
      <trkpt lat="48.792758" lon="2.128513">
        <ele>147.735915</ele>
        <time>2025-02-12T12:58:20.098Z</time>
      </trkpt>
      <trkpt lat="48.792699" lon="2.128539">
        <ele>148.117189</ele>
        <time>2025-02-12T12:58:23.944Z</time>
      </trkpt>
      <trkpt lat="48.792406" lon="2.128484">
        <ele>149.949405</ele>
        <time>2025-02-12T12:58:42.360Z</time>
      </trkpt>
      <trkpt lat="48.792273" lon="2.128354">
        <ele>150.931128</ele>
        <time>2025-02-12T12:58:52.076Z</time>
      </trkpt>
      <trkpt lat="48.792245" lon="2.128382">
        <ele>151.139216</ele>
        <time>2025-02-12T12:58:54.303Z</time>
      </trkpt>
      <trkpt lat="48.792223" lon="2.128425">
        <ele>151.361810</ele>
        <time>2025-02-12T12:58:56.396Z</time>
      </trkpt>
      <trkpt lat="48.792234" lon="2.128544">
        <ele>151.853105</ele>
        <time>2025-02-12T12:59:00.713Z</time>
      </trkpt>
      <trkpt lat="48.792299" lon="2.128711">
        <ele>152.646141</ele>
        <time>2025-02-12T12:59:08.130Z</time>
      </trkpt>
      <trkpt lat="48.792382" lon="2.128796">
        <ele>153.267509</ele>
        <time>2025-02-12T12:59:14.009Z</time>
      </trkpt>
      <trkpt lat="48.792403" lon="2.128817">
        <ele>153.423575</ele>
        <time>2025-02-12T12:59:15.029Z</time>
      </trkpt>
      <trkpt lat="48.792334" lon="2.128978">
        <ele>154.208847</ele>
        <time>2025-02-12T12:59:22.531Z</time>
      </trkpt>
      <trkpt lat="48.792305" lon="2.129046">
        <ele>154.540032</ele>
        <time>2025-02-12T12:59:25.437Z</time>
      </trkpt>
      <trkpt lat="48.792183" lon="2.129359">
        <ele>156.026930</ele>
        <time>2025-02-12T12:59:38.971Z</time>
      </trkpt>
      <trkpt lat="48.792152" lon="2.129454">
        <ele>156.460372</ele>
        <time>2025-02-12T12:59:42.238Z</time>
      </trkpt>
      <trkpt lat="48.792109" lon="2.129673">
        <ele>157.394671</ele>
        <time>2025-02-12T12:59:49.108Z</time>
      </trkpt>
      <trkpt lat="48.792112" lon="2.129737">
        <ele>157.656996</ele>
        <time>2025-02-12T12:59:50.904Z</time>
      </trkpt>
      <trkpt lat="48.792113" lon="2.129776">
        <ele>157.816567</ele>
        <time>2025-02-12T12:59:52.201Z</time>
      </trkpt>
      <trkpt lat="48.792164" lon="2.129918">
        <ele>158.422861</ele>
        <time>2025-02-12T12:59:56.193Z</time>
      </trkpt>
      <trkpt lat="48.792369" lon="2.130405">
        <ele>159.644467</ele>
        <time>2025-02-12T13:00:15.121Z</time>
      </trkpt>
      <trkpt lat="48.792383" lon="2.130668">
        <ele>160.202199</ele>
        <time>2025-02-12T13:00:23.782Z</time>
      </trkpt>
      <trkpt lat="48.792263" lon="2.130688">
        <ele>160.589541</ele>
        <time>2025-02-12T13:00:29.643Z</time>
      </trkpt>
      <trkpt lat="48.792411" lon="2.130994">
        <ele>161.391953</ele>
        <time>2025-02-12T13:00:41.208Z</time>
      </trkpt>
      <trkpt lat="48.792563" lon="2.131614">
        <ele>162.790291</ele>
        <time>2025-02-12T13:01:03.550Z</time>
      </trkpt>
      <trkpt lat="48.792431" lon="2.131324">
        <ele>163.535365</ele>
        <time>2025-02-12T13:01:17.104Z</time>
      </trkpt>
      <trkpt lat="48.791878" lon="2.130549">
        <ele>165.865490</ele>
        <time>2025-02-12T13:01:59.570Z</time>
      </trkpt>
      <trkpt lat="48.791648" lon="2.130251">
        <ele>166.790410</ele>
        <time>2025-02-12T13:02:16.278Z</time>
      </trkpt>
      <trkpt lat="48.791451" lon="2.130523">
        <ele>167.604953</ele>
        <time>2025-02-12T13:02:30.806Z</time>
      </trkpt>
      <trkpt lat="48.791134" lon="2.130722">
        <ele>168.654196</ele>
        <time>2025-02-12T13:02:48.132Z</time>
      </trkpt>
      <trkpt lat="48.790498" lon="2.131010">
        <ele>170.128029</ele>
        <time>2025-02-12T13:03:18.450Z</time>
      </trkpt>
      <trkpt lat="48.790270" lon="2.131025">
        <ele>170.455487</ele>
        <time>2025-02-12T13:03:28.284Z</time>
      </trkpt>
      <trkpt lat="48.790186" lon="2.130990">
        <ele>170.580475</ele>
        <time>2025-02-12T13:03:31.968Z</time>
      </trkpt>
      <trkpt lat="48.790174" lon="2.130702">
        <ele>170.853271</ele>
        <time>2025-02-12T13:03:37.695Z</time>
      </trkpt>
      <trkpt lat="48.790193" lon="2.129744">
        <ele>171.759297</ele>
        <time>2025-02-12T13:03:56.911Z</time>
      </trkpt>
      <trkpt lat="48.790248" lon="2.128253">
        <ele>172.602189</ele>
        <time>2025-02-12T13:04:28.769Z</time>
      </trkpt>
      <trkpt lat="48.790242" lon="2.127636">
        <ele>172.837586</ele>
        <time>2025-02-12T13:04:41.011Z</time>
      </trkpt>
      <trkpt lat="48.790263" lon="2.127443">
        <ele>172.912209</ele>
        <time>2025-02-12T13:04:44.469Z</time>
      </trkpt>
      <trkpt lat="48.790622" lon="2.126703">
        <ele>173.241446</ele>
        <time>2025-02-12T13:04:58.996Z</time>
      </trkpt>
      <trkpt lat="48.790768" lon="2.126472">
        <ele>172.702278</ele>
        <time>2025-02-12T13:05:03.743Z</time>
      </trkpt>
      <trkpt lat="48.791040" lon="2.126142">
        <ele>171.812054</ele>
        <time>2025-02-12T13:05:11.319Z</time>
      </trkpt>
      <trkpt lat="48.791014" lon="2.124248">
        <ele>168.549668</ele>
        <time>2025-02-12T13:05:35.979Z</time>
      </trkpt>
      <trkpt lat="48.791005" lon="2.124142">
        <ele>168.040301</ele>
        <time>2025-02-12T13:05:37.235Z</time>
      </trkpt>
      <trkpt lat="48.791006" lon="2.124070">
        <ele>167.697078</ele>
        <time>2025-02-12T13:05:38.597Z</time>
      </trkpt>
      <trkpt lat="48.791008" lon="2.123819">
        <ele>166.500742</ele>
        <time>2025-02-12T13:05:43.214Z</time>
      </trkpt>
      <trkpt lat="48.791018" lon="2.123130">
        <ele>163.216219</ele>
        <time>2025-02-12T13:05:55.494Z</time>
      </trkpt>
      <trkpt lat="48.791057" lon="2.122825">
        <ele>161.735484</ele>
        <time>2025-02-12T13:06:00.871Z</time>
      </trkpt>
      <trkpt lat="48.791111" lon="2.122681">
        <ele>160.945800</ele>
        <time>2025-02-12T13:06:03.735Z</time>
      </trkpt>
      <trkpt lat="48.791193" lon="2.122538">
        <ele>160.042269</ele>
        <time>2025-02-12T13:06:06.983Z</time>
      </trkpt>
      <trkpt lat="48.791319" lon="2.122424">
        <ele>158.981122</ele>
        <time>2025-02-12T13:06:10.768Z</time>
      </trkpt>
      <trkpt lat="48.791638" lon="2.122208">
        <ele>156.454223</ele>
        <time>2025-02-12T13:06:19.877Z</time>
      </trkpt>
      <trkpt lat="48.791888" lon="2.121824">
        <ele>154.964970</ele>
        <time>2025-02-12T13:06:29.406Z</time>
      </trkpt>
      <trkpt lat="48.791954" lon="2.121656">
        <ele>154.604322</ele>
        <time>2025-02-12T13:06:33.031Z</time>
      </trkpt>
      <trkpt lat="48.792063" lon="2.121124">
        <ele>153.577091</ele>
        <time>2025-02-12T13:06:43.803Z</time>
      </trkpt>
      <trkpt lat="48.792227" lon="2.119191">
        <ele>150.165254</ele>
        <time>2025-02-12T13:07:30.881Z</time>
      </trkpt>
      <trkpt lat="48.792192" lon="2.119083">
        <ele>150.007181</ele>
        <time>2025-02-12T13:07:34.361Z</time>
      </trkpt>
      <trkpt lat="48.792249" lon="2.118422">
        <ele>149.131666</ele>
        <time>2025-02-12T13:07:43.757Z</time>
      </trkpt>
      <trkpt lat="48.792227" lon="2.118359">
        <ele>149.038021</ele>
        <time>2025-02-12T13:07:44.819Z</time>
      </trkpt>
      <trkpt lat="48.792390" lon="2.118147">
        <ele>148.610107</ele>
        <time>2025-02-12T13:07:48.748Z</time>
      </trkpt>
      <trkpt lat="48.792436" lon="2.118109">
        <ele>148.505703</ele>
        <time>2025-02-12T13:07:49.725Z</time>
      </trkpt>
      <trkpt lat="48.792487" lon="2.118063">
        <ele>148.387438</ele>
        <time>2025-02-12T13:07:50.797Z</time>
      </trkpt>
      <trkpt lat="48.792455" lon="2.117965">
        <ele>148.243790</ele>
        <time>2025-02-12T13:07:52.033Z</time>
      </trkpt>
      <trkpt lat="48.792426" lon="2.117798">
        <ele>148.016974</ele>
        <time>2025-02-12T13:07:53.994Z</time>
      </trkpt>
      <trkpt lat="48.792380" lon="2.117674">
        <ele>147.830078</ele>
        <time>2025-02-12T13:07:55.661Z</time>
      </trkpt>
      <trkpt lat="48.792404" lon="2.117652">
        <ele>147.774185</ele>
        <time>2025-02-12T13:07:57.636Z</time>
      </trkpt>
      <trkpt lat="48.792435" lon="2.117626">
        <ele>147.703580</ele>
        <time>2025-02-12T13:07:58.196Z</time>
      </trkpt>
      <trkpt lat="48.792454" lon="2.117619">
        <ele>147.664603</ele>
        <time>2025-02-12T13:07:58.512Z</time>
      </trkpt>
      <trkpt lat="48.792442" lon="2.117587">
        <ele>147.616245</ele>
        <time>2025-02-12T13:07:58.918Z</time>
      </trkpt>
      <trkpt lat="48.792544" lon="2.115720">
        <ele>145.866183</ele>
        <time>2025-02-12T13:08:21.270Z</time>
      </trkpt>
      <trkpt lat="48.792530" lon="2.114931">
        <ele>145.222642</ele>
        <time>2025-02-12T13:08:33.547Z</time>
      </trkpt>
      <trkpt lat="48.792478" lon="2.114663">
        <ele>144.994849</ele>
        <time>2025-02-12T13:08:40.414Z</time>
      </trkpt>
      <trkpt lat="48.792442" lon="2.114285">
        <ele>145.563020</ele>
        <time>2025-02-12T13:08:52.185Z</time>
      </trkpt>
      <trkpt lat="48.792486" lon="2.113906">
        <ele>147.555135</ele>
        <time>2025-02-12T13:09:06.770Z</time>
      </trkpt>
      <trkpt lat="48.792611" lon="2.113256">
        <ele>151.060265</ele>
        <time>2025-02-12T13:09:38.660Z</time>
      </trkpt>
      <trkpt lat="48.792810" lon="2.112357">
        <ele>155.969570</ele>
        <time>2025-02-12T13:10:26.516Z</time>
      </trkpt>
      <trkpt lat="48.792918" lon="2.111997">
        <ele>158.017214</ele>
        <time>2025-02-12T13:10:44.231Z</time>
      </trkpt>
      <trkpt lat="48.792950" lon="2.111634">
        <ele>159.608195</ele>
        <time>2025-02-12T13:10:59.183Z</time>
      </trkpt>
      <trkpt lat="48.793036" lon="2.111332">
        <ele>160.779888</ele>
        <time>2025-02-12T13:11:11.771Z</time>
      </trkpt>
      <trkpt lat="48.793270" lon="2.110858">
        <ele>162.889316</ele>
        <time>2025-02-12T13:11:32.900Z</time>
      </trkpt>
      <trkpt lat="48.793427" lon="2.110651">
        <ele>164.013493</ele>
        <time>2025-02-12T13:11:43.483Z</time>
      </trkpt>
      <trkpt lat="48.793539" lon="2.110405">
        <ele>165.078426</ele>
        <time>2025-02-12T13:11:52.780Z</time>
      </trkpt>
      <trkpt lat="48.793478" lon="2.110113">
        <ele>166.169347</ele>
        <time>2025-02-12T13:12:01.782Z</time>
      </trkpt>
      <trkpt lat="48.793378" lon="2.109800">
        <ele>167.408194</ele>
        <time>2025-02-12T13:12:11.781Z</time>
      </trkpt>
      <trkpt lat="48.792987" lon="2.109288">
        <ele>169.450045</ele>
        <time>2025-02-12T13:12:34.487Z</time>
      </trkpt>
      <trkpt lat="48.792682" lon="2.108818">
        <ele>170.656096</ele>
        <time>2025-02-12T13:12:53.550Z</time>
      </trkpt>
      <trkpt lat="48.792635" lon="2.108741">
        <ele>170.847993</ele>
        <time>2025-02-12T13:12:56.406Z</time>
      </trkpt>
      <trkpt lat="48.792562" lon="2.108518">
        <ele>171.303216</ele>
        <time>2025-02-12T13:13:03.013Z</time>
      </trkpt>
      <trkpt lat="48.792455" lon="2.108040">
        <ele>172.226118</ele>
        <time>2025-02-12T13:13:15.034Z</time>
      </trkpt>
      <trkpt lat="48.792271" lon="2.107581">
        <ele>173.208360</ele>
        <time>2025-02-12T13:13:26.296Z</time>
      </trkpt>
      <trkpt lat="48.792255" lon="2.107326">
        <ele>173.662488</ele>
        <time>2025-02-12T13:13:31.731Z</time>
      </trkpt>
      <trkpt lat="48.792324" lon="2.106228">
        <ele>174.586563</ele>
        <time>2025-02-12T13:13:55.445Z</time>
      </trkpt>
      <trkpt lat="48.792251" lon="2.106041">
        <ele>174.768670</ele>
        <time>2025-02-12T13:14:00.040Z</time>
      </trkpt>
      <trkpt lat="48.792145" lon="2.106023">
        <ele>174.904313</ele>
        <time>2025-02-12T13:14:03.463Z</time>
      </trkpt>
      <trkpt lat="48.791965" lon="2.106060">
        <ele>175.135311</ele>
        <time>2025-02-12T13:14:11.397Z</time>
      </trkpt>
      <trkpt lat="48.791618" lon="2.106211">
        <ele>175.594373</ele>
        <time>2025-02-12T13:14:26.941Z</time>
      </trkpt>
      <trkpt lat="48.791586" lon="2.106196">
        <ele>175.636964</ele>
        <time>2025-02-12T13:14:28.379Z</time>
      </trkpt>
      <trkpt lat="48.791490" lon="2.105944">
        <ele>175.880848</ele>
        <time>2025-02-12T13:14:36.518Z</time>
      </trkpt>
      <trkpt lat="48.791446" lon="2.105553">
        <ele>175.816728</ele>
        <time>2025-02-12T13:14:47.270Z</time>
      </trkpt>
      <trkpt lat="48.791442" lon="2.104957">
        <ele>175.596969</ele>
        <time>2025-02-12T13:15:01.774Z</time>
      </trkpt>
      <trkpt lat="48.791476" lon="2.104243">
        <ele>175.333026</ele>
        <time>2025-02-12T13:15:18.086Z</time>
      </trkpt>
      <trkpt lat="48.791615" lon="2.102500">
        <ele>174.597564</ele>
        <time>2025-02-12T13:15:57.138Z</time>
      </trkpt>
      <trkpt lat="48.791723" lon="2.101315">
        <ele>173.998216</ele>
        <time>2025-02-12T13:16:24.546Z</time>
      </trkpt>
      <trkpt lat="48.791697" lon="2.100910">
        <ele>173.794347</ele>
        <time>2025-02-12T13:16:34.200Z</time>
      </trkpt>
      <trkpt lat="48.791710" lon="2.100693">
        <ele>173.685180</ele>
        <time>2025-02-12T13:16:39.440Z</time>
      </trkpt>
      <trkpt lat="48.791800" lon="2.100173">
        <ele>173.571479</ele>
        <time>2025-02-12T13:16:52.429Z</time>
      </trkpt>
      <trkpt lat="48.791964" lon="2.098324">
        <ele>173.622592</ele>
        <time>2025-02-12T13:17:38.491Z</time>
      </trkpt>
      <trkpt lat="48.792092" lon="2.096754">
        <ele>173.605318</ele>
        <time>2025-02-12T13:18:17.783Z</time>
      </trkpt>
      <trkpt lat="48.792124" lon="2.096666">
        <ele>173.602051</ele>
        <time>2025-02-12T13:18:20.345Z</time>
      </trkpt>
      <trkpt lat="48.792426" lon="2.096747">
        <ele>173.586923</ele>
        <time>2025-02-12T13:18:32.169Z</time>
      </trkpt>
      <trkpt lat="48.792546" lon="2.096826">
        <ele>173.580471</ele>
        <time>2025-02-12T13:18:37.227Z</time>
      </trkpt>
      <trkpt lat="48.793169" lon="2.097252">
        <ele>173.434721</ele>
        <time>2025-02-12T13:19:02.640Z</time>
      </trkpt>
      <trkpt lat="48.793258" lon="2.097267">
        <ele>173.248146</ele>
        <time>2025-02-12T13:19:05.768Z</time>
      </trkpt>
      <trkpt lat="48.793433" lon="2.097171">
        <ele>172.860447</ele>
        <time>2025-02-12T13:19:12.042Z</time>
      </trkpt>
      <trkpt lat="48.793604" lon="2.097189">
        <ele>172.503307</ele>
        <time>2025-02-12T13:19:17.692Z</time>
      </trkpt>
      <trkpt lat="48.793947" lon="2.097462">
        <ele>171.696374</ele>
        <time>2025-02-12T13:19:30.035Z</time>
      </trkpt>
      <trkpt lat="48.794010" lon="2.097083">
        <ele>171.159864</ele>
        <time>2025-02-12T13:19:38.052Z</time>
      </trkpt>
      <trkpt lat="48.794129" lon="2.096672">
        <ele>170.543656</ele>
        <time>2025-02-12T13:19:47.184Z</time>
      </trkpt>
      <trkpt lat="48.793996" lon="2.095721">
        <ele>169.448694</ele>
        <time>2025-02-12T13:20:07.315Z</time>
      </trkpt>
      <trkpt lat="48.794028" lon="2.095107">
        <ele>168.944835</ele>
        <time>2025-02-12T13:20:20.782Z</time>
      </trkpt>
      <trkpt lat="48.793952" lon="2.094735">
        <ele>168.626217</ele>
        <time>2025-02-12T13:20:29.870Z</time>
      </trkpt>
      <trkpt lat="48.793729" lon="2.094106">
        <ele>168.041871</ele>
        <time>2025-02-12T13:20:47.208Z</time>
      </trkpt>
      <trkpt lat="48.793607" lon="2.092485">
        <ele>166.507601</ele>
        <time>2025-02-12T13:21:24.255Z</time>
      </trkpt>
      <trkpt lat="48.793644" lon="2.091916">
        <ele>165.931475</ele>
        <time>2025-02-12T13:21:35.965Z</time>
      </trkpt>
      <trkpt lat="48.793603" lon="2.091080">
        <ele>165.086769</ele>
        <time>2025-02-12T13:21:53.748Z</time>
      </trkpt>
      <trkpt lat="48.793664" lon="2.090631">
        <ele>164.850511</ele>
        <time>2025-02-12T13:22:04.280Z</time>
      </trkpt>
      <trkpt lat="48.793578" lon="2.090233">
        <ele>164.923438</ele>
        <time>2025-02-12T13:22:14.220Z</time>
      </trkpt>
      <trkpt lat="48.793450" lon="2.089873">
        <ele>164.994663</ele>
        <time>2025-02-12T13:22:24.370Z</time>
      </trkpt>
      <trkpt lat="48.793285" lon="2.089775">
        <ele>165.041491</ele>
        <time>2025-02-12T13:22:31.516Z</time>
      </trkpt>
      <trkpt lat="48.793055" lon="2.089632">
        <ele>165.107179</ele>
        <time>2025-02-12T13:22:41.871Z</time>
      </trkpt>
      <trkpt lat="48.792971" lon="2.089504">
        <ele>165.138636</ele>
        <time>2025-02-12T13:22:46.917Z</time>
      </trkpt>
      <trkpt lat="48.792920" lon="2.088993">
        <ele>165.228621</ele>
        <time>2025-02-12T13:23:01.439Z</time>
      </trkpt>
      <trkpt lat="48.792917" lon="2.088676">
        <ele>165.283820</ele>
        <time>2025-02-12T13:23:10.401Z</time>
      </trkpt>
      <trkpt lat="48.792947" lon="2.088362">
        <ele>165.349558</ele>
        <time>2025-02-12T13:23:19.050Z</time>
      </trkpt>
      <trkpt lat="48.793339" lon="2.087491">
        <ele>165.574727</ele>
        <time>2025-02-12T13:23:45.242Z</time>
      </trkpt>
      <trkpt lat="48.793476" lon="2.087139">
        <ele>165.661998</ele>
        <time>2025-02-12T13:23:55.278Z</time>
      </trkpt>
      <trkpt lat="48.793699" lon="2.086805">
        <ele>165.763507</ele>
        <time>2025-02-12T13:24:06.794Z</time>
      </trkpt>
      <trkpt lat="48.793834" lon="2.086441">
        <ele>165.852673</ele>
        <time>2025-02-12T13:24:17.195Z</time>
      </trkpt>
      <trkpt lat="48.793914" lon="2.086322">
        <ele>165.885460</ele>
        <time>2025-02-12T13:24:21.807Z</time>
      </trkpt>
      <trkpt lat="48.794281" lon="2.086115">
        <ele>165.979469</ele>
        <time>2025-02-12T13:24:37.826Z</time>
      </trkpt>
      <trkpt lat="48.794660" lon="2.085843">
        <ele>166.080131</ele>
        <time>2025-02-12T13:24:53.964Z</time>
      </trkpt>
      <trkpt lat="48.794830" lon="2.085595">
        <ele>166.136745</ele>
        <time>2025-02-12T13:25:02.838Z</time>
      </trkpt>
      <trkpt lat="48.795144" lon="2.084732">
        <ele>166.292690</ele>
        <time>2025-02-12T13:25:27.181Z</time>
      </trkpt>
      <trkpt lat="48.795205" lon="2.084486">
        <ele>166.324836</ele>
        <time>2025-02-12T13:25:33.785Z</time>
      </trkpt>
      <trkpt lat="48.795237" lon="2.084058">
        <ele>166.369134</ele>
        <time>2025-02-12T13:25:44.622Z</time>
      </trkpt>
      <trkpt lat="48.795262" lon="2.083130">
        <ele>166.464649</ele>
        <time>2025-02-12T13:26:07.209Z</time>
      </trkpt>
      <trkpt lat="48.795286" lon="2.082951">
        <ele>166.483435</ele>
        <time>2025-02-12T13:26:11.831Z</time>
      </trkpt>
      <trkpt lat="48.795332" lon="2.082809">
        <ele>166.499708</ele>
        <time>2025-02-12T13:26:15.763Z</time>
      </trkpt>
      <trkpt lat="48.795818" lon="2.081964">
        <ele>166.663856</ele>
        <time>2025-02-12T13:26:44.286Z</time>
      </trkpt>
      <trkpt lat="48.795938" lon="2.081653">
        <ele>166.767982</ele>
        <time>2025-02-12T13:26:53.515Z</time>
      </trkpt>
      <trkpt lat="48.797301" lon="2.076444">
        <ele>168.271768</ele>
        <time>2025-02-12T13:29:19.163Z</time>
      </trkpt>
      <trkpt lat="48.797442" lon="2.075897">
        <ele>168.293121</ele>
        <time>2025-02-12T13:29:34.227Z</time>
      </trkpt>
      <trkpt lat="48.797390" lon="2.075581">
        <ele>168.304961</ele>
        <time>2025-02-12T13:29:42.391Z</time>
      </trkpt>
      <trkpt lat="48.796784" lon="2.075077">
        <ele>168.343094</ele>
        <time>2025-02-12T13:30:07.659Z</time>
      </trkpt>
      <trkpt lat="48.795830" lon="2.074377">
        <ele>167.405403</ele>
        <time>2025-02-12T13:30:44.197Z</time>
      </trkpt>
      <trkpt lat="48.794123" lon="2.073198">
        <ele>165.810874</ele>
        <time>2025-02-12T13:31:48.939Z</time>
      </trkpt>
      <trkpt lat="48.794067" lon="2.073161">
        <ele>165.760370</ele>
        <time>2025-02-12T13:31:51.029Z</time>
      </trkpt>
      <trkpt lat="48.794122" lon="2.072344">
        <ele>165.312987</ele>
        <time>2025-02-12T13:32:02.105Z</time>
      </trkpt>
      <trkpt lat="48.794153" lon="2.072161">
        <ele>165.243209</ele>
        <time>2025-02-12T13:32:04.711Z</time>
      </trkpt>
      <trkpt lat="48.794204" lon="2.072037">
        <ele>165.214180</ele>
        <time>2025-02-12T13:32:06.769Z</time>
      </trkpt>
      <trkpt lat="48.794232" lon="2.071998">
        <ele>165.202724</ele>
        <time>2025-02-12T13:32:07.571Z</time>
      </trkpt>
      <trkpt lat="48.794246" lon="2.071961">
        <ele>165.194251</ele>
        <time>2025-02-12T13:32:08.165Z</time>
      </trkpt>
      <trkpt lat="48.794251" lon="2.071881">
        <ele>165.178293</ele>
        <time>2025-02-12T13:32:09.304Z</time>
      </trkpt>
      <trkpt lat="48.794230" lon="2.071807">
        <ele>165.162292</ele>
        <time>2025-02-12T13:32:10.443Z</time>
      </trkpt>
      <trkpt lat="48.794172" lon="2.071753">
        <ele>165.141782</ele>
        <time>2025-02-12T13:32:11.921Z</time>
      </trkpt>
      <trkpt lat="48.794080" lon="2.071791">
        <ele>165.113040</ele>
        <time>2025-02-12T13:32:13.981Z</time>
      </trkpt>
      <trkpt lat="48.793903" lon="2.071687">
        <ele>165.055826</ele>
        <time>2025-02-12T13:32:18.143Z</time>
      </trkpt>
      <trkpt lat="48.793413" lon="2.071506">
        <ele>164.903806</ele>
        <time>2025-02-12T13:32:29.235Z</time>
      </trkpt>
      <trkpt lat="48.792872" lon="2.071314">
        <ele>164.736324</ele>
        <time>2025-02-12T13:32:41.444Z</time>
      </trkpt>
      <trkpt lat="48.792052" lon="2.071009">
        <ele>163.862622</ele>
        <time>2025-02-12T13:32:58.512Z</time>
      </trkpt>
      <trkpt lat="48.791511" lon="2.070821">
        <ele>163.260429</ele>
        <time>2025-02-12T13:33:09.152Z</time>
      </trkpt>
      <trkpt lat="48.791384" lon="2.070785">
        <ele>163.120247</ele>
        <time>2025-02-12T13:33:11.592Z</time>
      </trkpt>
      <trkpt lat="48.791202" lon="2.070718">
        <ele>162.917045</ele>
        <time>2025-02-12T13:33:15.176Z</time>
      </trkpt>
      <trkpt lat="48.791116" lon="2.070728">
        <ele>162.823458</ele>
        <time>2025-02-12T13:33:16.815Z</time>
      </trkpt>
      <trkpt lat="48.791040" lon="2.070805">
        <ele>162.710102</ele>
        <time>2025-02-12T13:33:18.586Z</time>
      </trkpt>
      <trkpt lat="48.790977" lon="2.070991">
        <ele>162.512446</ele>
        <time>2025-02-12T13:33:21.229Z</time>
      </trkpt>
      <trkpt lat="48.790858" lon="2.071496">
        <ele>162.005569</ele>
        <time>2025-02-12T13:33:28.041Z</time>
      </trkpt>
      <trkpt lat="48.790734" lon="2.071648">
        <ele>161.776925</ele>
        <time>2025-02-12T13:33:31.116Z</time>
      </trkpt>
      <trkpt lat="48.790610" lon="2.071645">
        <ele>161.599021</ele>
        <time>2025-02-12T13:33:33.557Z</time>
      </trkpt>
      <trkpt lat="48.790535" lon="2.071596">
        <ele>161.481888</ele>
        <time>2025-02-12T13:33:35.141Z</time>
      </trkpt>
      <trkpt lat="48.790378" lon="2.071399">
        <ele>161.189675</ele>
        <time>2025-02-12T13:33:39.135Z</time>
      </trkpt>
      <trkpt lat="48.789428" lon="2.070080">
        <ele>159.068234</ele>
        <time>2025-02-12T13:34:03.292Z</time>
      </trkpt>
      <trkpt lat="48.789342" lon="2.070006">
        <ele>158.880378</ele>
        <time>2025-02-12T13:34:05.113Z</time>
      </trkpt>
      <trkpt lat="48.789213" lon="2.069972">
        <ele>158.631577</ele>
        <time>2025-02-12T13:34:07.532Z</time>
      </trkpt>
      <trkpt lat="48.788877" lon="2.069840">
        <ele>157.972050</ele>
        <time>2025-02-12T13:34:18.856Z</time>
      </trkpt>
      <trkpt lat="48.788800" lon="2.069832">
        <ele>157.825388</ele>
        <time>2025-02-12T13:34:20.459Z</time>
      </trkpt>
      <trkpt lat="48.788710" lon="2.069835">
        <ele>157.654324</ele>
        <time>2025-02-12T13:34:22.321Z</time>
      </trkpt>
      <trkpt lat="48.788572" lon="2.069979">
        <ele>157.336095</ele>
        <time>2025-02-12T13:34:25.771Z</time>
      </trkpt>
      <trkpt lat="48.788376" lon="2.070528">
        <ele>156.547683</ele>
        <time>2025-02-12T13:34:34.197Z</time>
      </trkpt>
      <trkpt lat="48.788156" lon="2.072224">
        <ele>154.316882</ele>
        <time>2025-02-12T13:34:57.850Z</time>
      </trkpt>
      <trkpt lat="48.787783" lon="2.073693">
        <ele>152.349637</ele>
        <time>2025-02-12T13:35:19.358Z</time>
      </trkpt>
      <trkpt lat="48.787567" lon="2.074409">
        <ele>151.401480</ele>
        <time>2025-02-12T13:35:30.158Z</time>
      </trkpt>
      <trkpt lat="48.787519" lon="2.074771">
        <ele>150.956882</ele>
        <time>2025-02-12T13:35:35.237Z</time>
      </trkpt>
      <trkpt lat="48.787573" lon="2.075181">
        <ele>150.453463</ele>
        <time>2025-02-12T13:35:41.026Z</time>
      </trkpt>
      <trkpt lat="48.787684" lon="2.075582">
        <ele>149.933299</ele>
        <time>2025-02-12T13:35:47.104Z</time>
      </trkpt>
      <trkpt lat="48.787747" lon="2.075919">
        <ele>149.560528</ele>
        <time>2025-02-12T13:35:52.017Z</time>
      </trkpt>
      <trkpt lat="48.787813" lon="2.076674">
        <ele>148.750064</ele>
        <time>2025-02-12T13:36:02.793Z</time>
      </trkpt>
      <trkpt lat="48.787757" lon="2.077119">
        <ele>148.267963</ele>
        <time>2025-02-12T13:36:09.270Z</time>
      </trkpt>
      <trkpt lat="48.787756" lon="2.077704">
        <ele>147.645441</ele>
        <time>2025-02-12T13:36:17.685Z</time>
      </trkpt>
      <trkpt lat="48.787834" lon="2.078228">
        <ele>147.073779</ele>
        <time>2025-02-12T13:36:25.210Z</time>
      </trkpt>
      <trkpt lat="48.787914" lon="2.078578">
        <ele>146.327690</ele>
        <time>2025-02-12T13:36:30.233Z</time>
      </trkpt>
      <trkpt lat="48.787918" lon="2.078807">
        <ele>145.855520</ele>
        <time>2025-02-12T13:36:33.238Z</time>
      </trkpt>
      <trkpt lat="48.787980" lon="2.079282">
        <ele>144.857443</ele>
        <time>2025-02-12T13:36:39.421Z</time>
      </trkpt>
      <trkpt lat="48.788091" lon="2.079653">
        <ele>144.017602</ele>
        <time>2025-02-12T13:36:44.504Z</time>
      </trkpt>
      <trkpt lat="48.788165" lon="2.080274">
        <ele>142.716862</ele>
        <time>2025-02-12T13:36:52.235Z</time>
      </trkpt>
      <trkpt lat="48.788239" lon="2.080579">
        <ele>142.046941</ele>
        <time>2025-02-12T13:36:56.232Z</time>
      </trkpt>
      <trkpt lat="48.788265" lon="2.080820">
        <ele>141.543590</ele>
        <time>2025-02-12T13:36:59.331Z</time>
      </trkpt>
      <trkpt lat="48.788173" lon="2.081634">
        <ele>140.105370</ele>
        <time>2025-02-12T13:37:09.928Z</time>
      </trkpt>
      <trkpt lat="48.788180" lon="2.081889">
        <ele>139.666858</ele>
        <time>2025-02-12T13:37:13.161Z</time>
      </trkpt>
      <trkpt lat="48.788122" lon="2.082027">
        <ele>139.385614</ele>
        <time>2025-02-12T13:37:15.261Z</time>
      </trkpt>
      <trkpt lat="48.788082" lon="2.082041">
        <ele>139.278563</ele>
        <time>2025-02-12T13:37:16.044Z</time>
      </trkpt>
      <trkpt lat="48.788034" lon="2.082025">
        <ele>139.150403</ele>
        <time>2025-02-12T13:37:16.992Z</time>
      </trkpt>
      <trkpt lat="48.787984" lon="2.082183">
        <ele>138.849240</ele>
        <time>2025-02-12T13:37:19.279Z</time>
      </trkpt>
      <trkpt lat="48.787895" lon="2.082302">
        <ele>138.539927</ele>
        <time>2025-02-12T13:37:21.685Z</time>
      </trkpt>
      <trkpt lat="48.787738" lon="2.082322">
        <ele>138.129056</ele>
        <time>2025-02-12T13:37:24.884Z</time>
      </trkpt>
      <trkpt lat="48.787467" lon="2.082158">
        <ele>137.368224</ele>
        <time>2025-02-12T13:37:30.980Z</time>
      </trkpt>
      <trkpt lat="48.787152" lon="2.082089">
        <ele>136.629955</ele>
        <time>2025-02-12T13:37:37.796Z</time>
      </trkpt>
      <trkpt lat="48.786982" lon="2.082133">
        <ele>136.387123</ele>
        <time>2025-02-12T13:37:41.455Z</time>
      </trkpt>
      <trkpt lat="48.786768" lon="2.082269">
        <ele>136.060440</ele>
        <time>2025-02-12T13:37:46.264Z</time>
      </trkpt>
      <trkpt lat="48.786234" lon="2.082789">
        <ele>135.167059</ele>
        <time>2025-02-12T13:37:59.704Z</time>
      </trkpt>
      <trkpt lat="48.785953" lon="2.082822">
        <ele>134.770200</ele>
        <time>2025-02-12T13:38:06.100Z</time>
      </trkpt>
      <trkpt lat="48.785615" lon="2.082964">
        <ele>134.276365</ele>
        <time>2025-02-12T13:38:13.999Z</time>
      </trkpt>
      <trkpt lat="48.785217" lon="2.083212">
        <ele>133.952998</ele>
        <time>2025-02-12T13:38:23.535Z</time>
      </trkpt>
      <trkpt lat="48.784320" lon="2.083529">
        <ele>133.341604</ele>
        <time>2025-02-12T13:38:44.198Z</time>
      </trkpt>
      <trkpt lat="48.784187" lon="2.083642">
        <ele>133.240420</ele>
        <time>2025-02-12T13:38:47.788Z</time>
      </trkpt>
      <trkpt lat="48.784043" lon="2.083899">
        <ele>133.092858</ele>
        <time>2025-02-12T13:38:53.458Z</time>
      </trkpt>
      <trkpt lat="48.783924" lon="2.084199">
        <ele>132.863017</ele>
        <time>2025-02-12T13:38:59.950Z</time>
      </trkpt>
      <trkpt lat="48.783520" lon="2.085043">
        <ele>131.915481</ele>
        <time>2025-02-12T13:39:16.286Z</time>
      </trkpt>
      <trkpt lat="48.783604" lon="2.085151">
        <ele>131.763722</ele>
        <time>2025-02-12T13:39:18.402Z</time>
      </trkpt>
      <trkpt lat="48.783480" lon="2.085313">
        <ele>131.538179</ele>
        <time>2025-02-12T13:39:21.471Z</time>
      </trkpt>
      <trkpt lat="48.783219" lon="2.085654">
        <ele>131.063438</ele>
        <time>2025-02-12T13:39:27.696Z</time>
      </trkpt>
      <trkpt lat="48.783026" lon="2.085847">
        <ele>130.744827</ele>
        <time>2025-02-12T13:39:31.776Z</time>
      </trkpt>
      <trkpt lat="48.782698" lon="2.086047">
        <ele>130.258002</ele>
        <time>2025-02-12T13:39:37.967Z</time>
      </trkpt>
      <trkpt lat="48.782617" lon="2.086166">
        <ele>130.102852</ele>
        <time>2025-02-12T13:39:39.899Z</time>
      </trkpt>
      <trkpt lat="48.782557" lon="2.086439">
        <ele>129.841882</ele>
        <time>2025-02-12T13:39:43.113Z</time>
      </trkpt>
      <trkpt lat="48.782585" lon="2.086777">
        <ele>129.532963</ele>
        <time>2025-02-12T13:39:47.014Z</time>
      </trkpt>
      <trkpt lat="48.782557" lon="2.086966">
        <ele>129.357295</ele>
        <time>2025-02-12T13:39:49.313Z</time>
      </trkpt>
      <trkpt lat="48.782392" lon="2.087395">
        <ele>128.906843</ele>
        <time>2025-02-12T13:39:55.737Z</time>
      </trkpt>
      <trkpt lat="48.782359" lon="2.087802">
        <ele>128.534982</ele>
        <time>2025-02-12T13:40:01.759Z</time>
      </trkpt>
      <trkpt lat="48.782376" lon="2.088202">
        <ele>128.171497</ele>
        <time>2025-02-12T13:40:08.350Z</time>
      </trkpt>
      <trkpt lat="48.782352" lon="2.088572">
        <ele>128.071810</ele>
        <time>2025-02-12T13:40:14.373Z</time>
      </trkpt>
      <trkpt lat="48.782279" lon="2.089135">
        <ele>128.108529</ele>
        <time>2025-02-12T13:40:24.276Z</time>
      </trkpt>
      <trkpt lat="48.782262" lon="2.089604">
        <ele>128.138587</ele>
        <time>2025-02-12T13:40:32.392Z</time>
      </trkpt>
      <trkpt lat="48.782194" lon="2.089917">
        <ele>128.159678</ele>
        <time>2025-02-12T13:40:37.807Z</time>
      </trkpt>
      <trkpt lat="48.782113" lon="2.090175">
        <ele>128.177967</ele>
        <time>2025-02-12T13:40:42.130Z</time>
      </trkpt>
      <trkpt lat="48.781947" lon="2.090460">
        <ele>128.202309</ele>
        <time>2025-02-12T13:40:47.522Z</time>
      </trkpt>
      <trkpt lat="48.781452" lon="2.090937">
        <ele>128.013255</ele>
        <time>2025-02-12T13:40:59.020Z</time>
      </trkpt>
      <trkpt lat="48.781135" lon="2.091152">
        <ele>127.755052</ele>
        <time>2025-02-12T13:41:05.855Z</time>
      </trkpt>
      <trkpt lat="48.780761" lon="2.091635">
        <ele>127.389859</ele>
        <time>2025-02-12T13:41:15.589Z</time>
      </trkpt>
      <trkpt lat="48.780594" lon="2.092029">
        <ele>127.160301</ele>
        <time>2025-02-12T13:41:21.918Z</time>
      </trkpt>
      <trkpt lat="48.780518" lon="2.092306">
        <ele>127.013271</ele>
        <time>2025-02-12T13:41:26.065Z</time>
      </trkpt>
      <trkpt lat="48.780463" lon="2.092665">
        <ele>126.869066</ele>
        <time>2025-02-12T13:41:31.211Z</time>
      </trkpt>
      <trkpt lat="48.780398" lon="2.093700">
        <ele>126.665437</ele>
        <time>2025-02-12T13:41:47.245Z</time>
      </trkpt>
      <trkpt lat="48.780476" lon="2.095260">
        <ele>126.359024</ele>
        <time>2025-02-12T13:42:09.603Z</time>
      </trkpt>
      <trkpt lat="48.780473" lon="2.095527">
        <ele>126.172450</ele>
        <time>2025-02-12T13:42:12.951Z</time>
      </trkpt>
      <trkpt lat="48.780321" lon="2.095639">
        <ele>125.992490</ele>
        <time>2025-02-12T13:42:18.539Z</time>
      </trkpt>
      <trkpt lat="48.780339" lon="2.096023">
        <ele>125.722316</ele>
        <time>2025-02-12T13:42:23.291Z</time>
      </trkpt>
      <trkpt lat="48.780358" lon="2.096350">
        <ele>125.491935</ele>
        <time>2025-02-12T13:42:27.306Z</time>
      </trkpt>
      <trkpt lat="48.780393" lon="2.096565">
        <ele>125.336510</ele>
        <time>2025-02-12T13:42:30.004Z</time>
      </trkpt>
      <trkpt lat="48.780578" lon="2.097155">
        <ele>124.877957</ele>
        <time>2025-02-12T13:42:44.413Z</time>
      </trkpt>
      <trkpt lat="48.780634" lon="2.097668">
        <ele>124.513026</ele>
        <time>2025-02-12T13:42:56.850Z</time>
      </trkpt>
      <trkpt lat="48.780640" lon="2.098177">
        <ele>124.165395</ele>
        <time>2025-02-12T13:43:09.288Z</time>
      </trkpt>
      <trkpt lat="48.780600" lon="2.098392">
        <ele>124.013871</ele>
        <time>2025-02-12T13:43:15.016Z</time>
      </trkpt>
      <trkpt lat="48.780466" lon="2.098708">
        <ele>123.759000</ele>
        <time>2025-02-12T13:43:24.493Z</time>
      </trkpt>
      <trkpt lat="48.780327" lon="2.098919">
        <ele>123.556638</ele>
        <time>2025-02-12T13:43:31.645Z</time>
      </trkpt>
      <trkpt lat="48.780096" lon="2.099050">
        <ele>123.302812</ele>
        <time>2025-02-12T13:43:40.416Z</time>
      </trkpt>
      <trkpt lat="48.779985" lon="2.099095">
        <ele>123.184554</ele>
        <time>2025-02-12T13:43:44.392Z</time>
      </trkpt>
      <trkpt lat="48.779664" lon="2.099137">
        <ele>122.852925</ele>
        <time>2025-02-12T13:43:55.244Z</time>
      </trkpt>
      <trkpt lat="48.779494" lon="2.099077">
        <ele>122.673275</ele>
        <time>2025-02-12T13:44:00.867Z</time>
      </trkpt>
      <trkpt lat="48.778826" lon="2.098664">
        <ele>120.583113</ele>
        <time>2025-02-12T13:44:22.626Z</time>
      </trkpt>
      <trkpt lat="48.778568" lon="2.098639">
        <ele>119.774387</ele>
        <time>2025-02-12T13:44:30.382Z</time>
      </trkpt>
      <trkpt lat="48.778427" lon="2.098700">
        <ele>119.315733</ele>
        <time>2025-02-12T13:44:34.825Z</time>
      </trkpt>
      <trkpt lat="48.778266" lon="2.098884">
        <ele>118.685235</ele>
        <time>2025-02-12T13:44:40.973Z</time>
      </trkpt>
      <trkpt lat="48.778156" lon="2.099113">
        <ele>118.101065</ele>
        <time>2025-02-12T13:44:46.747Z</time>
      </trkpt>
      <trkpt lat="48.778072" lon="2.099410">
        <ele>117.434813</ele>
        <time>2025-02-12T13:44:53.364Z</time>
      </trkpt>
      <trkpt lat="48.778016" lon="2.100047">
        <ele>116.644808</ele>
        <time>2025-02-12T13:45:06.802Z</time>
      </trkpt>
      <trkpt lat="48.777911" lon="2.100187">
        <ele>116.481000</ele>
        <time>2025-02-12T13:45:11.332Z</time>
      </trkpt>
      <trkpt lat="48.777706" lon="2.100209">
        <ele>116.240147</ele>
        <time>2025-02-12T13:45:18.023Z</time>
      </trkpt>
      <trkpt lat="48.777385" lon="2.100136">
        <ele>115.859745</ele>
        <time>2025-02-12T13:45:28.673Z</time>
      </trkpt>
      <trkpt lat="48.776671" lon="2.100131">
        <ele>115.022952</ele>
        <time>2025-02-12T13:45:53.787Z</time>
      </trkpt>
      <trkpt lat="48.776512" lon="2.100225">
        <ele>114.945578</ele>
        <time>2025-02-12T13:46:00.559Z</time>
      </trkpt>
      <trkpt lat="48.776338" lon="2.100431">
        <ele>115.612572</ele>
        <time>2025-02-12T13:46:10.021Z</time>
      </trkpt>
      <trkpt lat="48.776205" lon="2.100695">
        <ele>116.274423</ele>
        <time>2025-02-12T13:46:19.924Z</time>
      </trkpt>
      <trkpt lat="48.776919" lon="2.100999">
        <ele>118.515665</ele>
        <time>2025-02-12T13:46:58.154Z</time>
      </trkpt>
      <trkpt lat="48.776517" lon="2.101634">
        <ele>120.269407</ele>
        <time>2025-02-12T13:47:32.887Z</time>
      </trkpt>
      <trkpt lat="48.776632" lon="2.101936">
        <ele>122.123587</ele>
        <time>2025-02-12T13:47:47.890Z</time>
      </trkpt>
      <trkpt lat="48.776688" lon="2.102431">
        <ele>124.852787</ele>
        <time>2025-02-12T13:48:11.073Z</time>
      </trkpt>
      <trkpt lat="48.776789" lon="2.102515">
        <ele>125.802512</ele>
        <time>2025-02-12T13:48:19.440Z</time>
      </trkpt>
      <trkpt lat="48.776840" lon="2.102417">
        <ele>126.481076</ele>
        <time>2025-02-12T13:48:25.508Z</time>
      </trkpt>
      <trkpt lat="48.776869" lon="2.102223">
        <ele>127.562058</ele>
        <time>2025-02-12T13:48:35.489Z</time>
      </trkpt>
      <trkpt lat="48.776984" lon="2.101906">
        <ele>129.528408</ele>
        <time>2025-02-12T13:48:54.675Z</time>
      </trkpt>
      <trkpt lat="48.777147" lon="2.101666">
        <ele>131.401215</ele>
        <time>2025-02-12T13:49:14.004Z</time>
      </trkpt>
      <trkpt lat="48.777200" lon="2.101656">
        <ele>131.841615</ele>
        <time>2025-02-12T13:49:18.677Z</time>
      </trkpt>
      <trkpt lat="48.777262" lon="2.101884">
        <ele>133.181901</ele>
        <time>2025-02-12T13:49:33.314Z</time>
      </trkpt>
      <trkpt lat="48.777250" lon="2.102009">
        <ele>133.868318</ele>
        <time>2025-02-12T13:49:41.033Z</time>
      </trkpt>
      <trkpt lat="48.777238" lon="2.102126">
        <ele>134.511748</ele>
        <time>2025-02-12T13:49:48.399Z</time>
      </trkpt>
      <trkpt lat="48.777261" lon="2.102503">
        <ele>136.663391</ele>
        <time>2025-02-12T13:50:12.180Z</time>
      </trkpt>
      <trkpt lat="48.777598" lon="2.102971">
        <ele>140.676148</ele>
        <time>2025-02-12T13:50:55.430Z</time>
      </trkpt>
      <trkpt lat="48.777894" lon="2.103323">
        <ele>143.979526</ele>
        <time>2025-02-12T13:51:28.784Z</time>
      </trkpt>
      <trkpt lat="48.778509" lon="2.103430">
        <ele>149.417166</ele>
        <time>2025-02-12T13:52:17.062Z</time>
      </trkpt>
      <trkpt lat="48.778976" lon="2.103790">
        <ele>151.244966</ele>
        <time>2025-02-12T13:52:47.291Z</time>
      </trkpt>
      <trkpt lat="48.779326" lon="2.104381">
        <ele>151.721678</ele>
        <time>2025-02-12T13:53:07.504Z</time>
      </trkpt>
      <trkpt lat="48.779435" lon="2.104622">
        <ele>151.897043</ele>
        <time>2025-02-12T13:53:14.097Z</time>
      </trkpt>
      <trkpt lat="48.779484" lon="2.105685">
        <ele>152.536335</ele>
        <time>2025-02-12T13:53:37.726Z</time>
      </trkpt>
      <trkpt lat="48.779501" lon="2.106462">
        <ele>153.305606</ele>
        <time>2025-02-12T13:53:56.376Z</time>
      </trkpt>
      <trkpt lat="48.779468" lon="2.106771">
        <ele>153.622404</ele>
        <time>2025-02-12T13:54:04.983Z</time>
      </trkpt>
      <trkpt lat="48.779626" lon="2.107557">
        <ele>154.454049</ele>
        <time>2025-02-12T13:54:31.501Z</time>
      </trkpt>
      <trkpt lat="48.779887" lon="2.108661">
        <ele>155.569415</ele>
        <time>2025-02-12T13:55:12.476Z</time>
      </trkpt>
      <trkpt lat="48.780190" lon="2.109942">
        <ele>156.635379</ele>
        <time>2025-02-12T13:55:55.555Z</time>
      </trkpt>
      <trkpt lat="48.780205" lon="2.110154">
        <ele>156.802373</ele>
        <time>2025-02-12T13:56:01.132Z</time>
      </trkpt>
      <trkpt lat="48.780425" lon="2.111002">
        <ele>157.350385</ele>
        <time>2025-02-12T13:56:22.512Z</time>
      </trkpt>
      <trkpt lat="48.780457" lon="2.111219">
        <ele>156.991440</ele>
        <time>2025-02-12T13:56:27.440Z</time>
      </trkpt>
      <trkpt lat="48.780520" lon="2.111889">
        <ele>155.898974</ele>
        <time>2025-02-12T13:56:41.772Z</time>
      </trkpt>
      <trkpt lat="48.780233" lon="2.112931">
        <ele>154.075956</ele>
        <time>2025-02-12T13:57:04.479Z</time>
      </trkpt>
      <trkpt lat="48.780023" lon="2.113435">
        <ele>153.113397</ele>
        <time>2025-02-12T13:57:16.372Z</time>
      </trkpt>
      <trkpt lat="48.779151" lon="2.115426">
        <ele>151.201153</ele>
        <time>2025-02-12T13:58:08.658Z</time>
      </trkpt>
      <trkpt lat="48.779164" lon="2.115546">
        <ele>151.105375</ele>
        <time>2025-02-12T13:58:12.057Z</time>
      </trkpt>
      <trkpt lat="48.779263" lon="2.115777">
        <ele>150.933329</ele>
        <time>2025-02-12T13:58:19.830Z</time>
      </trkpt>
      <trkpt lat="48.779478" lon="2.116066">
        <ele>151.454105</ele>
        <time>2025-02-12T13:58:32.812Z</time>
      </trkpt>
      <trkpt lat="48.779551" lon="2.116275">
        <ele>151.736734</ele>
        <time>2025-02-12T13:58:40.215Z</time>
      </trkpt>
      <trkpt lat="48.779891" lon="2.117062">
        <ele>152.861125</ele>
        <time>2025-02-12T13:59:11.928Z</time>
      </trkpt>
      <trkpt lat="48.780400" lon="2.117883">
        <ele>154.180010</ele>
        <time>2025-02-12T13:59:46.266Z</time>
      </trkpt>
      <trkpt lat="48.780510" lon="2.118116">
        <ele>154.285799</ele>
        <time>2025-02-12T13:59:54.636Z</time>
      </trkpt>
      <trkpt lat="48.780541" lon="2.118226">
        <ele>154.329955</ele>
        <time>2025-02-12T13:59:58.133Z</time>
      </trkpt>
      <trkpt lat="48.780448" lon="2.119236">
        <ele>154.706347</ele>
        <time>2025-02-12T14:00:28.213Z</time>
      </trkpt>
      <trkpt lat="48.780207" lon="2.121674">
        <ele>154.152145</ele>
        <time>2025-02-12T14:01:25.753Z</time>
      </trkpt>
      <trkpt lat="48.780054" lon="2.123033">
        <ele>152.972765</ele>
        <time>2025-02-12T14:01:54.031Z</time>
      </trkpt>
      <trkpt lat="48.779930" lon="2.124477">
        <ele>155.544114</ele>
        <time>2025-02-12T14:02:33.781Z</time>
      </trkpt>
      <trkpt lat="48.780048" lon="2.124492">
        <ele>155.917620</ele>
        <time>2025-02-12T14:02:40.975Z</time>
      </trkpt>
      <trkpt lat="48.780204" lon="2.124464">
        <ele>156.413115</ele>
        <time>2025-02-12T14:02:51.144Z</time>
      </trkpt>
      <trkpt lat="48.781555" lon="2.123698">
        <ele>162.373827</ele>
        <time>2025-02-12T14:04:29.770Z</time>
      </trkpt>
      <trkpt lat="48.781785" lon="2.123719">
        <ele>163.519568</ele>
        <time>2025-02-12T14:04:43.908Z</time>
      </trkpt>
      <trkpt lat="48.782155" lon="2.124214">
        <ele>165.972199</ele>
        <time>2025-02-12T14:05:12.720Z</time>
      </trkpt>
      <trkpt lat="48.782184" lon="2.124556">
        <ele>167.101999</ele>
        <time>2025-02-12T14:05:25.235Z</time>
      </trkpt>
      <trkpt lat="48.782622" lon="2.125467">
        <ele>169.042140</ele>
        <time>2025-02-12T14:05:54.950Z</time>
      </trkpt>
      <trkpt lat="48.783061" lon="2.126207">
        <ele>170.590431</ele>
        <time>2025-02-12T14:06:19.676Z</time>
      </trkpt>
      <trkpt lat="48.783533" lon="2.127165">
        <ele>171.346316</ele>
        <time>2025-02-12T14:06:43.696Z</time>
      </trkpt>
      <trkpt lat="48.783794" lon="2.127658">
        <ele>170.879748</ele>
        <time>2025-02-12T14:06:53.546Z</time>
      </trkpt>
      <trkpt lat="48.784575" lon="2.128013">
        <ele>169.966915</ele>
        <time>2025-02-12T14:07:10.777Z</time>
      </trkpt>
      <trkpt lat="48.785424" lon="2.128420">
        <ele>166.981629</ele>
        <time>2025-02-12T14:07:27.839Z</time>
      </trkpt>
      <trkpt lat="48.785600" lon="2.128519">
        <ele>166.189222</ele>
        <time>2025-02-12T14:07:33.387Z</time>
      </trkpt>
      <trkpt lat="48.785767" lon="2.128568">
        <ele>165.471145</ele>
        <time>2025-02-12T14:07:38.373Z</time>
      </trkpt>
      <trkpt lat="48.787509" lon="2.129428">
        <ele>158.735321</ele>
        <time>2025-02-12T14:08:30.960Z</time>
      </trkpt>
      <trkpt lat="48.787780" lon="2.132603">
        <ele>156.420550</ele>
        <time>2025-02-12T14:09:44.816Z</time>
      </trkpt>
      <trkpt lat="48.787819" lon="2.132655">
        <ele>156.427536</ele>
        <time>2025-02-12T14:09:47.102Z</time>
      </trkpt>
      <trkpt lat="48.787847" lon="2.132706">
        <ele>156.433422</ele>
        <time>2025-02-12T14:09:48.754Z</time>
      </trkpt>
      <trkpt lat="48.787714" lon="2.133081">
        <ele>156.471183</ele>
        <time>2025-02-12T14:09:57.915Z</time>
      </trkpt>
      <trkpt lat="48.787679" lon="2.133268">
        <ele>156.645816</ele>
        <time>2025-02-12T14:10:02.293Z</time>
      </trkpt>
      <trkpt lat="48.787787" lon="2.133467">
        <ele>157.221606</ele>
        <time>2025-02-12T14:10:08.311Z</time>
      </trkpt>
      <trkpt lat="48.787797" lon="2.133477">
        <ele>157.262199</ele>
        <time>2025-02-12T14:10:08.731Z</time>
      </trkpt>
      <trkpt lat="48.788417" lon="2.133794">
        <ele>159.479846</ele>
        <time>2025-02-12T14:10:34.133Z</time>
      </trkpt>
      <trkpt lat="48.788681" lon="2.133996">
        <ele>160.482002</ele>
        <time>2025-02-12T14:10:46.712Z</time>
      </trkpt>
      <trkpt lat="48.788728" lon="2.134032">
        <ele>160.660454</ele>
        <time>2025-02-12T14:10:48.984Z</time>
      </trkpt>
      <trkpt lat="48.788697" lon="2.134211">
        <ele>161.073787</ele>
        <time>2025-02-12T14:10:56.103Z</time>
      </trkpt>
      <trkpt lat="48.788762" lon="2.134381">
        <ele>161.512743</ele>
        <time>2025-02-12T14:11:03.610Z</time>
      </trkpt>
      <trkpt lat="48.788793" lon="2.134780">
        <ele>162.409985</ele>
        <time>2025-02-12T14:11:18.612Z</time>
      </trkpt>
      <trkpt lat="48.788833" lon="2.134929">
        <ele>162.781724</ele>
        <time>2025-02-12T14:11:24.598Z</time>
      </trkpt>
      <trkpt lat="48.789454" lon="2.135984">
        <ele>166.147105</ele>
        <time>2025-02-12T14:12:17.457Z</time>
      </trkpt>
      <trkpt lat="48.789475" lon="2.136115">
        <ele>166.467819</ele>
        <time>2025-02-12T14:12:22.531Z</time>
      </trkpt>
      <trkpt lat="48.789389" lon="2.136335">
        <ele>167.076340</ele>
        <time>2025-02-12T14:12:31.987Z</time>
      </trkpt>
      <trkpt lat="48.789075" lon="2.136698">
        <ele>168.501475</ele>
        <time>2025-02-12T14:12:53.557Z</time>
      </trkpt>
      <trkpt lat="48.788878" lon="2.136983">
        <ele>169.111511</ele>
        <time>2025-02-12T14:13:07.626Z</time>
      </trkpt>
      <trkpt lat="48.788768" lon="2.137289">
        <ele>169.189163</ele>
        <time>2025-02-12T14:13:18.849Z</time>
      </trkpt>
      <trkpt lat="48.788557" lon="2.137725">
        <ele>169.309674</ele>
        <time>2025-02-12T14:13:34.845Z</time>
      </trkpt>
      <trkpt lat="48.788505" lon="2.137940">
        <ele>169.360694</ele>
        <time>2025-02-12T14:13:40.995Z</time>
      </trkpt>
      <trkpt lat="48.788619" lon="2.138406">
        <ele>169.471427</ele>
        <time>2025-02-12T14:13:53.389Z</time>
      </trkpt>
      <trkpt lat="48.788636" lon="2.138572">
        <ele>169.508850</ele>
        <time>2025-02-12T14:13:57.368Z</time>
      </trkpt>
      <trkpt lat="48.788581" lon="2.138761">
        <ele>169.554876</ele>
        <time>2025-02-12T14:14:02.102Z</time>
      </trkpt>
      <trkpt lat="48.788473" lon="2.139000">
        <ele>169.619436</ele>
        <time>2025-02-12T14:14:08.517Z</time>
      </trkpt>
      <trkpt lat="48.788514" lon="2.139053">
        <ele>169.637645</ele>
        <time>2025-02-12T14:14:10.266Z</time>
      </trkpt>
      <trkpt lat="48.788772" lon="2.139155">
        <ele>169.312862</ele>
        <time>2025-02-12T14:14:18.764Z</time>
      </trkpt>
      <trkpt lat="48.788854" lon="2.139273">
        <ele>169.011078</ele>
        <time>2025-02-12T14:14:22.296Z</time>
      </trkpt>
      <trkpt lat="48.788753" lon="2.139783">
        <ele>168.074018</ele>
        <time>2025-02-12T14:14:32.921Z</time>
      </trkpt>
      <trkpt lat="48.788745" lon="2.140088">
        <ele>167.536915</ele>
        <time>2025-02-12T14:14:38.880Z</time>
      </trkpt>
      <trkpt lat="48.788822" lon="2.140312">
        <ele>167.092341</ele>
        <time>2025-02-12T14:14:43.879Z</time>
      </trkpt>
      <trkpt lat="48.789223" lon="2.141024">
        <ele>165.444138</ele>
        <time>2025-02-12T14:15:02.877Z</time>
      </trkpt>
      <trkpt lat="48.789275" lon="2.141153">
        <ele>165.178036</ele>
        <time>2025-02-12T14:15:06.037Z</time>
      </trkpt>
      <trkpt lat="48.789322" lon="2.141421">
        <ele>164.952459</ele>
        <time>2025-02-12T14:15:11.882Z</time>
      </trkpt>
      <trkpt lat="48.789334" lon="2.141641">
        <ele>165.108054</ele>
        <time>2025-02-12T14:15:16.690Z</time>
      </trkpt>
      <trkpt lat="48.789311" lon="2.143805">
        <ele>166.633527</ele>
        <time>2025-02-12T14:16:21.246Z</time>
      </trkpt>
      <trkpt lat="48.788426" lon="2.143160">
        <ele>169.182283</ele>
        <time>2025-02-12T14:17:12.519Z</time>
      </trkpt>
      <trkpt lat="48.788402" lon="2.143140">
        <ele>169.261330</ele>
        <time>2025-02-12T14:17:13.995Z</time>
      </trkpt>
      <trkpt lat="48.788247" lon="2.143241">
        <ele>169.748323</ele>
        <time>2025-02-12T14:17:22.975Z</time>
      </trkpt>
      <trkpt lat="48.788186" lon="2.143454">
        <ele>170.190099</ele>
        <time>2025-02-12T14:17:31.150Z</time>
      </trkpt>
      <trkpt lat="48.788235" lon="2.143700">
        <ele>170.678942</ele>
        <time>2025-02-12T14:17:40.055Z</time>
      </trkpt>
      <trkpt lat="48.788198" lon="2.143781">
        <ele>170.866424</ele>
        <time>2025-02-12T14:17:43.426Z</time>
      </trkpt>
      <trkpt lat="48.788126" lon="2.143804">
        <ele>171.078848</ele>
        <time>2025-02-12T14:17:47.309Z</time>
      </trkpt>
      <trkpt lat="48.787650" lon="2.143453">
        <ele>172.352526</ele>
        <time>2025-02-12T14:18:07.658Z</time>
      </trkpt>
      <trkpt lat="48.787633" lon="2.143441">
        <ele>172.384181</ele>
        <time>2025-02-12T14:18:08.350Z</time>
      </trkpt>
      <trkpt lat="48.786846" lon="2.142891">
        <ele>173.847075</ele>
        <time>2025-02-12T14:18:51.230Z</time>
      </trkpt>
      <trkpt lat="48.786312" lon="2.142453">
        <ele>174.871938</ele>
        <time>2025-02-12T14:19:16.772Z</time>
      </trkpt>
      <trkpt lat="48.785958" lon="2.142037">
        <ele>174.712310</ele>
        <time>2025-02-12T14:19:32.636Z</time>
      </trkpt>
      <trkpt lat="48.784855" lon="2.141765">
        <ele>173.703006</ele>
        <time>2025-02-12T14:19:54.988Z</time>
      </trkpt>
      <trkpt lat="48.784276" lon="2.140231">
        <ele>172.773309</ele>
        <time>2025-02-12T14:20:35.940Z</time>
      </trkpt>
      <trkpt lat="48.784022" lon="2.139657">
        <ele>172.428446</ele>
        <time>2025-02-12T14:20:52.273Z</time>
      </trkpt>
      <trkpt lat="48.783708" lon="2.139089">
        <ele>172.058642</ele>
        <time>2025-02-12T14:21:09.431Z</time>
      </trkpt>
      <trkpt lat="48.783244" lon="2.138181">
        <ele>170.910262</ele>
        <time>2025-02-12T14:21:35.349Z</time>
      </trkpt>
      <trkpt lat="48.782950" lon="2.137756">
        <ele>170.287077</ele>
        <time>2025-02-12T14:21:48.861Z</time>
      </trkpt>
      <trkpt lat="48.782538" lon="2.137063">
        <ele>169.343115</ele>
        <time>2025-02-12T14:22:08.929Z</time>
      </trkpt>
      <trkpt lat="48.782164" lon="2.136278">
        <ele>168.076720</ele>
        <time>2025-02-12T14:22:29.121Z</time>
      </trkpt>
      <trkpt lat="48.781972" lon="2.136040">
        <ele>167.577808</ele>
        <time>2025-02-12T14:22:37.037Z</time>
      </trkpt>
      <trkpt lat="48.781331" lon="2.135677">
        <ele>166.200910</ele>
        <time>2025-02-12T14:22:59.610Z</time>
      </trkpt>
      <trkpt lat="48.780653" lon="2.135205">
        <ele>164.488022</ele>
        <time>2025-02-12T14:23:24.473Z</time>
      </trkpt>
      <trkpt lat="48.779864" lon="2.134499">
        <ele>162.240394</ele>
        <time>2025-02-12T14:23:54.175Z</time>
      </trkpt>
      <trkpt lat="48.777181" lon="2.132090">
        <ele>151.476989</ele>
        <time>2025-02-12T14:25:27.059Z</time>
      </trkpt>
      <trkpt lat="48.777181" lon="2.132090">
        <ele>151.476989</ele>
        <time>2025-02-12T14:25:27.072Z</time>
      </trkpt>
      <trkpt lat="48.776448" lon="2.133578">
        <ele>148.245824</ele>
        <time>2025-02-12T14:26:07.351Z</time>
      </trkpt>
      <trkpt lat="48.776068" lon="2.134353">
        <ele>147.065467</ele>
        <time>2025-02-12T14:26:27.714Z</time>
      </trkpt>
      <trkpt lat="48.775721" lon="2.136052">
        <ele>145.303177</ele>
        <time>2025-02-12T14:27:06.198Z</time>
      </trkpt>
      <trkpt lat="48.775445" lon="2.137401">
        <ele>144.666187</ele>
        <time>2025-02-12T14:27:42.269Z</time>
      </trkpt>
      <trkpt lat="48.775151" lon="2.138915">
        <ele>143.743763</ele>
        <time>2025-02-12T14:28:17.798Z</time>
      </trkpt>
      <trkpt lat="48.775128" lon="2.139047">
        <ele>143.646009</ele>
        <time>2025-02-12T14:28:20.613Z</time>
      </trkpt>
      <trkpt lat="48.774438" lon="2.140424">
        <ele>142.407508</ele>
        <time>2025-02-12T14:28:58.252Z</time>
      </trkpt>
      <trkpt lat="48.775367" lon="2.142044">
        <ele>143.204347</ele>
        <time>2025-02-12T14:30:02.448Z</time>
      </trkpt>
      <trkpt lat="48.775498" lon="2.144280">
        <ele>139.967839</ele>
        <time>2025-02-12T14:30:54.436Z</time>
      </trkpt>
      <trkpt lat="48.774508" lon="2.142089">
        <ele>129.394536</ele>
        <time>2025-02-12T14:31:41.971Z</time>
      </trkpt>
      <trkpt lat="48.774366" lon="2.141821">
        <ele>127.568393</ele>
        <time>2025-02-12T14:31:47.911Z</time>
      </trkpt>
      <trkpt lat="48.773796" lon="2.141711">
        <ele>122.934563</ele>
        <time>2025-02-12T14:32:02.860Z</time>
      </trkpt>
      <trkpt lat="48.772074" lon="2.141379">
        <ele>107.817728</ele>
        <time>2025-02-12T14:32:48.144Z</time>
      </trkpt>
      <trkpt lat="48.771767" lon="2.141153">
        <ele>106.290121</ele>
        <time>2025-02-12T14:32:57.582Z</time>
      </trkpt>
      <trkpt lat="48.771698" lon="2.141017">
        <ele>105.879805</ele>
        <time>2025-02-12T14:33:00.798Z</time>
      </trkpt>
      <trkpt lat="48.771616" lon="2.140949">
        <ele>105.540829</ele>
        <time>2025-02-12T14:33:02.360Z</time>
      </trkpt>
      <trkpt lat="48.771453" lon="2.140935">
        <ele>104.948612</ele>
        <time>2025-02-12T14:33:05.109Z</time>
      </trkpt>
      <trkpt lat="48.771234" lon="2.141029">
        <ele>104.123030</ele>
        <time>2025-02-12T14:33:09.055Z</time>
      </trkpt>
      <trkpt lat="48.771214" lon="2.141183">
        <ele>103.747779</ele>
        <time>2025-02-12T14:33:12.284Z</time>
      </trkpt>
      <trkpt lat="48.769963" lon="2.144329">
        <ele>99.359671</ele>
        <time>2025-02-12T14:34:35.033Z</time>
      </trkpt>
      <trkpt lat="48.769755" lon="2.144971">
        <ele>99.764856</ele>
        <time>2025-02-12T14:34:52.321Z</time>
      </trkpt>
      <trkpt lat="48.769713" lon="2.145018">
        <ele>99.871793</ele>
        <time>2025-02-12T14:34:54.309Z</time>
      </trkpt>
      <trkpt lat="48.769849" lon="2.145190">
        <ele>100.234586</ele>
        <time>2025-02-12T14:34:58.961Z</time>
      </trkpt>
      <trkpt lat="48.769916" lon="2.145274">
        <ele>100.412680</ele>
        <time>2025-02-12T14:35:01.343Z</time>
      </trkpt>
      <trkpt lat="48.770031" lon="2.145433">
        <ele>100.731488</ele>
        <time>2025-02-12T14:35:05.755Z</time>
      </trkpt>
      <trkpt lat="48.770139" lon="2.145637">
        <ele>101.084867</ele>
        <time>2025-02-12T14:35:11.015Z</time>
      </trkpt>
      <trkpt lat="48.770227" lon="2.145808">
        <ele>101.377864</ele>
        <time>2025-02-12T14:35:15.724Z</time>
      </trkpt>
      <trkpt lat="48.770577" lon="2.146453">
        <ele>102.506189</ele>
        <time>2025-02-12T14:35:37.557Z</time>
      </trkpt>
      <trkpt lat="48.770590" lon="2.146477">
        <ele>102.548143</ele>
        <time>2025-02-12T14:35:38.463Z</time>
      </trkpt>
      <trkpt lat="48.770731" lon="2.146726">
        <ele>103.148686</ele>
        <time>2025-02-12T14:35:48.024Z</time>
      </trkpt>
      <trkpt lat="48.770831" lon="2.146899">
        <ele>103.878468</ele>
        <time>2025-02-12T14:35:55.055Z</time>
      </trkpt>
      <trkpt lat="48.770935" lon="2.147081">
        <ele>104.642412</ele>
        <time>2025-02-12T14:36:02.641Z</time>
      </trkpt>
      <trkpt lat="48.771031" lon="2.147232">
        <ele>105.307794</ele>
        <time>2025-02-12T14:36:09.321Z</time>
      </trkpt>
      <trkpt lat="48.771021" lon="2.147324">
        <ele>105.603507</ele>
        <time>2025-02-12T14:36:12.254Z</time>
      </trkpt>
      <trkpt lat="48.771121" lon="2.147331">
        <ele>106.085218</ele>
        <time>2025-02-12T14:36:17.100Z</time>
      </trkpt>
      <trkpt lat="48.771162" lon="2.147374">
        <ele>106.325054</ele>
        <time>2025-02-12T14:36:19.374Z</time>
      </trkpt>
      <trkpt lat="48.771606" lon="2.147645">
        <ele>108.627964</ele>
        <time>2025-02-12T14:36:41.703Z</time>
      </trkpt>
      <trkpt lat="48.772030" lon="2.147975">
        <ele>110.921006</ele>
        <time>2025-02-12T14:37:04.446Z</time>
      </trkpt>
      <trkpt lat="48.772202" lon="2.148074">
        <ele>111.725350</ele>
        <time>2025-02-12T14:37:13.438Z</time>
      </trkpt>
      <trkpt lat="48.772586" lon="2.148397">
        <ele>113.219647</ele>
        <time>2025-02-12T14:37:33.783Z</time>
      </trkpt>
      <trkpt lat="48.773274" lon="2.149122">
        <ele>116.070495</ele>
        <time>2025-02-12T14:38:07.706Z</time>
      </trkpt>
      <trkpt lat="48.773292" lon="2.149053">
        <ele>116.236945</ele>
        <time>2025-02-12T14:38:09.686Z</time>
      </trkpt>
      <trkpt lat="48.775491" lon="2.151360">
        <ele>121.558549</ele>
        <time>2025-02-12T14:39:27.484Z</time>
      </trkpt>
      <trkpt lat="48.776378" lon="2.152247">
        <ele>124.372932</ele>
        <time>2025-02-12T14:40:06.234Z</time>
      </trkpt>
      <trkpt lat="48.776625" lon="2.152538">
        <ele>125.240178</ele>
        <time>2025-02-12T14:40:19.292Z</time>
      </trkpt>
      <trkpt lat="48.778123" lon="2.154115">
        <ele>131.990208</ele>
        <time>2025-02-12T14:41:36.127Z</time>
      </trkpt>
      <trkpt lat="48.779841" lon="2.155882">
        <ele>136.969021</ele>
        <time>2025-02-12T14:42:46.754Z</time>
      </trkpt>
      <trkpt lat="48.780029" lon="2.156032">
        <ele>137.327204</ele>
        <time>2025-02-12T14:42:52.616Z</time>
      </trkpt>
      <trkpt lat="48.780327" lon="2.156211">
        <ele>137.867672</ele>
        <time>2025-02-12T14:43:02.050Z</time>
      </trkpt>
      <trkpt lat="48.780813" lon="2.156406">
        <ele>138.715403</ele>
        <time>2025-02-12T14:43:17.439Z</time>
      </trkpt>
      <trkpt lat="48.780919" lon="2.156416">
        <ele>138.894502</ele>
        <time>2025-02-12T14:43:20.673Z</time>
      </trkpt>
      <trkpt lat="48.781003" lon="2.156430">
        <ele>139.037007</ele>
        <time>2025-02-12T14:43:23.151Z</time>
      </trkpt>
      <trkpt lat="48.781120" lon="2.156446">
        <ele>139.235110</ele>
        <time>2025-02-12T14:43:26.651Z</time>
      </trkpt>
      <trkpt lat="48.781116" lon="2.156569">
        <ele>139.371955</ele>
        <time>2025-02-12T14:43:29.027Z</time>
      </trkpt>
      <trkpt lat="48.781108" lon="2.156666">
        <ele>139.488502</ele>
        <time>2025-02-12T14:43:30.927Z</time>
      </trkpt>
      <trkpt lat="48.781700" lon="2.156663">
        <ele>140.657345</ele>
        <time>2025-02-12T14:43:48.646Z</time>
      </trkpt>
      <trkpt lat="48.782208" lon="2.156486">
        <ele>141.686427</ele>
        <time>2025-02-12T14:44:06.189Z</time>
      </trkpt>
      <trkpt lat="48.782424" lon="2.156378">
        <ele>142.135443</ele>
        <time>2025-02-12T14:44:13.856Z</time>
      </trkpt>
      <trkpt lat="48.782638" lon="2.156252">
        <ele>142.588645</ele>
        <time>2025-02-12T14:44:21.576Z</time>
      </trkpt>
      <trkpt lat="48.784500" lon="2.154919">
        <ele>148.417111</ele>
        <time>2025-02-12T14:45:38.286Z</time>
      </trkpt>
      <trkpt lat="48.784704" lon="2.154752">
        <ele>149.370035</ele>
        <time>2025-02-12T14:45:48.145Z</time>
      </trkpt>
      <trkpt lat="48.785033" lon="2.154480">
        <ele>150.910306</ele>
        <time>2025-02-12T14:46:04.109Z</time>
      </trkpt>
      <trkpt lat="48.785035" lon="2.154576">
        <ele>151.170486</ele>
        <time>2025-02-12T14:46:06.858Z</time>
      </trkpt>
      <trkpt lat="48.785004" lon="2.154715">
        <ele>151.568002</ele>
        <time>2025-02-12T14:46:11.028Z</time>
      </trkpt>
      <trkpt lat="48.784874" lon="2.154947">
        <ele>152.392992</ele>
        <time>2025-02-12T14:46:19.642Z</time>
      </trkpt>
      <trkpt lat="48.784728" lon="2.155283">
        <ele>153.483277</ele>
        <time>2025-02-12T14:46:31.077Z</time>
      </trkpt>
      <trkpt lat="48.784399" lon="2.156043">
        <ele>155.902606</ele>
        <time>2025-02-12T14:47:00.117Z</time>
      </trkpt>
      <trkpt lat="48.783252" lon="2.158446">
        <ele>162.712253</ele>
        <time>2025-02-12T14:48:18.003Z</time>
      </trkpt>
      <trkpt lat="48.783095" lon="2.158736">
        <ele>163.319247</ele>
        <time>2025-02-12T14:48:25.531Z</time>
      </trkpt>
      <trkpt lat="48.782506" lon="2.159594">
        <ele>165.323055</ele>
        <time>2025-02-12T14:48:50.788Z</time>
      </trkpt>
      <trkpt lat="48.782384" lon="2.159956">
        <ele>165.980629</ele>
        <time>2025-02-12T14:48:59.788Z</time>
      </trkpt>
      <trkpt lat="48.782236" lon="2.160834">
        <ele>167.947337</ele>
        <time>2025-02-12T14:49:22.518Z</time>
      </trkpt>
      <trkpt lat="48.782023" lon="2.161403">
        <ele>169.576341</ele>
        <time>2025-02-12T14:49:41.045Z</time>
      </trkpt>
      <trkpt lat="48.781786" lon="2.162289">
        <ele>171.956646</ele>
        <time>2025-02-12T14:50:09.249Z</time>
      </trkpt>
      <trkpt lat="48.781694" lon="2.162481">
        <ele>172.547598</ele>
        <time>2025-02-12T14:50:16.058Z</time>
      </trkpt>
      <trkpt lat="48.781502" lon="2.162627">
        <ele>173.337955</ele>
        <time>2025-02-12T14:50:25.065Z</time>
      </trkpt>
      <trkpt lat="48.781494" lon="2.162632">
        <ele>173.356069</ele>
        <time>2025-02-12T14:50:25.458Z</time>
      </trkpt>
      <trkpt lat="48.781417" lon="2.162680">
        <ele>173.530343</ele>
        <time>2025-02-12T14:50:28.863Z</time>
      </trkpt>
      <trkpt lat="48.781275" lon="2.162768">
        <ele>173.851459</ele>
        <time>2025-02-12T14:50:34.846Z</time>
      </trkpt>
      <trkpt lat="48.781236" lon="2.163993">
        <ele>175.543343</ele>
        <time>2025-02-12T14:51:14.688Z</time>
      </trkpt>
      <trkpt lat="48.781233" lon="2.164107">
        <ele>175.700734</ele>
        <time>2025-02-12T14:51:18.254Z</time>
      </trkpt>
      <trkpt lat="48.781285" lon="2.164297">
        <ele>175.984552</ele>
        <time>2025-02-12T14:51:24.509Z</time>
      </trkpt>
      <trkpt lat="48.781371" lon="2.164356">
        <ele>176.182141</ele>
        <time>2025-02-12T14:51:28.680Z</time>
      </trkpt>
      <trkpt lat="48.781807" lon="2.164421">
        <ele>177.071558</ele>
        <time>2025-02-12T14:51:47.250Z</time>
      </trkpt>
      <trkpt lat="48.782206" lon="2.164556">
        <ele>176.838583</ele>
        <time>2025-02-12T14:52:02.067Z</time>
      </trkpt>
      <trkpt lat="48.782351" lon="2.164601">
        <ele>176.754237</ele>
        <time>2025-02-12T14:52:07.097Z</time>
      </trkpt>
      <trkpt lat="48.782637" lon="2.164700">
        <ele>176.587058</ele>
        <time>2025-02-12T14:52:16.943Z</time>
      </trkpt>
      <trkpt lat="48.782720" lon="2.163445">
        <ele>176.113413</ele>
        <time>2025-02-12T14:52:35.681Z</time>
      </trkpt>
      <trkpt lat="48.782802" lon="2.163100">
        <ele>175.989873</ele>
        <time>2025-02-12T14:52:41.370Z</time>
      </trkpt>
      <trkpt lat="48.782941" lon="2.162635">
        <ele>175.833563</ele>
        <time>2025-02-12T14:52:49.167Z</time>
      </trkpt>
      <trkpt lat="48.782955" lon="2.162589">
        <ele>175.818052</ele>
        <time>2025-02-12T14:52:49.966Z</time>
      </trkpt>
      <trkpt lat="48.783083" lon="2.162742">
        <ele>175.742355</ele>
        <time>2025-02-12T14:52:55.900Z</time>
      </trkpt>
      <trkpt lat="48.783315" lon="2.163021">
        <ele>175.604835</ele>
        <time>2025-02-12T14:53:06.874Z</time>
      </trkpt>
      <trkpt lat="48.783619" lon="2.163328">
        <ele>175.435192</ele>
        <time>2025-02-12T14:53:20.808Z</time>
      </trkpt>
      <trkpt lat="48.784591" lon="2.163964">
        <ele>174.054117</ele>
        <time>2025-02-12T14:53:57.330Z</time>
      </trkpt>
      <trkpt lat="48.785167" lon="2.164341">
        <ele>172.814700</ele>
        <time>2025-02-12T14:54:17.699Z</time>
      </trkpt>
      <trkpt lat="48.785392" lon="2.164425">
        <ele>172.356879</ele>
        <time>2025-02-12T14:54:24.946Z</time>
      </trkpt>
      <trkpt lat="48.785534" lon="2.164449">
        <ele>172.074572</ele>
        <time>2025-02-12T14:54:29.345Z</time>
      </trkpt>
      <trkpt lat="48.785846" lon="2.164406">
        <ele>171.460452</ele>
        <time>2025-02-12T14:54:38.976Z</time>
      </trkpt>
      <trkpt lat="48.786018" lon="2.164434">
        <ele>171.126707</ele>
        <time>2025-02-12T14:54:44.333Z</time>
      </trkpt>
      <trkpt lat="48.786232" lon="2.164627">
        <ele>170.646442</ele>
        <time>2025-02-12T14:54:52.114Z</time>
      </trkpt>
      <trkpt lat="48.786620" lon="2.164863">
        <ele>169.839993</ele>
        <time>2025-02-12T14:55:05.487Z</time>
      </trkpt>
      <trkpt lat="48.786748" lon="2.165217">
        <ele>169.326694</ele>
        <time>2025-02-12T14:55:14.056Z</time>
      </trkpt>
      <trkpt lat="48.787059" lon="2.166397">
        <ele>168.220062</ele>
        <time>2025-02-12T14:55:42.490Z</time>
      </trkpt>
      <trkpt lat="48.787151" lon="2.166547">
        <ele>168.234806</ele>
        <time>2025-02-12T14:55:48.497Z</time>
      </trkpt>
      <trkpt lat="48.787478" lon="2.166775">
        <ele>168.274101</ele>
        <time>2025-02-12T14:56:05.681Z</time>
      </trkpt>
      <trkpt lat="48.787551" lon="2.166891">
        <ele>168.285642</ele>
        <time>2025-02-12T14:56:10.948Z</time>
      </trkpt>
      <trkpt lat="48.787659" lon="2.167448">
        <ele>168.327414</ele>
        <time>2025-02-12T14:56:27.361Z</time>
      </trkpt>
      <trkpt lat="48.787937" lon="2.168173">
        <ele>168.387764</ele>
        <time>2025-02-12T14:56:46.531Z</time>
      </trkpt>
      <trkpt lat="48.788078" lon="2.168316">
        <ele>168.020461</ele>
        <time>2025-02-12T14:56:52.359Z</time>
      </trkpt>
      <trkpt lat="48.788156" lon="2.168357">
        <ele>167.825786</ele>
        <time>2025-02-12T14:56:55.110Z</time>
      </trkpt>
      <trkpt lat="48.788274" lon="2.168363">
        <ele>167.547338</ele>
        <time>2025-02-12T14:56:58.983Z</time>
      </trkpt>
      <trkpt lat="48.788491" lon="2.168271">
        <ele>167.015975</ele>
        <time>2025-02-12T14:57:06.187Z</time>
      </trkpt>
      <trkpt lat="48.788606" lon="2.168140">
        <ele>166.676872</ele>
        <time>2025-02-12T14:57:10.624Z</time>
      </trkpt>
      <trkpt lat="48.788810" lon="2.167882">
        <ele>166.050632</ele>
        <time>2025-02-12T14:57:18.551Z</time>
      </trkpt>
      <trkpt lat="48.789119" lon="2.167630">
        <ele>165.223354</ele>
        <time>2025-02-12T14:57:28.748Z</time>
      </trkpt>
      <trkpt lat="48.789729" lon="2.167480">
        <ele>164.370347</ele>
        <time>2025-02-12T14:57:48.806Z</time>
      </trkpt>
      <trkpt lat="48.790088" lon="2.167599">
        <ele>164.877318</ele>
        <time>2025-02-12T14:58:03.800Z</time>
      </trkpt>
      <trkpt lat="48.790326" lon="2.167730">
        <ele>165.226599</ele>
        <time>2025-02-12T14:58:15.296Z</time>
      </trkpt>
      <trkpt lat="48.790646" lon="2.168010">
        <ele>165.736193</ele>
        <time>2025-02-12T14:58:33.332Z</time>
      </trkpt>
      <trkpt lat="48.791084" lon="2.168597">
        <ele>166.542317</ele>
        <time>2025-02-12T14:59:04.002Z</time>
      </trkpt>
      <trkpt lat="48.791430" lon="2.170090">
        <ele>168.739241</ele>
        <time>2025-02-12T14:59:55.510Z</time>
      </trkpt>
      <trkpt lat="48.791016" lon="2.171689">
        <ele>170.915448</ele>
        <time>2025-02-12T15:00:47.022Z</time>
      </trkpt>
      <trkpt lat="48.790756" lon="2.172774">
        <ele>171.918955</ele>
        <time>2025-02-12T15:01:20.568Z</time>
      </trkpt>
      <trkpt lat="48.790549" lon="2.173667">
        <ele>172.741780</ele>
        <time>2025-02-12T15:01:47.077Z</time>
      </trkpt>
      <trkpt lat="48.790331" lon="2.174589">
        <ele>173.013477</ele>
        <time>2025-02-12T15:02:14.242Z</time>
      </trkpt>
      <trkpt lat="48.790086" lon="2.174836">
        <ele>173.088203</ele>
        <time>2025-02-12T15:02:22.280Z</time>
      </trkpt>
      <trkpt lat="48.789778" lon="2.175174">
        <ele>173.184767</ele>
        <time>2025-02-12T15:02:31.935Z</time>
      </trkpt>
      <trkpt lat="48.789624" lon="2.175333">
        <ele>173.232087</ele>
        <time>2025-02-12T15:02:36.433Z</time>
      </trkpt>
      <trkpt lat="48.789522" lon="2.175639">
        <ele>173.289491</ele>
        <time>2025-02-12T15:02:41.785Z</time>
      </trkpt>
      <trkpt lat="48.788423" lon="2.178754">
        <ele>171.978937</ele>
        <time>2025-02-12T15:03:35.189Z</time>
      </trkpt>
      <trkpt lat="48.788381" lon="2.178944">
        <ele>171.900813</ele>
        <time>2025-02-12T15:03:38.428Z</time>
      </trkpt>
      <trkpt lat="48.788441" lon="2.178949">
        <ele>171.865259</ele>
        <time>2025-02-12T15:03:39.711Z</time>
      </trkpt>
      <trkpt lat="48.788461" lon="2.179001">
        <ele>171.841787</ele>
        <time>2025-02-12T15:03:40.563Z</time>
      </trkpt>
      <trkpt lat="48.788451" lon="2.179014">
        <ele>171.833997</ele>
        <time>2025-02-12T15:03:40.847Z</time>
      </trkpt>
      <trkpt lat="48.788440" lon="2.179090">
        <ele>171.803664</ele>
        <time>2025-02-12T15:03:41.975Z</time>
      </trkpt>
      <trkpt lat="48.788420" lon="2.179225">
        <ele>171.749723</ele>
        <time>2025-02-12T15:03:43.894Z</time>
      </trkpt>
      <trkpt lat="48.788377" lon="2.179450">
        <ele>171.658398</ele>
        <time>2025-02-12T15:03:47.142Z</time>
      </trkpt>
      <trkpt lat="48.788355" lon="2.179624">
        <ele>171.589331</ele>
        <time>2025-02-12T15:03:49.576Z</time>
      </trkpt>
      <trkpt lat="48.788363" lon="2.179695">
        <ele>171.561251</ele>
        <time>2025-02-12T15:03:50.548Z</time>
      </trkpt>
      <trkpt lat="48.788304" lon="2.179752">
        <ele>171.519871</ele>
        <time>2025-02-12T15:03:51.995Z</time>
      </trkpt>
      <trkpt lat="48.788239" lon="2.179900">
        <ele>171.450533</ele>
        <time>2025-02-12T15:03:54.384Z</time>
      </trkpt>
      <trkpt lat="48.788323" lon="2.180094">
        <ele>171.360037</ele>
        <time>2025-02-12T15:03:59.707Z</time>
      </trkpt>
      <trkpt lat="48.788409" lon="2.180206">
        <ele>171.292989</ele>
        <time>2025-02-12T15:04:03.630Z</time>
      </trkpt>
      <trkpt lat="48.788613" lon="2.180246">
        <ele>171.171284</ele>
        <time>2025-02-12T15:04:10.845Z</time>
      </trkpt>
      <trkpt lat="48.789299" lon="2.180696">
        <ele>171.099130</ele>
        <time>2025-02-12T15:04:37.094Z</time>
      </trkpt>
      <trkpt lat="48.789684" lon="2.181010">
        <ele>171.080111</ele>
        <time>2025-02-12T15:04:52.732Z</time>
      </trkpt>
      <trkpt lat="48.790116" lon="2.181506">
        <ele>171.056541</ele>
        <time>2025-02-12T15:05:14.246Z</time>
      </trkpt>
      <trkpt lat="48.790116" lon="2.181506">
        <ele>171.056541</ele>
        <time>2025-02-12T15:05:14.252Z</time>
      </trkpt>
      <trkpt lat="48.791083" lon="2.182946">
        <ele>172.328092</ele>
        <time>2025-02-12T15:06:13.773Z</time>
      </trkpt>
      <trkpt lat="48.789027" lon="2.186298">
        <ele>174.757296</ele>
        <time>2025-02-12T15:07:33.482Z</time>
      </trkpt>
      <trkpt lat="48.788359" lon="2.187341">
        <ele>175.733177</ele>
        <time>2025-02-12T15:08:01.525Z</time>
      </trkpt>
      <trkpt lat="48.787931" lon="2.188026">
        <ele>176.325021</ele>
        <time>2025-02-12T15:08:19.823Z</time>
      </trkpt>
      <trkpt lat="48.786921" lon="2.189707">
        <ele>177.551867</ele>
        <time>2025-02-12T15:09:01.153Z</time>
      </trkpt>
      <trkpt lat="48.786524" lon="2.190273">
        <ele>177.328857</ele>
        <time>2025-02-12T15:09:14.982Z</time>
      </trkpt>
      <trkpt lat="48.785777" lon="2.191530">
        <ele>176.872210</ele>
        <time>2025-02-12T15:09:38.410Z</time>
      </trkpt>
      <trkpt lat="48.785332" lon="2.192226">
        <ele>176.192444</ele>
        <time>2025-02-12T15:09:59.567Z</time>
      </trkpt>
      <trkpt lat="48.785264" lon="2.192337">
        <ele>176.083334</ele>
        <time>2025-02-12T15:10:02.906Z</time>
      </trkpt>
      <trkpt lat="48.784988" lon="2.192785">
        <ele>175.641804</ele>
        <time>2025-02-12T15:10:16.443Z</time>
      </trkpt>
      <trkpt lat="48.783983" lon="2.194417">
        <ele>175.115031</ele>
        <time>2025-02-12T15:11:08.566Z</time>
      </trkpt>
      <trkpt lat="48.783257" lon="2.195597">
        <ele>175.416276</ele>
        <time>2025-02-12T15:11:53.052Z</time>
      </trkpt>
      <trkpt lat="48.782917" lon="2.196159">
        <ele>175.611608</ele>
        <time>2025-02-12T15:12:14.584Z</time>
      </trkpt>
      <trkpt lat="48.782728" lon="2.196467">
        <ele>175.719361</ele>
        <time>2025-02-12T15:12:26.441Z</time>
      </trkpt>
      <trkpt lat="48.782553" lon="2.196782">
        <ele>175.824847</ele>
        <time>2025-02-12T15:12:37.836Z</time>
      </trkpt>
      <trkpt lat="48.782535" lon="2.197503">
        <ele>176.009571</ele>
        <time>2025-02-12T15:12:55.772Z</time>
      </trkpt>
      <trkpt lat="48.782548" lon="2.197746">
        <ele>176.071989</ele>
        <time>2025-02-12T15:13:01.300Z</time>
      </trkpt>
      <trkpt lat="48.782605" lon="2.197996">
        <ele>175.989480</ele>
        <time>2025-02-12T15:13:07.179Z</time>
      </trkpt>
      <trkpt lat="48.782695" lon="2.198212">
        <ele>175.839840</ele>
        <time>2025-02-12T15:13:12.771Z</time>
      </trkpt>
      <trkpt lat="48.782800" lon="2.198603">
        <ele>175.592613</ele>
        <time>2025-02-12T15:13:18.105Z</time>
      </trkpt>
      <trkpt lat="48.783090" lon="2.199738">
        <ele>174.879822</ele>
        <time>2025-02-12T15:13:33.610Z</time>
      </trkpt>
      <trkpt lat="48.783521" lon="2.201336">
        <ele>174.424893</ele>
        <time>2025-02-12T15:13:58.426Z</time>
      </trkpt>
      <trkpt lat="48.783682" lon="2.201935">
        <ele>174.382117</ele>
        <time>2025-02-12T15:14:08.991Z</time>
      </trkpt>
      <trkpt lat="48.784234" lon="2.204111">
        <ele>173.707558</ele>
        <time>2025-02-12T15:14:41.879Z</time>
      </trkpt>
      <trkpt lat="48.784705" lon="2.205970">
        <ele>172.779485</ele>
        <time>2025-02-12T15:15:07.651Z</time>
      </trkpt>
      <trkpt lat="48.784785" lon="2.206144">
        <ele>172.677800</ele>
        <time>2025-02-12T15:15:10.464Z</time>
      </trkpt>
      <trkpt lat="48.784905" lon="2.206341">
        <ele>172.549222</ele>
        <time>2025-02-12T15:15:14.071Z</time>
      </trkpt>
      <trkpt lat="48.785158" lon="2.206563">
        <ele>172.336657</ele>
        <time>2025-02-12T15:15:20.081Z</time>
      </trkpt>
      <trkpt lat="48.785800" lon="2.207057">
        <ele>171.813103</ele>
        <time>2025-02-12T15:15:35.164Z</time>
      </trkpt>
      <trkpt lat="48.786030" lon="2.207259">
        <ele>171.764872</ele>
        <time>2025-02-12T15:15:40.696Z</time>
      </trkpt>
      <trkpt lat="48.786268" lon="2.207454">
        <ele>171.787565</ele>
        <time>2025-02-12T15:15:47.033Z</time>
      </trkpt>
      <trkpt lat="48.786623" lon="2.207766">
        <ele>171.821986</ele>
        <time>2025-02-12T15:15:57.052Z</time>
      </trkpt>
      <trkpt lat="48.787204" lon="2.208251">
        <ele>171.877622</ele>
        <time>2025-02-12T15:16:14.885Z</time>
      </trkpt>
      <trkpt lat="48.787647" lon="2.208600">
        <ele>171.851437</ele>
        <time>2025-02-12T15:16:29.206Z</time>
      </trkpt>
      <trkpt lat="48.791205" lon="2.211593">
        <ele>169.407041</ele>
        <time>2025-02-12T15:18:05.008Z</time>
      </trkpt>
      <trkpt lat="48.791967" lon="2.211120">
        <ele>167.903846</ele>
        <time>2025-02-12T15:18:18.990Z</time>
      </trkpt>
      <trkpt lat="48.792031" lon="2.211078">
        <ele>167.776534</ele>
        <time>2025-02-12T15:18:20.195Z</time>
      </trkpt>
      <trkpt lat="48.792078" lon="2.211048">
        <ele>167.683437</ele>
        <time>2025-02-12T15:18:21.053Z</time>
      </trkpt>
      <trkpt lat="48.793269" lon="2.210274">
        <ele>166.792005</ele>
        <time>2025-02-12T15:18:46.116Z</time>
      </trkpt>
      <trkpt lat="48.793825" lon="2.209912">
        <ele>166.473452</ele>
        <time>2025-02-12T15:19:02.761Z</time>
      </trkpt>
      <trkpt lat="48.795282" lon="2.211292">
        <ele>168.914041</ele>
        <time>2025-02-12T15:19:54.380Z</time>
      </trkpt>
      <trkpt lat="48.795566" lon="2.211574">
        <ele>169.377558</ele>
        <time>2025-02-12T15:20:04.840Z</time>
      </trkpt>
      <trkpt lat="48.795795" lon="2.211796">
        <ele>169.724748</ele>
        <time>2025-02-12T15:20:12.901Z</time>
      </trkpt>
      <trkpt lat="48.796159" lon="2.212146">
        <ele>170.275315</ele>
        <time>2025-02-12T15:20:25.070Z</time>
      </trkpt>
      <trkpt lat="48.796426" lon="2.212404">
        <ele>170.679736</ele>
        <time>2025-02-12T15:20:38.723Z</time>
      </trkpt>
      <trkpt lat="48.796928" lon="2.212889">
        <ele>171.419576</ele>
        <time>2025-02-12T15:21:04.573Z</time>
      </trkpt>
      <trkpt lat="48.797622" lon="2.213559">
        <ele>171.301046</ele>
        <time>2025-02-12T15:21:37.795Z</time>
      </trkpt>
      <trkpt lat="48.798315" lon="2.214241">
        <ele>171.182022</ele>
        <time>2025-02-12T15:21:55.597Z</time>
      </trkpt>
      <trkpt lat="48.798739" lon="2.214637">
        <ele>169.974148</ele>
        <time>2025-02-12T15:22:04.581Z</time>
      </trkpt>
      <trkpt lat="48.798787" lon="2.214682">
        <ele>169.788915</ele>
        <time>2025-02-12T15:22:05.575Z</time>
      </trkpt>
      <trkpt lat="48.798279" lon="2.215884">
        <ele>166.700148</ele>
        <time>2025-02-12T15:22:21.236Z</time>
      </trkpt>
      <trkpt lat="48.798214" lon="2.216379">
        <ele>165.608490</ele>
        <time>2025-02-12T15:22:26.576Z</time>
      </trkpt>
      <trkpt lat="48.798188" lon="2.216794">
        <ele>164.928232</ele>
        <time>2025-02-12T15:22:30.997Z</time>
      </trkpt>
      <trkpt lat="48.798037" lon="2.218565">
        <ele>162.620668</ele>
        <time>2025-02-12T15:22:51.219Z</time>
      </trkpt>
      <trkpt lat="48.798226" lon="2.218738">
        <ele>162.187728</ele>
        <time>2025-02-12T15:22:56.319Z</time>
      </trkpt>
      <trkpt lat="48.798434" lon="2.218875">
        <ele>161.742948</ele>
        <time>2025-02-12T15:23:02.870Z</time>
      </trkpt>
      <trkpt lat="48.798675" lon="2.219012">
        <ele>162.614167</ele>
        <time>2025-02-12T15:23:15.571Z</time>
      </trkpt>
      <trkpt lat="48.798893" lon="2.219200">
        <ele>163.502746</ele>
        <time>2025-02-12T15:23:29.601Z</time>
      </trkpt>
      <trkpt lat="48.799165" lon="2.219387">
        <ele>164.560994</ele>
        <time>2025-02-12T15:23:47.672Z</time>
      </trkpt>
      <trkpt lat="48.799871" lon="2.219883">
        <ele>167.318090</ele>
        <time>2025-02-12T15:24:36.645Z</time>
      </trkpt>
      <trkpt lat="48.801443" lon="2.220717">
        <ele>171.093871</ele>
        <time>2025-02-12T15:25:58.722Z</time>
      </trkpt>
      <trkpt lat="48.801727" lon="2.220948">
        <ele>171.761315</ele>
        <time>2025-02-12T15:26:11.714Z</time>
      </trkpt>
      <trkpt lat="48.802938" lon="2.220051">
        <ele>171.220054</ele>
        <time>2025-02-12T15:27:00.295Z</time>
      </trkpt>
      <trkpt lat="48.803150" lon="2.219891">
        <ele>171.110385</ele>
        <time>2025-02-12T15:27:08.402Z</time>
      </trkpt>
      <trkpt lat="48.803624" lon="2.219538">
        <ele>170.716804</ele>
        <time>2025-02-12T15:27:26.095Z</time>
      </trkpt>
      <trkpt lat="48.803692" lon="2.219473">
        <ele>170.636935</ele>
        <time>2025-02-12T15:27:28.773Z</time>
      </trkpt>
      <trkpt lat="48.804478" lon="2.220246">
        <ele>169.706115</ele>
        <time>2025-02-12T15:27:46.858Z</time>
      </trkpt>
      <trkpt lat="48.806643" lon="2.222353">
        <ele>168.365948</ele>
        <time>2025-02-12T15:28:42.149Z</time>
      </trkpt>
      <trkpt lat="48.806974" lon="2.222650">
        <ele>167.987832</ele>
        <time>2025-02-12T15:28:50.038Z</time>
      </trkpt>
      <trkpt lat="48.808227" lon="2.223867">
        <ele>166.436901</ele>
        <time>2025-02-12T15:29:18.757Z</time>
      </trkpt>
      <trkpt lat="48.809369" lon="2.224940">
        <ele>164.773306</ele>
        <time>2025-02-12T15:29:44.754Z</time>
      </trkpt>
      <trkpt lat="48.809813" lon="2.225414">
        <ele>164.221693</ele>
        <time>2025-02-12T15:29:55.759Z</time>
      </trkpt>
      <trkpt lat="48.809852" lon="2.225594">
        <ele>164.101963</ele>
        <time>2025-02-12T15:29:58.340Z</time>
      </trkpt>
      <trkpt lat="48.809909" lon="2.226155">
        <ele>163.743303</ele>
        <time>2025-02-12T15:30:06.164Z</time>
      </trkpt>
      <trkpt lat="48.810006" lon="2.227148">
        <ele>163.109014</ele>
        <time>2025-02-12T15:30:19.723Z</time>
      </trkpt>
      <trkpt lat="48.810069" lon="2.227761">
        <ele>162.151764</ele>
        <time>2025-02-12T15:30:27.645Z</time>
      </trkpt>
      <trkpt lat="48.810080" lon="2.227879">
        <ele>161.856706</ele>
        <time>2025-02-12T15:30:29.093Z</time>
      </trkpt>
      <trkpt lat="48.810215" lon="2.229188">
        <ele>158.576378</ele>
        <time>2025-02-12T15:30:43.848Z</time>
      </trkpt>
      <trkpt lat="48.810305" lon="2.230068">
        <ele>156.371559</ele>
        <time>2025-02-12T15:30:53.047Z</time>
      </trkpt>
      <trkpt lat="48.810348" lon="2.230233">
        <ele>155.807963</ele>
        <time>2025-02-12T15:30:54.859Z</time>
      </trkpt>
      <trkpt lat="48.810459" lon="2.230265">
        <ele>155.139479</ele>
        <time>2025-02-12T15:30:56.581Z</time>
      </trkpt>
      <trkpt lat="48.811850" lon="2.230096">
        <ele>146.883064</ele>
        <time>2025-02-12T15:31:17.998Z</time>
      </trkpt>
      <trkpt lat="48.811930" lon="2.230189">
        <ele>146.286952</ele>
        <time>2025-02-12T15:31:19.559Z</time>
      </trkpt>
      <trkpt lat="48.812113" lon="2.230094">
        <ele>145.139673</ele>
        <time>2025-02-12T15:31:22.586Z</time>
      </trkpt>
      <trkpt lat="48.812432" lon="2.230012">
        <ele>143.209616</ele>
        <time>2025-02-12T15:31:27.599Z</time>
      </trkpt>
      <trkpt lat="48.812779" lon="2.229900">
        <ele>141.093355</ele>
        <time>2025-02-12T15:31:33.057Z</time>
      </trkpt>
      <trkpt lat="48.812951" lon="2.229832">
        <ele>140.033091</ele>
        <time>2025-02-12T15:31:35.794Z</time>
      </trkpt>
      <trkpt lat="48.813857" lon="2.229138">
        <ele>133.957788</ele>
        <time>2025-02-12T15:31:51.387Z</time>
      </trkpt>
      <trkpt lat="48.813867" lon="2.229129">
        <ele>133.886537</ele>
        <time>2025-02-12T15:31:51.574Z</time>
      </trkpt>
      <trkpt lat="48.815288" lon="2.228051">
        <ele>124.150297</ele>
        <time>2025-02-12T15:32:16.102Z</time>
      </trkpt>
      <trkpt lat="48.815366" lon="2.227990">
        <ele>123.602214</ele>
        <time>2025-02-12T15:32:17.421Z</time>
      </trkpt>
      <trkpt lat="48.815650" lon="2.227768">
        <ele>121.499945</ele>
        <time>2025-02-12T15:32:22.160Z</time>
      </trkpt>
      <trkpt lat="48.816068" lon="2.227509">
        <ele>118.528644</ele>
        <time>2025-02-12T15:32:28.823Z</time>
      </trkpt>
      <trkpt lat="48.816088" lon="2.227496">
        <ele>118.385461</ele>
        <time>2025-02-12T15:32:29.161Z</time>
      </trkpt>
      <trkpt lat="48.816347" lon="2.227336">
        <ele>116.545181</ele>
        <time>2025-02-12T15:32:33.337Z</time>
      </trkpt>
      <trkpt lat="48.816454" lon="2.227270">
        <ele>115.785075</ele>
        <time>2025-02-12T15:32:35.103Z</time>
      </trkpt>
      <trkpt lat="48.816545" lon="2.227211">
        <ele>115.133848</ele>
        <time>2025-02-12T15:32:36.613Z</time>
      </trkpt>
      <trkpt lat="48.816627" lon="2.227112">
        <ele>114.444391</ele>
        <time>2025-02-12T15:32:38.227Z</time>
      </trkpt>
      <trkpt lat="48.816660" lon="2.227203">
        <ele>113.994161</ele>
        <time>2025-02-12T15:32:39.305Z</time>
      </trkpt>
      <trkpt lat="48.816759" lon="2.227456">
        <ele>112.718713</ele>
        <time>2025-02-12T15:32:42.297Z</time>
      </trkpt>
      <trkpt lat="48.816805" lon="2.227565">
        <ele>112.157636</ele>
        <time>2025-02-12T15:32:43.619Z</time>
      </trkpt>
      <trkpt lat="48.816856" lon="2.227684">
        <ele>111.670606</ele>
        <time>2025-02-12T15:32:45.065Z</time>
      </trkpt>
      <trkpt lat="48.816985" lon="2.227990">
        <ele>110.638998</ele>
        <time>2025-02-12T15:32:48.771Z</time>
      </trkpt>
      <trkpt lat="48.817251" lon="2.228634">
        <ele>108.480580</ele>
        <time>2025-02-12T15:32:56.886Z</time>
      </trkpt>
      <trkpt lat="48.817384" lon="2.229014">
        <ele>107.258737</ele>
        <time>2025-02-12T15:33:01.750Z</time>
      </trkpt>
      <trkpt lat="48.817495" lon="2.229476">
        <ele>105.862435</ele>
        <time>2025-02-12T15:33:07.268Z</time>
      </trkpt>
      <trkpt lat="48.817511" lon="2.229586">
        <ele>105.542594</ele>
        <time>2025-02-12T15:33:08.509Z</time>
      </trkpt>
      <trkpt lat="48.817572" lon="2.229761">
        <ele>104.980410</ele>
        <time>2025-02-12T15:33:10.681Z</time>
      </trkpt>
      <trkpt lat="48.817740" lon="2.230046">
        <ele>103.913850</ele>
        <time>2025-02-12T15:33:14.785Z</time>
      </trkpt>
      <trkpt lat="48.817755" lon="2.230100">
        <ele>103.759712</ele>
        <time>2025-02-12T15:33:15.413Z</time>
      </trkpt>
      <trkpt lat="48.817827" lon="2.230168">
        <ele>103.421064</ele>
        <time>2025-02-12T15:33:16.783Z</time>
      </trkpt>
      <trkpt lat="48.817870" lon="2.230162">
        <ele>103.248593</ele>
        <time>2025-02-12T15:33:17.474Z</time>
      </trkpt>
      <trkpt lat="48.817908" lon="2.230131">
        <ele>103.076306</ele>
        <time>2025-02-12T15:33:18.173Z</time>
      </trkpt>
      <trkpt lat="48.817942" lon="2.230047">
        <ele>102.816989</ele>
        <time>2025-02-12T15:33:19.220Z</time>
      </trkpt>
      <trkpt lat="48.818079" lon="2.229868">
        <ele>102.095160</ele>
        <time>2025-02-12T15:33:22.153Z</time>
      </trkpt>
      <trkpt lat="48.818260" lon="2.229600">
        <ele>101.085502</ele>
        <time>2025-02-12T15:33:26.262Z</time>
      </trkpt>
      <trkpt lat="48.818614" lon="2.229516">
        <ele>99.654429</ele>
        <time>2025-02-12T15:33:32.178Z</time>
      </trkpt>
      <trkpt lat="48.818855" lon="2.229459">
        <ele>98.680243</ele>
        <time>2025-02-12T15:33:36.204Z</time>
      </trkpt>
      <trkpt lat="48.818941" lon="2.229442">
        <ele>98.333851</ele>
        <time>2025-02-12T15:33:37.643Z</time>
      </trkpt>
      <trkpt lat="48.819208" lon="2.229376">
        <ele>97.253388</ele>
        <time>2025-02-12T15:33:42.095Z</time>
      </trkpt>
      <trkpt lat="48.819303" lon="2.229353">
        <ele>96.898210</ele>
        <time>2025-02-12T15:33:43.679Z</time>
      </trkpt>
      <trkpt lat="48.819390" lon="2.229333">
        <ele>96.643398</ele>
        <time>2025-02-12T15:33:45.137Z</time>
      </trkpt>
      <trkpt lat="48.820102" lon="2.229139">
        <ele>94.548603</ele>
        <time>2025-02-12T15:33:57.505Z</time>
      </trkpt>
      <trkpt lat="48.820239" lon="2.228986">
        <ele>94.056153</ele>
        <time>2025-02-12T15:34:00.502Z</time>
      </trkpt>
      <trkpt lat="48.820268" lon="2.228942">
        <ele>93.937446</ele>
        <time>2025-02-12T15:34:01.209Z</time>
      </trkpt>
      <trkpt lat="48.820836" lon="2.228108">
        <ele>91.694960</ele>
        <time>2025-02-12T15:34:15.278Z</time>
      </trkpt>
      <trkpt lat="48.821120" lon="2.227698">
        <ele>91.002002</ele>
        <time>2025-02-12T15:34:22.532Z</time>
      </trkpt>
      <trkpt lat="48.821155" lon="2.227649">
        <ele>90.917819</ele>
        <time>2025-02-12T15:34:23.421Z</time>
      </trkpt>
      <trkpt lat="48.821390" lon="2.227307">
        <ele>90.342220</ele>
        <time>2025-02-12T15:34:29.637Z</time>
      </trkpt>
      <trkpt lat="48.821476" lon="2.227175">
        <ele>90.125987</ele>
        <time>2025-02-12T15:34:31.966Z</time>
      </trkpt>
      <trkpt lat="48.822104" lon="2.226264">
        <ele>88.590165</ele>
        <time>2025-02-12T15:34:48.232Z</time>
      </trkpt>
      <trkpt lat="48.822524" lon="2.225651">
        <ele>87.171865</ele>
        <time>2025-02-12T15:34:59.186Z</time>
      </trkpt>
      <trkpt lat="48.822702" lon="2.225415">
        <ele>86.595788</ele>
        <time>2025-02-12T15:35:03.449Z</time>
      </trkpt>
      <trkpt lat="48.822811" lon="2.225240">
        <ele>86.209082</ele>
        <time>2025-02-12T15:35:06.249Z</time>
      </trkpt>
      <trkpt lat="48.822868" lon="2.225150">
        <ele>86.008618</ele>
        <time>2025-02-12T15:35:07.689Z</time>
      </trkpt>
      <trkpt lat="48.822922" lon="2.225069">
        <ele>85.823576</ele>
        <time>2025-02-12T15:35:09.014Z</time>
      </trkpt>
      <trkpt lat="48.823124" lon="2.224773">
        <ele>85.139231</ele>
        <time>2025-02-12T15:35:13.849Z</time>
      </trkpt>
      <trkpt lat="48.823233" lon="2.224522">
        <ele>84.656565</ele>
        <time>2025-02-12T15:35:17.237Z</time>
      </trkpt>
      <trkpt lat="48.823299" lon="2.224155">
        <ele>83.881934</ele>
        <time>2025-02-12T15:35:21.582Z</time>
      </trkpt>
      <trkpt lat="48.823294" lon="2.223923">
        <ele>83.112665</ele>
        <time>2025-02-12T15:35:24.267Z</time>
      </trkpt>
      <trkpt lat="48.823253" lon="2.223628">
        <ele>82.113477</ele>
        <time>2025-02-12T15:35:27.724Z</time>
      </trkpt>
      <trkpt lat="48.823090" lon="2.223128">
        <ele>80.264447</ele>
        <time>2025-02-12T15:35:33.994Z</time>
      </trkpt>
      <trkpt lat="48.823013" lon="2.222893">
        <ele>79.394528</ele>
        <time>2025-02-12T15:35:36.821Z</time>
      </trkpt>
      <trkpt lat="48.822967" lon="2.222785">
        <ele>78.968243</ele>
        <time>2025-02-12T15:35:38.179Z</time>
      </trkpt>
      <trkpt lat="48.822974" lon="2.222729">
        <ele>78.779340</ele>
        <time>2025-02-12T15:35:38.771Z</time>
      </trkpt>
      <trkpt lat="48.822952" lon="2.222650">
        <ele>78.495072</ele>
        <time>2025-02-12T15:35:39.660Z</time>
      </trkpt>
      <trkpt lat="48.822903" lon="2.222506">
        <ele>77.957877</ele>
        <time>2025-02-12T15:35:41.325Z</time>
      </trkpt>
      <trkpt lat="48.822884" lon="2.222554">
        <ele>77.772266</ele>
        <time>2025-02-12T15:35:41.898Z</time>
      </trkpt>
      <trkpt lat="48.822903" lon="2.222506">
        <ele>77.586654</ele>
        <time>2025-02-12T15:35:44.475Z</time>
      </trkpt>
      <trkpt lat="48.822933" lon="2.222186">
        <ele>76.515456</ele>
        <time>2025-02-12T15:35:47.718Z</time>
      </trkpt>
      <trkpt lat="48.822953" lon="2.221976">
        <ele>75.812259</ele>
        <time>2025-02-12T15:35:49.805Z</time>
      </trkpt>
      <trkpt lat="48.822985" lon="2.221738">
        <ele>74.859749</ele>
        <time>2025-02-12T15:35:52.147Z</time>
      </trkpt>
      <trkpt lat="48.823051" lon="2.221485">
        <ele>73.000751</ele>
        <time>2025-02-12T15:35:54.726Z</time>
      </trkpt>
      <trkpt lat="48.823290" lon="2.220848">
        <ele>67.992352</ele>
        <time>2025-02-12T15:36:01.543Z</time>
      </trkpt>
      <trkpt lat="48.823402" lon="2.220663">
        <ele>66.275536</ele>
        <time>2025-02-12T15:36:03.846Z</time>
      </trkpt>
      <trkpt lat="48.823511" lon="2.220536">
        <ele>64.850175</ele>
        <time>2025-02-12T15:36:05.749Z</time>
      </trkpt>
      <trkpt lat="48.823700" lon="2.220393">
        <ele>62.659362</ele>
        <time>2025-02-12T15:36:08.663Z</time>
      </trkpt>
      <trkpt lat="48.824581" lon="2.220060">
        <ele>54.325904</ele>
        <time>2025-02-12T15:36:21.375Z</time>
      </trkpt>
      <trkpt lat="48.825062" lon="2.219887">
        <ele>50.914190</ele>
        <time>2025-02-12T15:36:28.512Z</time>
      </trkpt>
      <trkpt lat="48.825454" lon="2.219735">
        <ele>48.121798</ele>
        <time>2025-02-12T15:36:34.553Z</time>
      </trkpt>
      <trkpt lat="48.825981" lon="2.219619">
        <ele>44.446398</ele>
        <time>2025-02-12T15:36:43.420Z</time>
      </trkpt>
      <trkpt lat="48.826364" lon="2.219488">
        <ele>43.602435</ele>
        <time>2025-02-12T15:36:50.884Z</time>
      </trkpt>
      <trkpt lat="48.826385" lon="2.219482">
        <ele>43.572888</ele>
        <time>2025-02-12T15:36:51.333Z</time>
      </trkpt>
      <trkpt lat="48.826475" lon="2.219457">
        <ele>43.446375</ele>
        <time>2025-02-12T15:36:53.229Z</time>
      </trkpt>
      <trkpt lat="48.826555" lon="2.219423">
        <ele>43.331505</ele>
        <time>2025-02-12T15:36:55.045Z</time>
      </trkpt>
      <trkpt lat="48.826620" lon="2.219343">
        <ele>43.215824</ele>
        <time>2025-02-12T15:36:56.849Z</time>
      </trkpt>
      <trkpt lat="48.826659" lon="2.219321">
        <ele>43.158297</ele>
        <time>2025-02-12T15:36:57.825Z</time>
      </trkpt>
      <trkpt lat="48.826665" lon="2.219320">
        <ele>43.149951</ele>
        <time>2025-02-12T15:36:57.982Z</time>
      </trkpt>
      <trkpt lat="48.826843" lon="2.219203">
        <ele>42.881762</ele>
        <time>2025-02-12T15:37:02.695Z</time>
      </trkpt>
      <trkpt lat="48.826988" lon="2.219194">
        <ele>42.681093</ele>
        <time>2025-02-12T15:37:06.185Z</time>
      </trkpt>
      <trkpt lat="48.827099" lon="2.219139">
        <ele>42.519646</ele>
        <time>2025-02-12T15:37:09.015Z</time>
      </trkpt>
      <trkpt lat="48.827148" lon="2.219165">
        <ele>42.447876</ele>
        <time>2025-02-12T15:37:10.418Z</time>
      </trkpt>
      <trkpt lat="48.827240" lon="2.219289">
        <ele>42.277801</ele>
        <time>2025-02-12T15:37:13.339Z</time>
      </trkpt>
      <trkpt lat="48.827408" lon="2.219494">
        <ele>41.979823</ele>
        <time>2025-02-12T15:37:18.090Z</time>
      </trkpt>
      <trkpt lat="48.829077" lon="2.221408">
        <ele>35.403623</ele>
        <time>2025-02-12T15:37:53.227Z</time>
      </trkpt>
      <trkpt lat="48.829468" lon="2.221823">
        <ele>33.914841</ele>
        <time>2025-02-12T15:38:01.035Z</time>
      </trkpt>
      <trkpt lat="48.829779" lon="2.223103">
        <ele>31.111412</ele>
        <time>2025-02-12T15:38:18.168Z</time>
      </trkpt>
      <trkpt lat="48.831827" lon="2.221931">
        <ele>27.290946</ele>
        <time>2025-02-12T15:39:04.357Z</time>
      </trkpt>
      <trkpt lat="48.832935" lon="2.221910">
        <ele>27.699240</ele>
        <time>2025-02-12T15:39:36.056Z</time>
      </trkpt>
      <trkpt lat="48.834054" lon="2.221925">
        <ele>27.978729</ele>
        <time>2025-02-12T15:40:07.310Z</time>
      </trkpt>
      <trkpt lat="48.834286" lon="2.221920">
        <ele>27.967764</ele>
        <time>2025-02-12T15:40:12.968Z</time>
      </trkpt>
      <trkpt lat="48.835425" lon="2.221909">
        <ele>27.913937</ele>
        <time>2025-02-12T15:40:40.003Z</time>
      </trkpt>
      <trkpt lat="48.836164" lon="2.221760">
        <ele>28.016180</ele>
        <time>2025-02-12T15:40:58.021Z</time>
      </trkpt>
      <trkpt lat="48.836484" lon="2.221682">
        <ele>28.062901</ele>
        <time>2025-02-12T15:41:06.135Z</time>
      </trkpt>
      <trkpt lat="48.837230" lon="2.221522">
        <ele>28.171511</ele>
        <time>2025-02-12T15:41:26.466Z</time>
      </trkpt>
      <trkpt lat="48.837417" lon="2.221478">
        <ele>28.365036</ele>
        <time>2025-02-12T15:41:31.933Z</time>
      </trkpt>
      <trkpt lat="48.838891" lon="2.221182">
        <ele>29.906454</ele>
        <time>2025-02-12T15:42:15.973Z</time>
      </trkpt>
      <trkpt lat="48.839204" lon="2.221092">
        <ele>30.362994</ele>
        <time>2025-02-12T15:42:26.570Z</time>
      </trkpt>
      <trkpt lat="48.839776" lon="2.221219">
        <ele>31.340572</ele>
        <time>2025-02-12T15:42:46.089Z</time>
      </trkpt>
      <trkpt lat="48.839808" lon="2.221228">
        <ele>31.395607</ele>
        <time>2025-02-12T15:42:47.599Z</time>
      </trkpt>
      <trkpt lat="48.839829" lon="2.221075">
        <ele>31.569562</ele>
        <time>2025-02-12T15:42:51.348Z</time>
      </trkpt>
      <trkpt lat="48.839858" lon="2.221052">
        <ele>31.624883</ele>
        <time>2025-02-12T15:42:52.586Z</time>
      </trkpt>
      <trkpt lat="48.840166" lon="2.221155">
        <ele>32.158207</ele>
        <time>2025-02-12T15:43:03.986Z</time>
      </trkpt>
      <trkpt lat="48.840296" lon="2.221332">
        <ele>32.453403</ele>
        <time>2025-02-12T15:43:11.241Z</time>
      </trkpt>
      <trkpt lat="48.840291" lon="2.221383">
        <ele>32.510792</ele>
        <time>2025-02-12T15:43:12.515Z</time>
      </trkpt>
      <trkpt lat="48.840289" lon="2.221440">
        <ele>32.574324</ele>
        <time>2025-02-12T15:43:13.890Z</time>
      </trkpt>
      <trkpt lat="48.840365" lon="2.221526">
        <ele>32.734574</ele>
        <time>2025-02-12T15:43:17.969Z</time>
      </trkpt>
      <trkpt lat="48.840559" lon="2.221594">
        <ele>33.071263</ele>
        <time>2025-02-12T15:43:25.686Z</time>
      </trkpt>
      <trkpt lat="48.840833" lon="2.221718">
        <ele>32.651147</ele>
        <time>2025-02-12T15:43:34.600Z</time>
      </trkpt>
      <trkpt lat="48.840874" lon="2.221737">
        <ele>32.586157</ele>
        <time>2025-02-12T15:43:35.532Z</time>
      </trkpt>
      <trkpt lat="48.841053" lon="2.221720">
        <ele>32.314231</ele>
        <time>2025-02-12T15:43:39.340Z</time>
      </trkpt>
      <trkpt lat="48.840966" lon="2.221625">
        <ele>32.151792</ele>
        <time>2025-02-12T15:43:41.536Z</time>
      </trkpt>
      <trkpt lat="48.840937" lon="2.221535">
        <ele>32.051798</ele>
        <time>2025-02-12T15:43:42.804Z</time>
      </trkpt>
      <trkpt lat="48.840926" lon="2.221330">
        <ele>31.846554</ele>
        <time>2025-02-12T15:43:45.422Z</time>
      </trkpt>
      <trkpt lat="48.840855" lon="2.221217">
        <ele>31.690660</ele>
        <time>2025-02-12T15:43:47.448Z</time>
      </trkpt>
      <trkpt lat="48.840578" lon="2.221428">
        <ele>31.220855</ele>
        <time>2025-02-12T15:43:54.964Z</time>
      </trkpt>
      <trkpt lat="48.840559" lon="2.221594">
        <ele>31.052720</ele>
        <time>2025-02-12T15:43:57.573Z</time>
      </trkpt>
      <trkpt lat="48.840546" lon="2.221708">
        <ele>30.937266</ele>
        <time>2025-02-12T15:43:59.398Z</time>
      </trkpt>
      <trkpt lat="48.840537" lon="2.221793">
        <ele>30.851355</ele>
        <time>2025-02-12T15:44:00.696Z</time>
      </trkpt>
      <trkpt lat="48.841161" lon="2.221941">
        <ele>30.056063</ele>
        <time>2025-02-12T15:44:11.719Z</time>
      </trkpt>
      <trkpt lat="48.841308" lon="2.222041">
        <ele>29.898488</ele>
        <time>2025-02-12T15:44:14.455Z</time>
      </trkpt>
      <trkpt lat="48.841290" lon="2.222068">
        <ele>29.873742</ele>
        <time>2025-02-12T15:44:15.037Z</time>
      </trkpt>
      <trkpt lat="48.841246" lon="2.222133">
        <ele>29.813701</ele>
        <time>2025-02-12T15:44:16.064Z</time>
      </trkpt>
      <trkpt lat="48.841220" lon="2.222171">
        <ele>29.778406</ele>
        <time>2025-02-12T15:44:16.658Z</time>
      </trkpt>
      <trkpt lat="48.841200" lon="2.222200">
        <ele>29.751358</ele>
        <time>2025-02-12T15:44:17.150Z</time>
      </trkpt>
      <trkpt lat="48.841259" lon="2.222255">
        <ele>29.683637</ele>
        <time>2025-02-12T15:44:18.359Z</time>
      </trkpt>
      <trkpt lat="48.841275" lon="2.222326">
        <ele>29.635314</ele>
        <time>2025-02-12T15:44:19.184Z</time>
      </trkpt>
      <trkpt lat="48.841296" lon="2.222562">
        <ele>29.481970</ele>
        <time>2025-02-12T15:44:22.158Z</time>
      </trkpt>
      <trkpt lat="48.841131" lon="2.224680">
        <ele>29.126571</ele>
        <time>2025-02-12T15:45:02.280Z</time>
      </trkpt>
      <trkpt lat="48.841101" lon="2.224810">
        <ele>29.224864</ele>
        <time>2025-02-12T15:45:05.098Z</time>
      </trkpt>
      <trkpt lat="48.841033" lon="2.224889">
        <ele>29.317665</ele>
        <time>2025-02-12T15:45:07.876Z</time>
      </trkpt>
      <trkpt lat="48.841049" lon="2.224932">
        <ele>29.352909</ele>
        <time>2025-02-12T15:45:08.833Z</time>
      </trkpt>
      <trkpt lat="48.841066" lon="2.224977">
        <ele>29.389931</ele>
        <time>2025-02-12T15:45:09.828Z</time>
      </trkpt>
      <trkpt lat="48.841073" lon="2.225097">
        <ele>29.475888</ele>
        <time>2025-02-12T15:45:12.390Z</time>
      </trkpt>
      <trkpt lat="48.841074" lon="2.225136">
        <ele>29.503736</ele>
        <time>2025-02-12T15:45:13.168Z</time>
      </trkpt>
      <trkpt lat="48.841076" lon="2.225185">
        <ele>29.538765</ele>
        <time>2025-02-12T15:45:14.086Z</time>
      </trkpt>
      <trkpt lat="48.841063" lon="2.225239">
        <ele>29.579791</ele>
        <time>2025-02-12T15:45:15.255Z</time>
      </trkpt>
      <trkpt lat="48.841060" lon="2.225281">
        <ele>29.609934</ele>
        <time>2025-02-12T15:45:16.194Z</time>
      </trkpt>
      <trkpt lat="48.841109" lon="2.225289">
        <ele>29.663362</ele>
        <time>2025-02-12T15:45:17.689Z</time>
      </trkpt>
      <trkpt lat="48.841171" lon="2.225265">
        <ele>29.732724</ele>
        <time>2025-02-12T15:45:19.525Z</time>
      </trkpt>
      <trkpt lat="48.841228" lon="2.225358">
        <ele>29.823398</ele>
        <time>2025-02-12T15:45:22.102Z</time>
      </trkpt>
      <trkpt lat="48.841319" lon="2.225430">
        <ele>29.934627</ele>
        <time>2025-02-12T15:45:25.100Z</time>
      </trkpt>
      <trkpt lat="48.841733" lon="2.225642">
        <ele>30.408254</ele>
        <time>2025-02-12T15:45:36.918Z</time>
      </trkpt>
      <trkpt lat="48.841849" lon="2.225701">
        <ele>30.540870</ele>
        <time>2025-02-12T15:45:39.819Z</time>
      </trkpt>
      <trkpt lat="48.842164" lon="2.225798">
        <ele>30.462894</ele>
        <time>2025-02-12T15:45:46.507Z</time>
      </trkpt>
      <trkpt lat="48.842498" lon="2.225833">
        <ele>30.380926</ele>
        <time>2025-02-12T15:45:53.214Z</time>
      </trkpt>
      <trkpt lat="48.842733" lon="2.225807">
        <ele>30.323238</ele>
        <time>2025-02-12T15:45:58.018Z</time>
      </trkpt>
      <trkpt lat="48.843484" lon="2.225967">
        <ele>30.137571</ele>
        <time>2025-02-12T15:46:14.399Z</time>
      </trkpt>
      <trkpt lat="48.844996" lon="2.226567">
        <ele>29.892342</ele>
        <time>2025-02-12T15:46:48.967Z</time>
      </trkpt>
      <trkpt lat="48.845059" lon="2.226592">
        <ele>29.882728</ele>
        <time>2025-02-12T15:46:50.315Z</time>
      </trkpt>
      <trkpt lat="48.845277" lon="2.226672">
        <ele>29.849613</ele>
        <time>2025-02-12T15:46:55.030Z</time>
      </trkpt>
      <trkpt lat="48.845598" lon="2.226784">
        <ele>29.791920</ele>
        <time>2025-02-12T15:47:02.027Z</time>
      </trkpt>
      <trkpt lat="48.845812" lon="2.226812">
        <ele>29.751880</ele>
        <time>2025-02-12T15:47:06.665Z</time>
      </trkpt>
      <trkpt lat="48.846529" lon="2.227066">
        <ele>29.614637</ele>
        <time>2025-02-12T15:47:22.462Z</time>
      </trkpt>
      <trkpt lat="48.846859" lon="2.227183">
        <ele>29.551468</ele>
        <time>2025-02-12T15:47:29.716Z</time>
      </trkpt>
      <trkpt lat="48.846997" lon="2.227213">
        <ele>29.525481</ele>
        <time>2025-02-12T15:47:32.990Z</time>
      </trkpt>
      <trkpt lat="48.847212" lon="2.227259">
        <ele>29.528069</ele>
        <time>2025-02-12T15:47:38.072Z</time>
      </trkpt>
      <trkpt lat="48.847526" lon="2.227295">
        <ele>29.635649</ele>
        <time>2025-02-12T15:47:45.374Z</time>
      </trkpt>
      <trkpt lat="48.847910" lon="2.227335">
        <ele>29.767146</ele>
        <time>2025-02-12T15:47:54.241Z</time>
      </trkpt>
      <trkpt lat="48.847929" lon="2.227336">
        <ele>29.773641</ele>
        <time>2025-02-12T15:47:54.680Z</time>
      </trkpt>
      <trkpt lat="48.847989" lon="2.227341">
        <ele>29.794171</ele>
        <time>2025-02-12T15:47:55.988Z</time>
      </trkpt>
      <trkpt lat="48.847968" lon="2.227477">
        <ele>29.825577</ele>
        <time>2025-02-12T15:47:58.126Z</time>
      </trkpt>
      <trkpt lat="48.847671" lon="2.229366">
        <ele>30.728619</ele>
        <time>2025-02-12T15:48:30.200Z</time>
      </trkpt>
      <trkpt lat="48.847650" lon="2.229647">
        <ele>30.993221</ele>
        <time>2025-02-12T15:48:35.452Z</time>
      </trkpt>
      <trkpt lat="48.847642" lon="2.229741">
        <ele>31.081903</ele>
        <time>2025-02-12T15:48:37.247Z</time>
      </trkpt>
      <trkpt lat="48.847589" lon="2.230488">
        <ele>31.784871</ele>
        <time>2025-02-12T15:48:52.083Z</time>
      </trkpt>
      <trkpt lat="48.847428" lon="2.232877">
        <ele>34.414511</ele>
        <time>2025-02-12T15:49:43.244Z</time>
      </trkpt>
      <trkpt lat="48.847334" lon="2.233262">
        <ele>34.906863</ele>
        <time>2025-02-12T15:49:51.917Z</time>
      </trkpt>
      <trkpt lat="48.847232" lon="2.233449">
        <ele>35.198079</ele>
        <time>2025-02-12T15:49:57.054Z</time>
      </trkpt>
      <trkpt lat="48.847549" lon="2.233463">
        <ele>35.775885</ele>
        <time>2025-02-12T15:50:07.053Z</time>
      </trkpt>
      <trkpt lat="48.847351" lon="2.234782">
        <ele>36.168082</ele>
        <time>2025-02-12T15:50:31.012Z</time>
      </trkpt>
      <trkpt lat="48.847998" lon="2.235118">
        <ele>36.356390</ele>
        <time>2025-02-12T15:50:45.978Z</time>
      </trkpt>
      <trkpt lat="48.848050" lon="2.235156">
        <ele>36.372282</ele>
        <time>2025-02-12T15:50:47.184Z</time>
      </trkpt>
      <trkpt lat="48.848280" lon="2.235430">
        <ele>36.425704</ele>
        <time>2025-02-12T15:50:53.138Z</time>
      </trkpt>
      <trkpt lat="48.848397" lon="2.235693">
        <ele>36.296511</ele>
        <time>2025-02-12T15:50:57.278Z</time>
      </trkpt>
      <trkpt lat="48.848461" lon="2.235987">
        <ele>36.170489</ele>
        <time>2025-02-12T15:51:01.324Z</time>
      </trkpt>
      <trkpt lat="48.848469" lon="2.236302">
        <ele>36.042202</ele>
        <time>2025-02-12T15:51:05.432Z</time>
      </trkpt>
      <trkpt lat="48.848358" lon="2.237249">
        <ele>35.650747</ele>
        <time>2025-02-12T15:51:18.160Z</time>
      </trkpt>
      <trkpt lat="48.848833" lon="2.237377">
        <ele>35.352412</ele>
        <time>2025-02-12T15:51:28.597Z</time>
      </trkpt>
      <trkpt lat="48.849046" lon="2.237434">
        <ele>35.384477</ele>
        <time>2025-02-12T15:51:33.453Z</time>
      </trkpt>
      <trkpt lat="48.849072" lon="2.237441">
        <ele>35.392016</ele>
        <time>2025-02-12T15:51:34.035Z</time>
      </trkpt>
      <trkpt lat="48.849356" lon="2.237517">
        <ele>35.474352</ele>
        <time>2025-02-12T15:51:40.435Z</time>
      </trkpt>
      <trkpt lat="48.849568" lon="2.237574">
        <ele>35.535822</ele>
        <time>2025-02-12T15:51:45.003Z</time>
      </trkpt>
      <trkpt lat="48.849592" lon="2.237581">
        <ele>35.542800</ele>
        <time>2025-02-12T15:51:45.525Z</time>
      </trkpt>
      <trkpt lat="48.849618" lon="2.237588">
        <ele>35.550339</ele>
        <time>2025-02-12T15:51:46.084Z</time>
      </trkpt>
      <trkpt lat="48.850347" lon="2.237774">
        <ele>35.761397</ele>
        <time>2025-02-12T15:52:03.149Z</time>
      </trkpt>
      <trkpt lat="48.850458" lon="2.237849">
        <ele>35.796081</ele>
        <time>2025-02-12T15:52:06.373Z</time>
      </trkpt>
      <trkpt lat="48.850571" lon="2.237881">
        <ele>35.828900</ele>
        <time>2025-02-12T15:52:09.620Z</time>
      </trkpt>
      <trkpt lat="48.850602" lon="2.237889">
        <ele>35.837878</ele>
        <time>2025-02-12T15:52:10.503Z</time>
      </trkpt>
      <trkpt lat="48.850613" lon="2.237972">
        <ele>35.907245</ele>
        <time>2025-02-12T15:52:12.162Z</time>
      </trkpt>
      <trkpt lat="48.850674" lon="2.238098">
        <ele>36.129814</ele>
        <time>2025-02-12T15:52:15.117Z</time>
      </trkpt>
      <trkpt lat="48.850833" lon="2.238216">
        <ele>36.512418</ele>
        <time>2025-02-12T15:52:20.437Z</time>
      </trkpt>
      <trkpt lat="48.851082" lon="2.238336">
        <ele>37.077246</ele>
        <time>2025-02-12T15:52:28.714Z</time>
      </trkpt>
      <trkpt lat="48.851883" lon="2.238956">
        <ele>39.020926</ele>
        <time>2025-02-12T15:53:00.670Z</time>
      </trkpt>
      <trkpt lat="48.852024" lon="2.239058">
        <ele>39.358583</ele>
        <time>2025-02-12T15:53:06.727Z</time>
      </trkpt>
      <trkpt lat="48.852076" lon="2.239142">
        <ele>39.522674</ele>
        <time>2025-02-12T15:53:09.670Z</time>
      </trkpt>
      <trkpt lat="48.852105" lon="2.239218">
        <ele>39.647672</ele>
        <time>2025-02-12T15:53:11.893Z</time>
      </trkpt>
      <trkpt lat="48.852130" lon="2.239299">
        <ele>39.764385</ele>
        <time>2025-02-12T15:53:14.142Z</time>
      </trkpt>
      <trkpt lat="48.852852" lon="2.240302">
        <ele>41.322423</ele>
        <time>2025-02-12T15:53:49.151Z</time>
      </trkpt>
      <trkpt lat="48.853371" lon="2.241198">
        <ele>42.573484</ele>
        <time>2025-02-12T15:54:11.728Z</time>
      </trkpt>
      <trkpt lat="48.853450" lon="2.241394">
        <ele>42.630569</ele>
        <time>2025-02-12T15:54:15.777Z</time>
      </trkpt>
      <trkpt lat="48.853504" lon="2.241530">
        <ele>42.654546</ele>
        <time>2025-02-12T15:54:18.489Z</time>
      </trkpt>
      <trkpt lat="48.853669" lon="2.241939">
        <ele>42.726966</ele>
        <time>2025-02-12T15:54:26.614Z</time>
      </trkpt>
      <trkpt lat="48.853718" lon="2.242037">
        <ele>42.745546</ele>
        <time>2025-02-12T15:54:28.612Z</time>
      </trkpt>
      <trkpt lat="48.853719" lon="2.242566">
        <ele>42.825400</ele>
        <time>2025-02-12T15:54:37.165Z</time>
      </trkpt>
      <trkpt lat="48.853676" lon="2.242928">
        <ele>42.880928</ele>
        <time>2025-02-12T15:54:43.058Z</time>
      </trkpt>
      <trkpt lat="48.853571" lon="2.243424">
        <ele>42.959579</ele>
        <time>2025-02-12T15:54:51.602Z</time>
      </trkpt>
      <trkpt lat="48.853828" lon="2.243477">
        <ele>43.028460</ele>
        <time>2025-02-12T15:54:58.464Z</time>
      </trkpt>
      <trkpt lat="48.853909" lon="2.243509">
        <ele>43.074134</ele>
        <time>2025-02-12T15:55:00.813Z</time>
      </trkpt>
      <trkpt lat="48.854371" lon="2.243642">
        <ele>43.330750</ele>
        <time>2025-02-12T15:55:14.040Z</time>
      </trkpt>
      <trkpt lat="48.854656" lon="2.243803">
        <ele>43.496683</ele>
        <time>2025-02-12T15:55:22.687Z</time>
      </trkpt>
      <trkpt lat="48.855107" lon="2.244201">
        <ele>43.781294</ele>
        <time>2025-02-12T15:55:37.403Z</time>
      </trkpt>
      <trkpt lat="48.855720" lon="2.244720">
        <ele>44.010352</ele>
        <time>2025-02-12T15:55:56.073Z</time>
      </trkpt>
      <trkpt lat="48.858017" lon="2.246802">
        <ele>43.677405</ele>
        <time>2025-02-12T15:57:01.809Z</time>
      </trkpt>
      <trkpt lat="48.858088" lon="2.246870">
        <ele>43.648341</ele>
        <time>2025-02-12T15:57:03.688Z</time>
      </trkpt>
      <trkpt lat="48.858158" lon="2.246910">
        <ele>43.622441</ele>
        <time>2025-02-12T15:57:05.384Z</time>
      </trkpt>
      <trkpt lat="48.859008" lon="2.247556">
        <ele>43.474955</ele>
        <time>2025-02-12T15:57:26.592Z</time>
      </trkpt>
      <trkpt lat="48.859535" lon="2.248167">
        <ele>43.486977</ele>
        <time>2025-02-12T15:57:42.296Z</time>
      </trkpt>
      <trkpt lat="48.860053" lon="2.248832">
        <ele>43.546622</ele>
        <time>2025-02-12T15:58:02.374Z</time>
      </trkpt>
      <trkpt lat="48.860265" lon="2.249124">
        <ele>43.885543</ele>
        <time>2025-02-12T15:58:11.710Z</time>
      </trkpt>
      <trkpt lat="48.860948" lon="2.249982">
        <ele>44.935228</ele>
        <time>2025-02-12T15:58:41.406Z</time>
      </trkpt>
      <trkpt lat="48.861779" lon="2.251096">
        <ele>45.300977</ele>
        <time>2025-02-12T15:59:11.838Z</time>
      </trkpt>
      <trkpt lat="48.862254" lon="2.250889">
        <ele>44.990240</ele>
        <time>2025-02-12T15:59:21.814Z</time>
      </trkpt>
      <trkpt lat="48.862629" lon="2.250494">
        <ele>44.703336</ele>
        <time>2025-02-12T15:59:30.802Z</time>
      </trkpt>
      <trkpt lat="48.863003" lon="2.250265">
        <ele>44.407804</ele>
        <time>2025-02-12T15:59:38.428Z</time>
      </trkpt>
      <trkpt lat="48.863241" lon="2.250058">
        <ele>44.085965</ele>
        <time>2025-02-12T15:59:43.540Z</time>
      </trkpt>
      <trkpt lat="48.863449" lon="2.249831">
        <ele>43.785427</ele>
        <time>2025-02-12T15:59:48.332Z</time>
      </trkpt>
      <trkpt lat="48.863535" lon="2.249753">
        <ele>43.667885</ele>
        <time>2025-02-12T15:59:50.234Z</time>
      </trkpt>
      <trkpt lat="48.863666" lon="2.249636">
        <ele>43.489552</ele>
        <time>2025-02-12T15:59:53.112Z</time>
      </trkpt>
      <trkpt lat="48.864130" lon="2.249393">
        <ele>42.913531</ele>
        <time>2025-02-12T16:00:02.894Z</time>
      </trkpt>
      <trkpt lat="48.864712" lon="2.249224">
        <ele>42.311290</ele>
        <time>2025-02-12T16:00:14.938Z</time>
      </trkpt>
      <trkpt lat="48.864832" lon="2.249243">
        <ele>42.247764</ele>
        <time>2025-02-12T16:00:17.437Z</time>
      </trkpt>
      <trkpt lat="48.864894" lon="2.249352">
        <ele>42.197853</ele>
        <time>2025-02-12T16:00:19.460Z</time>
      </trkpt>
      <trkpt lat="48.864988" lon="2.249383">
        <ele>42.147208</ele>
        <time>2025-02-12T16:00:21.476Z</time>
      </trkpt>
      <trkpt lat="48.864966" lon="2.249297">
        <ele>42.115247</ele>
        <time>2025-02-12T16:00:22.792Z</time>
      </trkpt>
      <trkpt lat="48.864995" lon="2.249294">
        <ele>42.099942</ele>
        <time>2025-02-12T16:00:23.404Z</time>
      </trkpt>
      <trkpt lat="48.865189" lon="2.249510">
        <ele>41.973326</ele>
        <time>2025-02-12T16:00:28.526Z</time>
      </trkpt>
      <trkpt lat="48.865205" lon="2.249590">
        <ele>41.944364</ele>
        <time>2025-02-12T16:00:29.714Z</time>
      </trkpt>
      <trkpt lat="48.865350" lon="2.250234">
        <ele>41.708598</ele>
        <time>2025-02-12T16:00:39.244Z</time>
      </trkpt>
      <trkpt lat="48.865413" lon="2.250506">
        <ele>41.608716</ele>
        <time>2025-02-12T16:00:43.215Z</time>
      </trkpt>
      <trkpt lat="48.865739" lon="2.251058">
        <ele>41.266742</ele>
        <time>2025-02-12T16:00:53.284Z</time>
      </trkpt>
      <trkpt lat="48.866193" lon="2.251275">
        <ele>40.774871</ele>
        <time>2025-02-12T16:01:02.857Z</time>
      </trkpt>
      <trkpt lat="48.866263" lon="2.251348">
        <ele>40.687137</ele>
        <time>2025-02-12T16:01:04.512Z</time>
      </trkpt>
      <trkpt lat="48.866381" lon="2.251722">
        <ele>40.405129</ele>
        <time>2025-02-12T16:01:09.705Z</time>
      </trkpt>
      <trkpt lat="48.866414" lon="2.251867">
        <ele>40.300814</ele>
        <time>2025-02-12T16:01:11.623Z</time>
      </trkpt>
      <trkpt lat="48.866424" lon="2.252090">
        <ele>40.148850</ele>
        <time>2025-02-12T16:01:14.434Z</time>
      </trkpt>
      <trkpt lat="48.866454" lon="2.252178">
        <ele>40.081464</ele>
        <time>2025-02-12T16:01:15.684Z</time>
      </trkpt>
      <trkpt lat="48.866553" lon="2.252276">
        <ele>39.959363</ele>
        <time>2025-02-12T16:01:17.964Z</time>
      </trkpt>
      <trkpt lat="48.866738" lon="2.252356">
        <ele>39.760574</ele>
        <time>2025-02-12T16:01:21.748Z</time>
      </trkpt>
      <trkpt lat="48.867036" lon="2.252628">
        <ele>39.460866</ele>
        <time>2025-02-12T16:01:28.801Z</time>
      </trkpt>
      <trkpt lat="48.867092" lon="2.252686">
        <ele>39.414022</ele>
        <time>2025-02-12T16:01:30.222Z</time>
      </trkpt>
      <trkpt lat="48.867234" lon="2.252157">
        <ele>39.154203</ele>
        <time>2025-02-12T16:01:38.883Z</time>
      </trkpt>
      <trkpt lat="48.867534" lon="2.251504">
        <ele>38.792003</ele>
        <time>2025-02-12T16:01:50.985Z</time>
      </trkpt>
      <trkpt lat="48.867638" lon="2.251380">
        <ele>38.700632</ele>
        <time>2025-02-12T16:01:54.141Z</time>
      </trkpt>
      <trkpt lat="48.867711" lon="2.251358">
        <ele>38.649185</ele>
        <time>2025-02-12T16:01:55.897Z</time>
      </trkpt>
      <trkpt lat="48.869027" lon="2.255005">
        <ele>37.168869</ele>
        <time>2025-02-12T16:02:51.548Z</time>
      </trkpt>
      <trkpt lat="48.870616" lon="2.259438">
        <ele>38.528699</ele>
        <time>2025-02-12T16:04:17.109Z</time>
      </trkpt>
      <trkpt lat="48.870648" lon="2.259390">
        <ele>38.507116</ele>
        <time>2025-02-12T16:04:18.197Z</time>
      </trkpt>
      <trkpt lat="48.870660" lon="2.259371">
        <ele>38.498797</ele>
        <time>2025-02-12T16:04:18.574Z</time>
      </trkpt>
      <trkpt lat="48.870721" lon="2.259290">
        <ele>38.459912</ele>
        <time>2025-02-12T16:04:20.332Z</time>
      </trkpt>
      <trkpt lat="48.870739" lon="2.259263">
        <ele>38.447771</ele>
        <time>2025-02-12T16:04:20.877Z</time>
      </trkpt>
      <trkpt lat="48.870757" lon="2.259237">
        <ele>38.435851</ele>
        <time>2025-02-12T16:04:21.476Z</time>
      </trkpt>
      <trkpt lat="48.871062" lon="2.258792">
        <ele>38.232891</ele>
        <time>2025-02-12T16:04:31.395Z</time>
      </trkpt>
      <trkpt lat="48.871221" lon="2.258620">
        <ele>38.139200</ele>
        <time>2025-02-12T16:04:35.803Z</time>
      </trkpt>
      <trkpt lat="48.871639" lon="2.258184">
        <ele>37.895818</ele>
        <time>2025-02-12T16:04:53.188Z</time>
      </trkpt>
      <trkpt lat="48.871623" lon="2.258162">
        <ele>37.885461</ele>
        <time>2025-02-12T16:04:53.927Z</time>
      </trkpt>
      <trkpt lat="48.871764" lon="2.257979">
        <ele>37.796452</ele>
        <time>2025-02-12T16:04:57.584Z</time>
      </trkpt>
      <trkpt lat="48.872155" lon="2.257553">
        <ele>37.560341</ele>
        <time>2025-02-12T16:05:07.188Z</time>
      </trkpt>
      <trkpt lat="48.873157" lon="2.256272">
        <ele>36.915634</ele>
        <time>2025-02-12T16:05:34.946Z</time>
      </trkpt>
      <trkpt lat="48.873697" lon="2.255634">
        <ele>36.880443</ele>
        <time>2025-02-12T16:05:50.326Z</time>
      </trkpt>
      <trkpt lat="48.873747" lon="2.255687">
        <ele>36.880443</ele>
        <time>2025-02-12T16:05:51.885Z</time>
      </trkpt>
      <trkpt lat="48.873895" lon="2.255543">
        <ele>36.880443</ele>
        <time>2025-02-12T16:05:58.551Z</time>
      </trkpt>
      <trkpt lat="48.874038" lon="2.255538">
        <ele>36.880443</ele>
        <time>2025-02-12T16:06:02.234Z</time>
      </trkpt>
      <trkpt lat="48.874116" lon="2.255750">
        <ele>36.880443</ele>
        <time>2025-02-12T16:06:06.012Z</time>
      </trkpt>
      <trkpt lat="48.874204" lon="2.256046">
        <ele>36.880443</ele>
        <time>2025-02-12T16:06:11.067Z</time>
      </trkpt>
      <trkpt lat="48.874313" lon="2.256015">
        <ele>36.880443</ele>
        <time>2025-02-12T16:06:13.727Z</time>
      </trkpt>
      <trkpt lat="48.874664" lon="2.256194">
        <ele>36.880443</ele>
        <time>2025-02-12T16:06:22.480Z</time>
      </trkpt>
      <trkpt lat="48.874854" lon="2.256291">
        <ele>36.880443</ele>
        <time>2025-02-12T16:06:27.190Z</time>
      </trkpt>
      <trkpt lat="48.875388" lon="2.256437">
        <ele>36.880443</ele>
        <time>2025-02-12T16:06:40.008Z</time>
      </trkpt>
    </trkseg>
  </trk>
</gpx>